<?xml version="1.0" encoding="UTF-8" standalone="no" ?><gpx xmlns="http://www.topografix.com/GPX/1/1" xmlns:gpxx="http://www.garmin.com/xmlschemas/GpxExtensions/v3" xmlns:wptx1="http://www.garmin.com/xmlschemas/WaypointExtension/v1" xmlns:gpxtpx="http://www.garmin.com/xmlschemas/TrackPointExtension/v1" creator="GuideVTT.com" version="1.1" xmlns:xsi="http://www.w3.org/2001/XMLSchema-instance" xsi:schemaLocation="http://www.topografix.com/GPX/1/1 http://www.topografix.com/GPX/1/1/gpx.xsd http://www.garmin.com/xmlschemas/GpxExtensions/v3 http://www8.garmin.com/xmlschemas/GpxExtensionsv3.xsd http://www.garmin.com/xmlschemas/WaypointExtension/v1 http://www8.garmin.com/xmlschemas/WaypointExtensionv1.xsd http://www.garmin.com/xmlschemas/TrackPointExtension/v1 http://www.garmin.com/xmlschemas/TrackPointExtensionv1.xsd">
<metadata><link href="http://www.garmin.com"><text>Garmin International</text></link><time>2013-06-22T15:13:50Z</time></metadata>
<trk><name>sortie_en_raquette_du_24_janvier_2009.gpx</name><extensions><gpxx:TrackExtension><gpxx:DisplayColor>Cyan</gpxx:DisplayColor></gpxx:TrackExtension></extensions><trkseg>
<trkpt lat="-72.2428" lon="48.11447"><ele>0</ele><time>6.27543843637365-340.187463788361-24.9171529293606T53.1703548647384:2009-01-24 14:11:55:0Z</time></trkpt>
<trkpt lat="-72.2427" lon="48.11452"><ele>0</ele><time>6.275691285729-340.770009547859-34.2001020874852T53.170348351279:2009-01-24 14:11:59:0Z</time></trkpt>
<trkpt lat="-72.24264" lon="48.11455"><ele>0</ele><time>6.27527745211117-341.11955091238-39.7698688049127T53.1703323057463:2009-01-24 14:12:05:0Z</time></trkpt>
<trkpt lat="-72.24258" lon="48.11458"><ele>0</ele><time>7.01433419099808-341.469069096473-45.3396334369989T63.4684510558523:2009-01-24 14:12:10:0Z</time></trkpt>
<trkpt lat="-72.24252" lon="48.1146"><ele>0</ele><time>7.84049312377469-341.818587283396-50.3225466744605T89.9999776655487:2009-01-24 14:12:15:0Z</time></trkpt>
<trkpt lat="-72.24246" lon="48.1146"><ele>0</ele><time>7.83937907093387-342.168128646502-54.7807020173439T89.9999739431397:2009-01-24 14:12:20:0Z</time></trkpt>
<trkpt lat="-72.24239" lon="48.1146"><ele>0</ele><time>7.84071593532742-342.575868959463-59.9818832495765T89.9999739431397:2009-01-24 14:12:24:0Z</time></trkpt>
<trkpt lat="-72.24232" lon="48.1146"><ele>0</ele><time>7.84049312338932-342.98367880522-65.1830644825246T89.9999776655487:2009-01-24 14:12:30:0Z</time></trkpt>
<trkpt lat="-72.24226" lon="48.1146"><ele>0</ele><time>8.97769653043193-343.333220168327-69.6412198256402T116.531504275255:2009-01-24 14:12:35:0Z</time></trkpt>
<trkpt lat="-72.2422" lon="48.11458"><ele>0</ele><time>0.660965898103895-343.780570997139-74.6241330628568T116.531495353245:2009-01-24 14:12:39:0Z</time></trkpt>
<trkpt lat="-72.24214" lon="48.11456"><ele>0</ele><time>2.257407348178-343.813506364619-79.6070478508149T110.528449436906:2009-01-24 14:12:45:0Z</time></trkpt>
<trkpt lat="-72.24206" lon="48.11454"><ele>0</ele><time>7.76890119296355-343.956790278599-85.9543255849657T108.409755514249:2009-01-24 14:12:50:0Z</time></trkpt>
<trkpt lat="-72.24197" lon="48.11452"><ele>0</ele><time>7.63873938223449-344.504337864348-93.0022667564265T102.976189714:2009-01-24 14:12:56:0Z</time></trkpt>
<trkpt lat="-72.24184" lon="48.1145"><ele>0</ele><time>8.21216331168873-345.261526831437-102.914752694224T97.1146461870777:2009-01-24 14:13:06:0Z</time></trkpt>
<trkpt lat="-72.24172" lon="48.11449"><ele>0</ele><time>6.76113615978514-345.999432035151-111.90026815108T75.9834753673983:2009-01-24 14:13:15:0Z</time></trkpt>
<trkpt lat="-72.24166" lon="48.1145"><ele>0</ele><time>7.84016593047518-346.310104565559-116.495243360363T89.9999813879867:2009-01-24 14:13:19:0Z</time></trkpt>
<trkpt lat="-72.24161" lon="48.1145"><ele>0</ele><time>5.45610283837323-346.601377446015-120.210380042915T63.4685000900415:2009-01-24 14:13:25:0Z</time></trkpt>
<trkpt lat="-72.24158" lon="48.11451"><ele>0</ele><time>6.7616430496246-346.737314061267-122.701839959981T75.9834701267107:2009-01-24 14:13:29:0Z</time></trkpt>
<trkpt lat="-72.24152" lon="48.11452"><ele>0</ele><time>6.50879827598244-347.048009769274-127.296813485303T73.3238204807276:2009-01-24 14:13:34:0Z</time></trkpt>
<trkpt lat="-72.24147" lon="48.11453"><ele>0</ele><time>4.93160210682724-347.300436994629-131.175059739861T59.0732285682914:2009-01-24 14:13:40:0Z</time></trkpt>
<trkpt lat="-72.24142" lon="48.11455"><ele>0</ele><time>6.1193198938205-347.514018564885-135.505935703279T69.4715040718457:2009-01-24 14:13:44:0Z</time></trkpt>
<trkpt lat="-72.24138" lon="48.11456"><ele>0</ele><time>4.18337986663388-347.708223662788-138.679574298298T53.1703370855509:2009-01-24 14:13:49:0Z</time></trkpt>
<trkpt lat="-72.24134" lon="48.11458"><ele>0</ele><time>7.84049007373303-347.863559927992-142.392750489706T89.999985110369:2009-01-24 14:13:55:0Z</time></trkpt>
<trkpt lat="-72.2413" lon="48.11458"><ele>0</ele><time>4.18275671095426-348.096587503396-145.364855207811T53.1703263578347:2009-01-24 14:14:00:0Z</time></trkpt>
<trkpt lat="-72.24126" lon="48.1146"><ele>0</ele><time>4.93267742764371-348.251900591001-149.078030473259T59.0731941634822:2009-01-24 14:14:04:0Z</time></trkpt>
<trkpt lat="-72.24121" lon="48.11462"><ele>0</ele><time>4.83282340553137-348.465528517869-153.408902094233T63.4684332319239:2009-01-24 14:14:09:0Z</time></trkpt>
<trkpt lat="-72.24115" lon="48.11464"><ele>0</ele><time>1.72709400485772-348.706343764957-158.391812225242T48.0544221546357:2009-01-24 14:14:15:0Z</time></trkpt>
<trkpt lat="-72.2411" lon="48.11467"><ele>0</ele><time>9.48146042067203-348.792610786606-163.386735570837T75.9834281838649:2009-01-24 14:14:20:0Z</time></trkpt>
<trkpt lat="-72.24104" lon="48.11468"><ele>0</ele><time>8.07039821332019-349.228280105769-167.981695627972T59.0731548343852:2009-01-24 14:14:25:0Z</time></trkpt>
<trkpt lat="-72.24099" lon="48.1147"><ele>0</ele><time>12.0160057291415-349.577798291277-172.312562287453T73.3237653095943:2009-01-24 14:14:30:0Z</time></trkpt>
<trkpt lat="-72.24094" lon="48.11471"><ele>0</ele><time>12.0172032129541-350.043807085474-176.190796075797T73.3237622542835:2009-01-24 14:14:35:0Z</time></trkpt>
<trkpt lat="-72.24089" lon="48.11472"><ele>0</ele><time>8.07093801044216-350.509862237698-180.069029171844T59.0731351545739:2009-01-24 14:14:39:0Z</time></trkpt>
<trkpt lat="-72.24084" lon="48.11474"><ele>0</ele><time>9.35262391067096-350.859403600804-184.399893349636T63.4683797670627:2009-01-24 14:14:45:0Z</time></trkpt>
<trkpt lat="-72.24078" lon="48.11476"><ele>0</ele><time>15.6810350803897-351.325435574014-189.382794166147T89.9999888327451:2009-01-24 14:14:54:0Z</time></trkpt>
<trkpt lat="-72.24075" lon="48.11476"><ele>0</ele><time>15.6779157037417-351.67497693712-191.611864895943T89.9999962775817:2009-01-24 14:15:02:0Z</time></trkpt>
<trkpt lat="-72.24074" lon="48.11476"><ele>0</ele><time>15.6810350832632-351.791467547224-192.354888473217T89.9999962775817:2009-01-24 14:15:06:0Z</time></trkpt>
<trkpt lat="-72.24073" lon="48.11476"><ele>0</ele><time>15.6779157180485-351.907981334926-193.09791204968T89.9999962775817:2009-01-24 14:15:12:0Z</time></trkpt>
<trkpt lat="-72.24072" lon="48.11476"><ele>0</ele><time>6.2757092588751-352.02447194503-193.840935626276T53.1702401547525:2009-01-24 14:15:17:0Z</time></trkpt>
<trkpt lat="-72.2407" lon="48.11477"><ele>0</ele><time>15.6799983378329-352.140985732732-195.697519207443T89.9999888327429:2009-01-24 14:15:22:0Z</time></trkpt>
<trkpt lat="-72.24067" lon="48.11477"><ele>0</ele><time>11.01321046585-352.49050391824-197.926589504374T69.471423495407:2009-01-24 14:15:26:0Z</time></trkpt>
<trkpt lat="-72.24063" lon="48.11478"><ele>0</ele><time>14.0002175540548-352.840022103748-201.100216182915T69.4714198453244:2009-01-24 14:15:32:0Z</time></trkpt>
<trkpt lat="-72.24059" lon="48.11479"><ele>0</ele><time>23.5207865086289-353.284336667155-204.273842319019T89.9999851103214:2009-01-24 14:15:37:0Z</time></trkpt>
<trkpt lat="-72.24055" lon="48.11479"><ele>0</ele><time>9.41419168866337-353.98339621577-207.245934890662T53.1702241214197:2009-01-24 14:15:42:0Z</time></trkpt>
<trkpt lat="-72.24053" lon="48.1148"><ele>0</ele><time>23.5200110516186-354.158178487537-209.102517776875T89.9999962775788:2009-01-24 14:15:46:0Z</time></trkpt>
<trkpt lat="-72.24052" lon="48.1148"><ele>0</ele><time>28.238829618157-354.332937578876-209.845540775272T126.829760969365:2009-01-24 14:15:51:0Z</time></trkpt>
<trkpt lat="-72.2405" lon="48.11479"><ele>0</ele><time>26.1203362863162-354.857214857138-211.702123662563T146.271312796524:2009-01-24 14:15:56:0Z</time></trkpt>
<trkpt lat="-72.24048" lon="48.11477"><ele>0</ele><time>22.8088997105359-355.556274405752-214.37842744729T126.829734808354:2009-01-24 14:16:01:0Z</time></trkpt>
<trkpt lat="-72.24044" lon="48.11475"><ele>0</ele><time>18.6602412998696-356.403207032851-218.091594841804T131.94558498376:2009-01-24 14:16:06:0Z</time></trkpt>
<trkpt lat="-72.24039" lon="48.11472"><ele>0</ele><time>22.2372550270861-357.335270979271-223.086513886214T138.324870897736:2009-01-24 14:16:12:0Z</time></trkpt>
<trkpt lat="-72.24035" lon="48.11469"><ele>0</ele><time>25.8691547021722-358.329265468906-227.556465273758T120.926803041409:2009-01-24 14:16:16:0Z</time></trkpt>
<trkpt lat="-72.2403" lon="48.11467"><ele>0</ele><time>28.0578323960984-359.449624225609-231.887332554121T116.531535455793:2009-01-24 14:16:22:0Z</time></trkpt>
<trkpt lat="-72.24024" lon="48.11465"><ele>0</ele><time>20.0036557276987-360.847720145239-236.870240356452T120.926783368839:2009-01-24 14:16:27:0Z</time></trkpt>
<trkpt lat="-72.24019" lon="48.11463"><ele>0</ele><time>17.8875808669162-361.714052422289-241.201110117675T120.926773528554:2009-01-24 14:16:32:0Z</time></trkpt>
<trkpt lat="-72.24014" lon="48.11461"><ele>0</ele><time>17.273350957098-362.488740474836-245.531981118682T106.676166803121:2009-01-24 14:16:36:0Z</time></trkpt>
<trkpt lat="-72.24009" lon="48.1146"><ele>0</ele><time>10.9036291163864-363.158642604527-249.410221833844T110.528480820845:2009-01-24 14:16:42:0Z</time></trkpt>
<trkpt lat="-72.24005" lon="48.11459"><ele>0</ele><time>7.83971176196572-363.504684150259-252.583858262947T89.9999851103661:2009-01-24 14:16:47:0Z</time></trkpt>
<trkpt lat="-72.24001" lon="48.11459"><ele>0</ele><time>4.58931047348252-363.737688548065-255.555962402496T69.4714893998879:2009-01-24 14:16:52:0Z</time></trkpt>
<trkpt lat="-72.23997" lon="48.1146"><ele>0</ele><time>7.83971328548716-363.883336577092-258.729598831509T89.9999851103665:2009-01-24 14:16:56:0Z</time></trkpt>
<trkpt lat="-72.23993" lon="48.1146"><ele>0</ele><time>14.6224858871248-364.116340974898-261.701702393476T89.9999888327754:2009-01-24 14:17:01:0Z</time></trkpt>
<trkpt lat="-72.2399" lon="48.1146"><ele>0</ele><time>15.6809862421889-364.442287542722-263.930780064264T89.9999925551799:2009-01-24 14:17:06:0Z</time></trkpt>
<trkpt lat="-72.23988" lon="48.1146"><ele>0</ele><time>15.6809862347996-364.675315118127-265.41683184574T89.9999962775933:2009-01-24 14:17:11:0Z</time></trkpt>
<trkpt lat="-72.23987" lon="48.1146"><ele>0</ele><time>9.35213764645425-364.791828905829-266.159857736825T63.4684555548336:2009-01-24 14:17:18:0Z</time></trkpt>
<trkpt lat="-72.23984" lon="48.11461"><ele>0</ele><time>15.6809892966252-365.024833303635-268.651313771952T89.9999925551785:2009-01-24 14:17:27:0Z</time></trkpt>
<trkpt lat="-72.23982" lon="48.11461"><ele>0</ele><time>0-365.257860879039-270.137365263959T33.7287609753415:2009-01-24 14:17:33:0Z</time></trkpt>
<trkpt lat="-72.23981" lon="48.11462"><ele>0</ele><time>-10.4672160514262-365.257860879039-271.475518481208T00:2009-01-24 14:17:37:0Z</time></trkpt>
<trkpt lat="-72.23981" lon="48.11463"><ele>0</ele><time>-0.000866029433858546-365.141370268935-272.588427678187T33.7287444168726:2009-01-24 14:17:42:0Z</time></trkpt>
<trkpt lat="-72.23979" lon="48.11465"><ele>0</ele><time>6.2757005718585-365.141347091337-275.264733712297T53.1702990445995:2009-01-24 14:17:47:0Z</time></trkpt>
<trkpt lat="-72.23977" lon="48.11466"><ele>0</ele><time>11.0131898351401-365.257860877624-277.121319840855T69.4714637897169:2009-01-24 14:17:52:0Z</time></trkpt>
<trkpt lat="-72.23973" lon="48.11467"><ele>0</ele><time>15.6802277718816-365.607379064547-280.294952477313T89.9999851103496:2009-01-24 14:17:58:0Z</time></trkpt>
<trkpt lat="-72.23969" lon="48.11467"><ele>0</ele><time>18.0251910382355-366.073411037757-283.267051990087T106.676185194979:2009-01-24 14:18:03:0Z</time></trkpt>
<trkpt lat="-72.23964" lon="48.11466"><ele>0</ele><time>18.82585238099-366.772470586371-287.145288548752T126.829675946824:2009-01-24 14:18:08:0Z</time></trkpt>
<trkpt lat="-72.2396" lon="48.11464"><ele>0</ele><time>15.2276655789741-367.471506957387-290.858461035549T106.676176019077:2009-01-24 14:18:12:0Z</time></trkpt>
<trkpt lat="-72.23955" lon="48.11463"><ele>0</ele><time>8.39371037122567-368.062072167383-294.736699672543T131.945518454179:2009-01-24 14:18:17:0Z</time></trkpt>
<trkpt lat="-72.2395" lon="48.1146"><ele>0</ele><time>7.84430735384448-368.481331746803-299.731625168867T126.829643853135:2009-01-24 14:18:22:0Z</time></trkpt>
<trkpt lat="-72.23946" lon="48.11458"><ele>0</ele><time>6.52985913999941-368.772604627259-303.444800434919T146.271198351446:2009-01-24 14:18:27:0Z</time></trkpt>
<trkpt lat="-72.23943" lon="48.11455"><ele>0</ele><time>7.84492666478827-369.03474326639-307.459261290977T126.82961710304:2009-01-24 14:18:32:0Z</time></trkpt>
<trkpt lat="-72.23939" lon="48.11453"><ele>0</ele><time>8.26164974132441-369.326039324445-311.172438870603T106.676142290756:2009-01-24 14:18:37:0Z</time></trkpt>
<trkpt lat="-72.23934" lon="48.11452"><ele>0</ele><time>8.26105059979671-369.646446446226-315.050685126654T106.676139215447:2009-01-24 14:18:42:0Z</time></trkpt>
<trkpt lat="-72.23929" lon="48.11451"><ele>0</ele><time>7.84016745563407-369.966830388994-318.928932074759T89.9999813879857:2009-01-24 14:18:47:0Z</time></trkpt>
<trkpt lat="-72.23924" lon="48.11451"><ele>0</ele><time>8.25913951266243-370.25810326945-322.644068034599T110.528447862881:2009-01-24 14:18:52:0Z</time></trkpt>
<trkpt lat="-72.2392" lon="48.1145"><ele>0</ele><time>8.26164531491433-370.520218732397-325.817709338819T106.676133084872:2009-01-24 14:18:57:0Z</time></trkpt>
<trkpt lat="-72.23915" lon="48.11449"><ele>0</ele><time>8.25986696457948-370.840625854178-329.695957672751T110.528440526941:2009-01-24 14:19:01:0Z</time></trkpt>
<trkpt lat="-72.23911" lon="48.11448"><ele>0</ele><time>4.11762708410173-371.102764493309-332.869600060154T53.1703697456375:2009-01-24 14:19:08:0Z</time></trkpt>
<trkpt lat="-72.23905" lon="48.11451"><ele>0</ele><time>-2.17661938643918-371.332106830551-338.439369555005T33.7287810211979:2009-01-24 14:19:13:0Z</time></trkpt>
<trkpt lat="-72.23899" lon="48.11457"><ele>0</ele><time>-2.00947788425306-371.157347737797-346.46829247294T39.8467947583428:2009-01-24 14:19:18:0Z</time></trkpt>
<trkpt lat="-72.23894" lon="48.11461"><ele>0</ele><time>-1.6182737292105-371.040833950095-352.266504466962T49.4400835161239:2009-01-24 14:19:23:0Z</time></trkpt>
<trkpt lat="-72.23887" lon="48.11465"><ele>0</ele><time>2.1465858025002-370.930045029224-359.112621960636T46.8893681839639:2009-01-24 14:19:27:0Z</time></trkpt>
<trkpt lat="-72.23879" lon="48.1147"><ele>0</ele><time>-6.14119066015028-371.104827299577-367.254959907221T53.1702419280796:2009-01-24 14:19:33:0Z</time></trkpt>
<trkpt lat="-72.23871" lon="48.11474"><ele>0</ele><time>-5.49541677043974-370.648761693725-374.68129839906T58.3358901660299:2009-01-24 14:19:38:0Z</time></trkpt>
<trkpt lat="-72.23854" lon="48.11481"><ele>0</ele><time>-6.27540224468206-369.833211535007-389.521849949307T53.1701830750491:2009-01-24 14:19:48:0Z</time></trkpt>
<trkpt lat="-72.23846" lon="48.11485"><ele>0</ele><time>-4.67624280967412-369.367179561797-396.948178255272T63.4683173410851:2009-01-24 14:19:52:0Z</time></trkpt>
<trkpt lat="-72.23837" lon="48.11488"><ele>0</ele><time>-5.12700970803994-369.017661376289-404.422516088733T60.6778861744884:2009-01-24 14:19:58:0Z</time></trkpt>
<trkpt lat="-72.23829" lon="48.11491"><ele>0</ele><time>-5.5336625296551-368.668120013183-411.240161909803T63.4682906117452:2009-01-24 14:20:03:0Z</time></trkpt>
<trkpt lat="-72.2382" lon="48.11494"><ele>0</ele><time>-12.0371418105839-368.254515767799-418.714492756101T59.0730034774832:2009-01-24 14:20:08:0Z</time></trkpt>
<trkpt lat="-72.2381" lon="48.11498"><ele>0</ele><time>-14.0293770336502-367.211894676493-427.37619258246T63.4682594112374:2009-01-24 14:20:13:0Z</time></trkpt>
<trkpt lat="-72.23801" lon="48.11501"><ele>0</ele><time>-14.5257055311963-366.163293764773-434.850515278364T60.6778242784395:2009-01-24 14:20:17:0Z</time></trkpt>
<trkpt lat="-72.23793" lon="48.11504"><ele>0</ele><time>-16.0986039835609-365.172984513301-441.668147987117T56.3483455141875:2009-01-24 14:20:23:0Z</time></trkpt>
<trkpt lat="-72.23784" lon="48.11508"><ele>0</ele><time>-21.0676772070626-363.879720871724-449.701537981042T53.1700487412538:2009-01-24 14:20:28:0Z</time></trkpt>
<trkpt lat="-72.23778" lon="48.11511"><ele>0</ele><time>-21.067478335319-362.706308592036-455.271265807015T53.1700225654464:2009-01-24 14:20:32:0Z</time></trkpt>
<trkpt lat="-72.2377" lon="48.11515"><ele>0</ele><time>-20.822215367313-361.141774337516-462.697566333439T56.3482889325442:2009-01-24 14:20:38:0Z</time></trkpt>
<trkpt lat="-72.23761" lon="48.11519"><ele>0</ele><time>-21.0678114524369-359.469047053159-470.730944409928T53.1699797625542:2009-01-24 14:20:42:0Z</time></trkpt>
<trkpt lat="-72.23753" lon="48.11523"><ele>0</ele><time>-21.0673004745067-357.904489621041-478.157237528462T53.1699684800226:2009-01-24 14:20:47:0Z</time></trkpt>
<trkpt lat="-72.23747" lon="48.11526"><ele>0</ele><time>-20.3854261317039-356.73110051895-483.726954937253T60.677705246554:2009-01-24 14:20:53:0Z</time></trkpt>
<trkpt lat="-72.23739" lon="48.11529"><ele>0</ele><time>-19.4929912762067-355.341302179586-490.544562429905T66.8314105010998:2009-01-24 14:20:58:0Z</time></trkpt>
<trkpt lat="-72.23725" lon="48.11533"><ele>0</ele><time>-13.2392334407578-353.135721904104-501.859297270904T94.7567082607493:2009-01-24 14:21:04:0Z</time></trkpt>
<trkpt lat="-72.23707" lon="48.11532"><ele>0</ele><time>-6.68763381074452-351.358950381457-515.279798771974T114.743505039642:2009-01-24 14:21:12:0Z</time></trkpt>
<trkpt lat="-72.23694" lon="48.11528"><ele>0</ele><time>-0.572194758799797-350.647676238429-525.915460998055T124.95292540201:2009-01-24 14:21:20:0Z</time></trkpt>
<trkpt lat="-72.23679" lon="48.11521"><ele>0</ele><time>-0.0882436347967013-350.569869040236-539.513488067765T133.110855991696:2009-01-24 14:21:29:0Z</time></trkpt>
<trkpt lat="-72.23671" lon="48.11516"><ele>0</ele><time>-0.838028645427867-350.562683983284-547.655782940971T136.933384486508:2009-01-24 14:21:33:0Z</time></trkpt>
<trkpt lat="-72.23664" lon="48.11511"><ele>0</ele><time>-5.37887980945816-350.498852878406-555.27259952907T126.829886356952:2009-01-24 14:21:39:0Z</time></trkpt>
<trkpt lat="-72.23654" lon="48.11506"><ele>0</ele><time>-3.51437747927319-349.999537873738-564.555480395641T131.144571763958:2009-01-24 14:21:45:0Z</time></trkpt>
<trkpt lat="-72.23642" lon="48.11499"><ele>0</ele><time>-3.76842545535133-349.583430447715-576.395626437923T130.560051664382:2009-01-24 14:21:53:0Z</time></trkpt>
<trkpt lat="-72.23635" lon="48.11495"><ele>0</ele><time>-5.37843247243025-349.325440598717-583.241717784419T126.829810869091:2009-01-24 14:21:57:0Z</time></trkpt>
<trkpt lat="-72.23627" lon="48.11491"><ele>0</ele><time>-9.28433828884884-348.92602104362-590.668036830804T133.110689087955:2009-01-24 14:22:02:0Z</time></trkpt>
<trkpt lat="-72.23619" lon="48.11486"><ele>0</ele><time>-11.0615025697705-348.170060490668-598.810357041819T130.559980051587:2009-01-24 14:22:08:0Z</time></trkpt>
<trkpt lat="-72.23612" lon="48.11482"><ele>0</ele><time>-7.81954879440337-347.4127788146-605.656458385569T138.32490309283:2009-01-24 14:22:13:0Z</time></trkpt>
<trkpt lat="-72.23604" lon="48.11476"><ele>0</ele><time>-3.87339609367705-346.713719265986-614.596354625034T142.084424505776:2009-01-24 14:22:19:0Z</time></trkpt>
<trkpt lat="-72.23597" lon="48.1147"><ele>0</ele><time>-7.03112386554292-346.385872135083-623.060429121268T129.764352798603:2009-01-24 14:22:23:0Z</time></trkpt>
<trkpt lat="-72.23588" lon="48.11465"><ele>0</ele><time>-7.60321250945732-345.774192132846-631.760034105253T123.651366302184:2009-01-24 14:22:29:0Z</time></trkpt>
<trkpt lat="-72.23579" lon="48.11461"><ele>0</ele><time>1.55049126851932-345.163392877937-639.79347068419T98.5184389553464:2009-01-24 14:22:34:0Z</time></trkpt>
<trkpt lat="-72.23569" lon="48.1146"><ele>0</ele><time>-1.56293300110395-345.279883489455-647.306612736855T79.3954891808645:2009-01-24 14:22:39:0Z</time></trkpt>
<trkpt lat="-72.23561" lon="48.11461"><ele>0</ele><time>13.7672058052813-345.185365242738-653.354104641516T69.4714820878379:2009-01-24 14:22:43:0Z</time></trkpt>
<trkpt lat="-72.23557" lon="48.11462"><ele>0</ele><time>15.3371826122652-345.622286152221-656.527739986717T75.9834412996255:2009-01-24 14:22:48:0Z</time></trkpt>
<trkpt lat="-72.23551" lon="48.11463"><ele>0</ele><time>13.1812127339677-346.32702421247-661.122704251441T126.829659896108:2009-01-24 14:22:54:0Z</time></trkpt>
<trkpt lat="-72.23547" lon="48.11461"><ele>0</ele><time>14.1206288761768-346.816465560174-664.835878126882T126.829649194618:2009-01-24 14:22:58:0Z</time></trkpt>
<trkpt lat="-72.23543" lon="48.11459"><ele>0</ele><time>12.380691701122-347.340789193633-668.549052929908T138.324798910468:2009-01-24 14:23:03:0Z</time></trkpt>
<trkpt lat="-72.23539" lon="48.11456"><ele>0</ele><time>15.1989561139093-347.89420071322-673.019009318022T116.531499828538:2009-01-24 14:23:08:0Z</time></trkpt>
<trkpt lat="-72.23536" lon="48.11455"><ele>0</ele><time>12.9445032732476-348.272876317651-675.510467294432T134.958036848965:2009-01-24 14:23:16:0Z</time></trkpt>
<trkpt lat="-72.23533" lon="48.11453"><ele>0</ele><time>20.7371184629852-348.680639808211-678.660557197091T126.829616512762:2009-01-24 14:23:25:0Z</time></trkpt>
<trkpt lat="-72.23531" lon="48.11452"><ele>0</ele><time>21.9642898211555-349.065642897035-680.517146334638T126.829611164594:2009-01-24 14:23:29:0Z</time></trkpt>
<trkpt lat="-72.23529" lon="48.11451"><ele>0</ele><time>21.9642869085775-349.473429566608-682.373735702623T126.829605829823:2009-01-24 14:23:34:0Z</time></trkpt>
<trkpt lat="-72.23527" lon="48.1145"><ele>0</ele><time>12.4127455766967-349.881216233352-684.230325303921T161.539844749054:2009-01-24 14:23:40:0Z</time></trkpt>
<trkpt lat="-72.23526" lon="48.11448"><ele>0</ele><time>12.4127450884937-350.172489113808-686.576888186857T161.539838056172:2009-01-24 14:23:45:0Z</time></trkpt>
<trkpt lat="-72.23525" lon="48.11446"><ele>0</ele><time>12.4127446091624-350.463761994264-688.923451162085T161.5398313768:2009-01-24 14:23:49:0Z</time></trkpt>
<trkpt lat="-72.23524" lon="48.11444"><ele>0</ele><time>10.2186099236044-350.75503487472-691.270014227928T167.453381676342:2009-01-24 14:23:55:0Z</time></trkpt>
<trkpt lat="-72.23523" lon="48.11441"><ele>0</ele><time>10.9064623680707-351.104553060228-694.690422562535T161.539814606476:2009-01-24 14:24:00:0Z</time></trkpt>
<trkpt lat="-72.23522" lon="48.11439"><ele>0</ele><time>6.20488986608196-351.360480102959-697.036985857708T161.539807913605:2009-01-24 14:24:04:0Z</time></trkpt>
<trkpt lat="-72.23521" lon="48.11437"><ele>0</ele><time>6.20587735168014-351.506081776789-699.383549245173T161.539801234247:2009-01-24 14:24:10:0Z</time></trkpt>
<trkpt lat="-72.2352" lon="48.11435"><ele>0</ele><time>0-351.651706628218-701.730112723253T180:2009-01-24 14:24:14:0Z</time></trkpt>
<trkpt lat="-72.2352" lon="48.11433"><ele>0</ele><time>0.000694204524161003-351.651706628218-703.955931118628T180:2009-01-24 14:24:20:0Z</time></trkpt>
<trkpt lat="-72.2352" lon="48.1143"><ele>0</ele><time>0-351.651729805816-707.294658710981T180:2009-01-24 14:24:25:0Z</time></trkpt>
<trkpt lat="-72.2352" lon="48.11428"><ele>0</ele><time>3.22662788967042-351.651729805816-709.520477106355T170.524007881281:2009-01-24 14:24:30:0Z</time></trkpt>
<trkpt lat="-72.23519" lon="48.11424"><ele>0</ele><time>6.2063695165892-351.797354657245-714.033698227861T161.539750604565:2009-01-24 14:24:34:0Z</time></trkpt>
<trkpt lat="-72.23517" lon="48.1142"><ele>0</ele><time>6.20636903338143-352.088627537701-718.726826467767T161.539737217422:2009-01-24 14:24:39:0Z</time></trkpt>
<trkpt lat="-72.23515" lon="48.11416"><ele>0</ele><time>4.60242516657839-352.379900418157-723.419955073066T170.523986150858:2009-01-24 14:24:45:0Z</time></trkpt>
<trkpt lat="-72.23514" lon="48.11412"><ele>0</ele><time>11.1523761320169-352.58761805599-727.933176479497T167.453306012863:2009-01-24 14:24:50:0Z</time></trkpt>
<trkpt lat="-72.23513" lon="48.11409"><ele>0</ele><time>9.09154670274413-352.969074970828-731.353585819377T146.270952344484:2009-01-24 14:24:55:0Z</time></trkpt>
<trkpt lat="-72.23511" lon="48.11407"><ele>0</ele><time>10.9206274289782-353.212393401385-734.029900845989T167.453294185332:2009-01-24 14:25:00:0Z</time></trkpt>
<trkpt lat="-72.2351" lon="48.11404"><ele>0</ele><time>22.8552996359732-353.585923578948-737.450310341617T146.270926587187:2009-01-24 14:25:04:0Z</time></trkpt>
<trkpt lat="-72.23508" lon="48.11402"><ele>0</ele><time>15.5151766442286-354.197603581185-740.126626171992T161.539683989253:2009-01-24 14:25:10:0Z</time></trkpt>
<trkpt lat="-72.23507" lon="48.114"><ele>0</ele><time>27.2772692359492-354.561677298556-742.473191252876T134.957730203328:2009-01-24 14:25:15:0Z</time></trkpt>
<trkpt lat="-72.23504" lon="48.11398"><ele>0</ele><time>12.5261996547665-355.420940408061-745.623298039858T146.270895692914:2009-01-24 14:25:20:0Z</time></trkpt>
<trkpt lat="-72.23502" lon="48.11396"><ele>0</ele><time>8.16142802174406-355.756181192888-748.299614832393T146.270891664022:2009-01-24 14:25:25:0Z</time></trkpt>
<trkpt lat="-72.23501" lon="48.11395"><ele>0</ele><time>24.5022058509808-355.86539403706-749.637773349273T89.9999925552608:2009-01-24 14:25:30:0Z</time></trkpt>
<trkpt lat="-72.23499" lon="48.11395"><ele>0</ele><time>15.6872401529581-356.229514109628-751.123843929133T126.829306240941:2009-01-24 14:25:34:0Z</time></trkpt>
<trkpt lat="-72.23497" lon="48.11394"><ele>0</ele><time>8.16489125244096-356.520763812486-752.980446492861T146.270881365285:2009-01-24 14:25:40:0Z</time></trkpt>
<trkpt lat="-72.23496" lon="48.11393"><ele>0</ele><time>8.16142644418202-356.630023013269-754.318605170116T146.270876232756:2009-01-24 14:25:45:0Z</time></trkpt>
<trkpt lat="-72.23495" lon="48.11392"><ele>0</ele><time>15.6872342856743-356.739235856027-755.65676392833T126.829290173192:2009-01-24 14:25:50:0Z</time></trkpt>
<trkpt lat="-72.23493" lon="48.11391"><ele>0</ele><time>8.16315762752831-357.030485558884-757.513367186451T146.270865917196:2009-01-24 14:25:55:0Z</time></trkpt>
<trkpt lat="-72.23492" lon="48.1139"><ele>0</ele><time>-6.54253068137488-357.139721580655-758.851526104303T180:2009-01-24 14:25:59:0Z</time></trkpt>
<trkpt lat="-72.23492" lon="48.11388"><ele>0</ele><time>8.16142410302286-356.994096729226-761.077344499677T146.270850485955:2009-01-24 14:26:04:0Z</time></trkpt>
<trkpt lat="-72.23491" lon="48.11387"><ele>0</ele><time>8.16315566725584-357.103309573398-762.415503659076T146.27084531976:2009-01-24 14:26:13:0Z</time></trkpt>
<trkpt lat="-72.2349" lon="48.11386"><ele>0</ele><time>24.4990436224921-357.212545595168-763.753662898256T89.9999962776336:2009-01-24 14:26:22:0Z</time></trkpt>
<trkpt lat="-72.23489" lon="48.11386"><ele>0</ele><time>24.4990436368774-357.394582453854-764.49669948977T89.9999925552671:2009-01-24 14:26:26:0Z</time></trkpt>
<trkpt lat="-72.23487" lon="48.11386"><ele>0</ele><time>23.5320852170665-357.758656171225-765.98277267192T53.1707217247539:2009-01-24 14:26:35:0Z</time></trkpt>
<trkpt lat="-72.23485" lon="48.11387"><ele>0</ele><time>19.0473642628371-358.195553904525-767.839377087848T33.7291420317106:2009-01-24 14:26:45:0Z</time></trkpt>
<trkpt lat="-72.23484" lon="48.11388"><ele>0</ele><time>24.5021724792105-358.450437953908-769.177536246595T89.9999962776321:2009-01-24 14:26:54:0Z</time></trkpt>
<trkpt lat="-72.23483" lon="48.11388"><ele>0</ele><time>15.6872264588468-358.632497990192-769.920572548533T126.829268753349:2009-01-24 14:26:59:0Z</time></trkpt>
<trkpt lat="-72.23481" lon="48.11387"><ele>0</ele><time>24.4990484238053-358.92374769305-771.777176732976T89.9999962776328:2009-01-24 14:27:05:0Z</time></trkpt>
<trkpt lat="-72.2348" lon="48.11387"><ele>0</ele><time>15.688472890941-359.105784551735-772.520213178865T126.829263385781:2009-01-24 14:27:09:0Z</time></trkpt>
<trkpt lat="-72.23478" lon="48.11386"><ele>0</ele><time>15.6897193121776-359.397057432191-774.376817594609T126.829258070688:2009-01-24 14:27:15:0Z</time></trkpt>
<trkpt lat="-72.23476" lon="48.11385"><ele>0</ele><time>25.7251793293678-359.688353490246-776.233422242909T97.7537968014054:2009-01-24 14:27:20:0Z</time></trkpt>
<trkpt lat="-72.23465" lon="48.11384"><ele>0</ele><time>28.3673329023566-361.81037852169-784.482247272562T69.4717473369941:2009-01-24 14:27:24:0Z</time></trkpt>
<trkpt lat="-72.23457" lon="48.11386"><ele>0</ele><time>27.6328197955421-363.61095343942-790.829600842697T63.4687585342839:2009-01-24 14:27:29:0Z</time></trkpt>
<trkpt lat="-72.23448" lon="48.11389"><ele>0</ele><time>25.6718323722772-365.676355597708-798.304053951609T53.1706854109711:2009-01-24 14:27:35:0Z</time></trkpt>
<trkpt lat="-72.23442" lon="48.11392"><ele>0</ele><time>-28.5105067858844-367.106228004893-803.873864421115T-89.9999962776292:2009-01-24 14:27:39:0Z</time></trkpt>
<trkpt lat="-72.23443" lon="48.11392"><ele>0</ele><time>0-366.894384754526-804.616900144605T00:2009-01-24 14:27:50:0Z</time></trkpt>
<trkpt lat="-72.23443" lon="48.11392"><ele>0</ele><time>24.2367308635925-366.894384754526-804.616900144905T104.016327995111:2009-01-24 14:27:50:0Z</time></trkpt>
<trkpt lat="-72.23437" lon="48.11391"><ele>0</ele><time>18.0458900362947-368.008068362858-809.211924179293T112.219342754473:2009-01-24 14:27:55:0Z</time></trkpt>
<trkpt lat="-72.23426" lon="48.11388"><ele>0</ele><time>14.0903981036227-369.601342839528-818.040939946681T122.696703939073:2009-01-24 14:27:59:0Z</time></trkpt>
<trkpt lat="-72.23419" lon="48.11385"><ele>0</ele><time>-11.7774403400501-370.472217925886-824.221567917257T180:2009-01-24 14:28:04:0Z</time></trkpt>
<trkpt lat="-72.23419" lon="48.11377"><ele>0</ele><time>-10.1320584045925-369.423640191764-833.124841496629T176.180287772418:2009-01-24 14:28:12:0Z</time></trkpt>
<trkpt lat="-72.23418" lon="48.11367"><ele>0</ele><time>-9.01725072619452-368.293523666089-844.278710538311T173.650478674139:2009-01-24 14:28:20:0Z</time></trkpt>
<trkpt lat="-72.23417" lon="48.11361"><ele>0</ele><time>-5.10790603584725-367.687684418676-850.997379740367T165.047407681747:2009-01-24 14:28:25:0Z</time></trkpt>
<trkpt lat="-72.23415" lon="48.11356"><ele>0</ele><time>-10.4588855902632-367.393491160807-856.756946494422T180:2009-01-24 14:28:29:0Z</time></trkpt>
<trkpt lat="-72.23415" lon="48.11351"><ele>0</ele><time>-3.27507109958278-366.811501662259-862.321492482857T174.55162727199:2009-01-24 14:28:35:0Z</time></trkpt>
<trkpt lat="-72.23414" lon="48.11344"><ele>0</ele><time>1.54367685020832-366.555203777953-870.147212185205T172.394188770716:2009-01-24 14:28:40:0Z</time></trkpt>
<trkpt lat="-72.23413" lon="48.11339"><ele>0</ele><time>1.04713812732391-366.641864818776-875.761148859277T180:2009-01-24 14:28:45:0Z</time></trkpt>
<trkpt lat="-72.23413" lon="48.11334"><ele>0</ele><time>2.59439523292575-366.700133301426-881.325694847005T165.047332643924:2009-01-24 14:28:50:0Z</time></trkpt>
<trkpt lat="-72.23411" lon="48.11329"><ele>0</ele><time>-3.46835879718475-366.84955927901-887.085263616159T173.650432092239:2009-01-24 14:28:54:0Z</time></trkpt>
<trkpt lat="-72.2341" lon="48.11323"><ele>0</ele><time>-3.46835874727875-366.616531703606-893.803933426018T173.650424739308:2009-01-24 14:29:00:0Z</time></trkpt>
<trkpt lat="-72.23409" lon="48.11317"><ele>0</ele><time>-5.23430220627215-366.383504128202-900.52260333255T180:2009-01-24 14:29:05:0Z</time></trkpt>
<trkpt lat="-72.23409" lon="48.11311"><ele>0</ele><time>-0.687415417674903-366.033985944109-907.200058517964T174.551585122301:2009-01-24 14:29:10:0Z</time></trkpt>
<trkpt lat="-72.23408" lon="48.11304"><ele>0</ele><time>4.74846259870374-365.980190736556-915.025778769482T167.453043381501:2009-01-24 14:29:15:0Z</time></trkpt>
<trkpt lat="-72.23406" lon="48.11298"><ele>0</ele><time>8.93475762269426-366.305024779652-921.866604328152T151.891910474269:2009-01-24 14:29:20:0Z</time></trkpt>
<trkpt lat="-72.23402" lon="48.11293"><ele>0</ele><time>9.04192950207811-366.86868079778-928.175180810364T140.152246480641:2009-01-24 14:29:26:0Z</time></trkpt>
<trkpt lat="-72.23397" lon="48.11289"><ele>0</ele><time>11.6289965775344-367.392958076042-933.973470634915T130.558894885779:2009-01-24 14:29:31:0Z</time></trkpt>
<trkpt lat="-72.2339" lon="48.11285"><ele>0</ele><time>13.5093252218697-368.189108584808-940.819723477607T122.696181838239:2009-01-24 14:29:36:0Z</time></trkpt>
<trkpt lat="-72.23383" lon="48.11282"><ele>0</ele><time>16.9033289812909-369.024081571076-947.000439187347T104.016039778296:2009-01-24 14:29:41:0Z</time></trkpt>
<trkpt lat="-72.23377" lon="48.11281"><ele>0</ele><time>16.2176472485178-369.800809252292-951.595555818371T110.527808615956:2009-01-24 14:29:45:0Z</time></trkpt>
<trkpt lat="-72.23369" lon="48.11279"><ele>0</ele><time>12.3556988556589-370.830219112448-957.943023144435T113.167490931593:2009-01-24 14:29:50:0Z</time></trkpt>
<trkpt lat="-72.23362" lon="48.11277"><ele>0</ele><time>12.3556947399079-371.529255484879-963.600626009293T113.167482854881:2009-01-24 14:29:55:0Z</time></trkpt>
<trkpt lat="-72.23355" lon="48.11275"><ele>0</ele><time>12.6522928262697-372.22829185448-969.258230735826T113.167474799774:2009-01-24 14:30:00:0Z</time></trkpt>
<trkpt lat="-72.23348" lon="48.11273"><ele>0</ele><time>10.9812748958607-372.944108806816-974.915837322751T126.828643390672:2009-01-24 14:30:05:0Z</time></trkpt>
<trkpt lat="-72.23344" lon="48.11271"><ele>0</ele><time>10.9812721587114-373.351872297376-978.629099165542T126.828632691035:2009-01-24 14:30:10:0Z</time></trkpt>
<trkpt lat="-72.2334" lon="48.11269"><ele>0</ele><time>12.0683230351831-373.759635787935-982.342361933877T120.925819849414:2009-01-24 14:30:14:0Z</time></trkpt>
<trkpt lat="-72.23335" lon="48.11267"><ele>0</ele><time>10.2331641199512-374.2823138119-986.673353260851T104.016000473665:2009-01-24 14:30:20:0Z</time></trkpt>
<trkpt lat="-72.23329" lon="48.11266"><ele>0</ele><time>9.35464358947405-374.75254093044-991.26848251929T116.530639764062:2009-01-24 14:30:25:0Z</time></trkpt>
<trkpt lat="-72.23323" lon="48.11264"><ele>0</ele><time>16.7229638608702-375.218688791643-996.251546350044T110.527763072437:2009-01-24 14:30:30:0Z</time></trkpt>
<trkpt lat="-72.23319" lon="48.11263"><ele>0</ele><time>18.0295831783113-375.749432619888-999.4252889513T104.01598999652:2009-01-24 14:30:35:0Z</time></trkpt>
<trkpt lat="-72.23313" lon="48.11262"><ele>0</ele><time>18.0295798692157-376.577915878574-1004.02042157579T104.015987373246:2009-01-24 14:30:41:0Z</time></trkpt>
<trkpt lat="-72.23307" lon="48.11261"><ele>0</ele><time>15.3268694480581-377.40639913726-1008.61555504366T116.530630864252:2009-01-24 14:30:46:0Z</time></trkpt>
<trkpt lat="-72.23304" lon="48.1126"><ele>0</ele><time>17.5243248991944-377.788273248871-1011.10708870554T106.675550728809:2009-01-24 14:30:51:0Z</time></trkpt>
<trkpt lat="-72.23299" lon="48.11259"><ele>0</ele><time>16.7229495958826-378.467933148948-1014.98546863735T110.52774477091:2009-01-24 14:30:56:0Z</time></trkpt>
<trkpt lat="-72.23295" lon="48.11258"><ele>0</ele><time>17.5237209943232-378.998676977194-1018.15921394588T106.675544588815:2009-01-24 14:31:01:0Z</time></trkpt>
<trkpt lat="-72.2329" lon="48.11257"><ele>0</ele><time>14.1982230601278-379.678313698258-1022.03759526275T120.925760861143:2009-01-24 14:31:04:0Z</time></trkpt>
<trkpt lat="-72.23285" lon="48.11255"><ele>0</ele><time>6.28787176376815-380.293238564287-1026.36859403227T146.270153041688:2009-01-24 14:31:09:0Z</time></trkpt>
<trkpt lat="-72.23282" lon="48.11252"><ele>0</ele><time>15.3277770703668-380.545665789643-1030.38310378756T116.530577381686:2009-01-24 14:31:15:0Z</time></trkpt>
<trkpt lat="-72.23276" lon="48.1125"><ele>0</ele><time>10.067418857699-381.309460370891-1035.36617848744T134.95689391806:2009-01-24 14:31:21:0Z</time></trkpt>
<trkpt lat="-72.23273" lon="48.11248"><ele>0</ele><time>6.28815798105594-381.626599451283-1038.5163313208T146.270123293118:2009-01-24 14:31:25:0Z</time></trkpt>
<trkpt lat="-72.23271" lon="48.11246"><ele>0</ele><time>0.828204466471611-381.794891994053-1041.19267220277T161.539154473947:2009-01-24 14:31:29:0Z</time></trkpt>
<trkpt lat="-72.23269" lon="48.11242"><ele>0</ele><time>6.28642368229387-381.833760826752-1045.88581674286T146.27009238979:2009-01-24 14:31:36:0Z</time></trkpt>
<trkpt lat="-72.23267" lon="48.1124"><ele>0</ele><time>-2.43730077643531-382.002007014325-1048.56215858802T170.523667466167:2009-01-24 14:31:41:0Z</time></trkpt>
<trkpt lat="-72.23266" lon="48.11236"><ele>0</ele><time>-4.97444775551504-381.892006131803-1053.07538418518T167.452889888572:2009-01-24 14:31:46:0Z</time></trkpt>
<trkpt lat="-72.23265" lon="48.11233"><ele>0</ele><time>-9.36681511281399-381.721859381153-1056.49579905357T167.45288277552:2009-01-24 14:31:50:0Z</time></trkpt>
<trkpt lat="-72.23264" lon="48.1123"><ele>0</ele><time>-12.1090097405671-381.401475435555-1059.91621401575T180:2009-01-24 14:31:56:0Z</time></trkpt>
<trkpt lat="-72.23264" lon="48.11227"><ele>0</ele><time>-11.1242807047764-380.997188586186-1063.2549416081T180:2009-01-24 14:32:01:0Z</time></trkpt>
<trkpt lat="-72.23264" lon="48.11225"><ele>0</ele><time>-19.5875725698644-380.749582299906-1065.48076000348T-146.270011159739:2009-01-24 14:32:05:0Z</time></trkpt>
<trkpt lat="-72.23265" lon="48.11224"><ele>0</ele><time>-11.1232393344343-380.487466839788-1066.81893225112T180:2009-01-24 14:32:10:0Z</time></trkpt>
<trkpt lat="-72.23265" lon="48.11221"><ele>0</ele><time>-2.59012972023702-380.116092178887-1070.15765984419T156.005377258341:2009-01-24 14:32:16:0Z</time></trkpt>
<trkpt lat="-72.23263" lon="48.11218"><ele>0</ele><time>11.6894969696752-380.021434866578-1073.81219928943T116.530439271726:2009-01-24 14:32:20:0Z</time></trkpt>
<trkpt lat="-72.2326" lon="48.11217"><ele>0</ele><time>18.6206154926916-380.312684569435-1076.3037496411T89.9999888331969:2009-01-24 14:32:24:0Z</time></trkpt>
<trkpt lat="-72.23257" lon="48.11217"><ele>0</ele><time>18.6200956435181-380.727772181124-1078.53293273042T89.9999925554654:2009-01-24 14:32:29:0Z</time></trkpt>
<trkpt lat="-72.23255" lon="48.11217"><ele>0</ele><time>18.6185360256731-381.004489529717-1080.01905478849T89.9999925554654:2009-01-24 14:32:35:0Z</time></trkpt>
<trkpt lat="-72.23253" lon="48.11217"><ele>0</ele><time>18.6200956382012-381.281183700711-1081.50517684778T89.9999925554654:2009-01-24 14:32:41:0Z</time></trkpt>
<trkpt lat="-72.23251" lon="48.11217"><ele>0</ele><time>18.6185360203528-381.557901049304-1082.99129890628T89.9999925554654:2009-01-24 14:32:45:0Z</time></trkpt>
<trkpt lat="-72.23249" lon="48.11217"><ele>0</ele><time>18.6185360420735-381.834595220298-1084.47742096599T89.9999925554654:2009-01-24 14:32:50:0Z</time></trkpt>
<trkpt lat="-72.23247" lon="48.11217"><ele>0</ele><time>10.3741246107419-382.111289391292-1085.96354302397T116.530434804947:2009-01-24 14:32:55:0Z</time></trkpt>
<trkpt lat="-72.23244" lon="48.11216"><ele>0</ele><time>-4.96527310185597-382.369765969859-1088.45509376454T161.539061064738:2009-01-24 14:32:59:0Z</time></trkpt>
<trkpt lat="-72.23243" lon="48.11214"><ele>0</ele><time>0-382.253252182157-1090.80166736305T146.269954540222:2009-01-24 14:33:05:0Z</time></trkpt>
<trkpt lat="-72.23242" lon="48.11213"><ele>0</ele><time>6.27425432445663-382.253252182157-1092.13984049301T126.828332541094:2009-01-24 14:33:10:0Z</time></trkpt>
<trkpt lat="-72.2324" lon="48.11212"><ele>0</ele><time>3.69865725269077-382.36974279226-1093.9964851886T134.956682068428:2009-01-24 14:33:15:0Z</time></trkpt>
<trkpt lat="-72.23237" lon="48.1121"><ele>0</ele><time>2.6065420200492-382.486256579962-1097.14664968727T138.323420021204:2009-01-24 14:33:20:0Z</time></trkpt>
<trkpt lat="-72.23233" lon="48.11207"><ele>0</ele><time>8.06955913658682-382.602770367665-1101.61670184093T120.925515072039:2009-01-24 14:33:26:0Z</time></trkpt>
<trkpt lat="-72.23228" lon="48.11205"><ele>0</ele><time>4.66562070448644-382.952265376989-1105.94773162097T131.944088229537:2009-01-24 14:33:29:0Z</time></trkpt>
<trkpt lat="-72.23223" lon="48.11202"><ele>0</ele><time>9.35222468248575-383.185316128577-1110.94279586535T116.53035456962:2009-01-24 14:33:35:0Z</time></trkpt>
<trkpt lat="-72.23217" lon="48.112"><ele>0</ele><time>6.27486798146404-383.651348100372-1115.92590937702T126.828252868174:2009-01-24 14:33:40:0Z</time></trkpt>
<trkpt lat="-72.23213" lon="48.11198"><ele>0</ele><time>8.07061903857545-383.884352499593-1119.63920501781T120.925470832024:2009-01-24 14:33:45:0Z</time></trkpt>
<trkpt lat="-72.23208" lon="48.11196"><ele>0</ele><time>8.07008150820562-384.233893864114-1123.97024038016T120.925461016999:2009-01-24 14:33:50:0Z</time></trkpt>
<trkpt lat="-72.23203" lon="48.11194"><ele>0</ele><time>11.6442997363534-384.583412048207-1128.30127698416T106.675348423004:2009-01-24 14:33:56:0Z</time></trkpt>
<trkpt lat="-72.23198" lon="48.11193"><ele>0</ele><time>4.74560462868808-385.035027555145-1132.17970262729T102.076955834476:2009-01-24 14:33:59:0Z</time></trkpt>
<trkpt lat="-72.23191" lon="48.11192"><ele>0</ele><time>3.5043443295166-385.287454780501-1137.49888205977T106.675342293238:2009-01-24 14:34:06:0Z</time></trkpt>
<trkpt lat="-72.23186" lon="48.11191"><ele>0</ele><time>9.17819953886665-385.423368218154-1141.37730908842T110.527495807711:2009-01-24 14:34:10:0Z</time></trkpt>
<trkpt lat="-72.23182" lon="48.1119"><ele>0</ele><time>18.3549353791309-385.714664276209-1144.55109123187T110.527492122259:2009-01-24 14:34:14:0Z</time></trkpt>
<trkpt lat="-72.23178" lon="48.11189"><ele>0</ele><time>19.5260718432512-386.297210037121-1147.72487391691T106.675333108623:2009-01-24 14:34:20:0Z</time></trkpt>
<trkpt lat="-72.23173" lon="48.11188"><ele>0</ele><time>19.280453677948-387.054514890787-1151.60330302311T106.675330033725:2009-01-24 14:34:25:0Z</time></trkpt>
<trkpt lat="-72.23168" lon="48.11187"><ele>0</ele><time>15.6801531626325-387.802293751466-1155.48173282133T89.9999888332488:2009-01-24 14:34:31:0Z</time></trkpt>
<trkpt lat="-72.23165" lon="48.11187"><ele>0</ele><time>7.01403640819555-388.151835114573-1157.71092892345T116.530301153339:2009-01-24 14:34:35:0Z</time></trkpt>
<trkpt lat="-72.23162" lon="48.11186"><ele>0</ele><time>10.5136193643207-388.326594207327-1160.20249130755T106.675323914002:2009-01-24 14:34:40:0Z</time></trkpt>
<trkpt lat="-72.23157" lon="48.11185"><ele>0</ele><time>-4.3508591101826-388.734357699301-1164.08092249137T146.269805179072:2009-01-24 14:34:47:0Z</time></trkpt>
<trkpt lat="-72.23156" lon="48.11184"><ele>0</ele><time>8.02872415451342-388.676135570433-1165.41909795037T110.52747016518:2009-01-24 14:34:50:0Z</time></trkpt>
<trkpt lat="-72.23152" lon="48.11183"><ele>0</ele><time>7.84038239605905-388.930950088436-1168.59288388571T89.9999813887645:2009-01-24 14:34:55:0Z</time></trkpt>
<trkpt lat="-72.23147" lon="48.11183"><ele>0</ele><time>7.83913472106897-389.22224614649-1172.30821361504T89.9999813887645:2009-01-24 14:35:00:0Z</time></trkpt>
<trkpt lat="-72.23142" lon="48.11183"><ele>0</ele><time>7.84038239569669-389.513495849348-1176.02354334493T89.9999813887645:2009-01-24 14:35:05:0Z</time></trkpt>
<trkpt lat="-72.23137" lon="48.11183"><ele>0</ele><time>7.84007047881533-389.804791907402-1179.73887307443T89.9999851110092:2009-01-24 14:35:10:0Z</time></trkpt>
<trkpt lat="-72.23133" lon="48.11183"><ele>0</ele><time>15.1964516237563-390.037819482807-1182.71113685745T63.4696898953518:2009-01-24 14:35:15:0Z</time></trkpt>
<trkpt lat="-72.2313" lon="48.11184"><ele>0</ele><time>7.83851240998072-390.416448732041-1185.20270040536T89.9999851110097:2009-01-24 14:35:21:0Z</time></trkpt>
<trkpt lat="-72.23126" lon="48.11184"><ele>0</ele><time>15.1983144749765-390.649429952248-1188.17496361069T63.4696854648813:2009-01-24 14:35:26:0Z</time></trkpt>
<trkpt lat="-72.23123" lon="48.11185"><ele>0</ele><time>13.7672875597572-391.02810555668-1190.66652677091T69.4724927338171:2009-01-24 14:35:30:0Z</time></trkpt>
<trkpt lat="-72.23119" lon="48.11186"><ele>0</ele><time>14.770907271161-391.465049643762-1193.84031162276T89.9999851110039:2009-01-24 14:35:35:0Z</time></trkpt>
<trkpt lat="-72.23115" lon="48.11186"><ele>0</ele><time>15.6791103470023-391.90407971471-1196.81257367063T89.9999776665086:2009-01-24 14:35:39:0Z</time></trkpt>
<trkpt lat="-72.23109" lon="48.11186"><ele>0</ele><time>12.6772738207123-392.603116084311-1201.27096674352T104.015788254383:2009-01-24 14:35:45:0Z</time></trkpt>
<trkpt lat="-72.23103" lon="48.11185"><ele>0</ele><time>-1.84653450464744-393.185661846638-1205.86616418554T151.891386868607:2009-01-24 14:35:50:0Z</time></trkpt>
<trkpt lat="-72.23099" lon="48.1118"><ele>0</ele><time>-5.9857032411303-393.069171236534-1212.174771461T156.005207433284:2009-01-24 14:35:55:0Z</time></trkpt>
<trkpt lat="-72.23097" lon="48.11177"><ele>0</ele><time>-2.60601611231089-392.850421061811-1215.82931572941T138.323237285312:2009-01-24 14:36:01:0Z</time></trkpt>
<trkpt lat="-72.23093" lon="48.11174"><ele>0</ele><time>-3.0139478445293-392.733930451707-1220.29938057489T140.15159375494:2009-01-24 14:36:05:0Z</time></trkpt>
<trkpt lat="-72.23088" lon="48.1117"><ele>0</ele><time>2.33862610603004-392.559171358953-1226.09772552871T116.530225374733:2009-01-24 14:36:12:0Z</time></trkpt>
<trkpt lat="-72.23085" lon="48.11169"><ele>0</ele><time>10.4672160513394-392.617439841604-1228.58929451021T00:2009-01-24 14:36:15:0Z</time></trkpt>
<trkpt lat="-72.23085" lon="48.1117"><ele>0</ele><time>-10.4692986583425-392.733930451707-1229.70220370719T180:2009-01-24 14:36:21:0Z</time></trkpt>
<trkpt lat="-72.23085" lon="48.11168"><ele>0</ele><time>-12.411689551506-392.500902876303-1231.92802210256T-161.538900306816:2009-01-24 14:36:25:0Z</time></trkpt>
<trkpt lat="-72.23086" lon="48.11166"><ele>0</ele><time>-13.0629543040972-392.209653173445-1234.2745978983T-146.269707401483:2009-01-24 14:36:32:0Z</time></trkpt>
<trkpt lat="-72.23087" lon="48.11165"><ele>0</ele><time>-7.83536425707017-392.034847725494-1235.61277488248T-89.999996277767:2009-01-24 14:36:39:0Z</time></trkpt>
<trkpt lat="-72.23088" lon="48.11165"><ele>0</ele><time>-7.84160260298796-391.976625598041-1236.35584343096T-89.999996277767:2009-01-24 14:36:47:0Z</time></trkpt>
<trkpt lat="-72.23089" lon="48.11165"><ele>0</ele><time>0-391.918357115391-1237.09891197957T00:2009-01-24 14:36:49:0Z</time></trkpt>
<trkpt lat="-72.23089" lon="48.11165"><ele>0</ele><time>9.63231649102832-391.918357115391-1237.09891197974T79.396022581989:2009-01-24 14:36:49:0Z</time></trkpt>
<trkpt lat="-72.23065" lon="48.11168"><ele>0</ele><time>-12.9448769974395-393.665994398127-1255.24239059533T-134.956436758823:2009-01-24 14:36:54:0Z</time></trkpt>
<trkpt lat="-72.23068" lon="48.11166"><ele>0</ele><time>0-393.258207729969-1258.39256860196T00:2009-01-24 14:36:59:0Z</time></trkpt>
<trkpt lat="-72.23068" lon="48.11166"><ele>0</ele><time>10.4672160514262-393.258207729969-1258.39256860237T00:2009-01-24 14:37:13:0Z</time></trkpt>
<trkpt lat="-72.23068" lon="48.11167"><ele>0</ele><time>-7.83536730892603-393.374698340073-1259.50547779935T-89.9999962777656:2009-01-24 14:37:17:0Z</time></trkpt>
<trkpt lat="-72.23069" lon="48.11167"><ele>0</ele><time>10.4672160447679-393.316476212619-1260.24854605841T00:2009-01-24 14:37:18:0Z</time></trkpt>
<trkpt lat="-72.23069" lon="48.11168"><ele>0</ele><time>0-393.432966822723-1261.3614552561T00:2009-01-24 14:37:25:0Z</time></trkpt>
<trkpt lat="-72.23069" lon="48.11168"><ele>0</ele><time>7.83536884242599-393.432966822723-1261.36145525653T89.9999962777648:2009-01-24 14:37:25:0Z</time></trkpt>
<trkpt lat="-72.23068" lon="48.11168"><ele>0</ele><time>0-393.491188950176-1262.10452337016T00:2009-01-24 14:37:29:0Z</time></trkpt>
<trkpt lat="-72.23068" lon="48.11168"><ele>0</ele><time>7.84784553313577-393.491188950176-1262.10452337057T89.9999962777648:2009-01-24 14:37:29:0Z</time></trkpt>
<trkpt lat="-72.23067" lon="48.11168"><ele>0</ele><time>7.83536882962695-393.549503788024-1262.84759148527T89.9999962777648:2009-01-24 14:37:34:0Z</time></trkpt>
<trkpt lat="-72.23066" lon="48.11168"><ele>0</ele><time>10.4672160381147-393.607725915477-1263.59065960011T00:2009-01-24 14:37:45:0Z</time></trkpt>
<trkpt lat="-72.23066" lon="48.11169"><ele>0</ele><time>-10.4672160381147-393.724216525581-1264.7035687985T180:2009-01-24 14:37:55:0Z</time></trkpt>
<trkpt lat="-72.23066" lon="48.11168"><ele>0</ele><time>-10.4713812719988-393.607725915477-1265.8164779969T180:2009-01-24 14:38:05:0Z</time></trkpt>
<trkpt lat="-72.23066" lon="48.11167"><ele>0</ele><time>7.84160565335498-393.491188950176-1266.92938719459T89.9999962777656:2009-01-24 14:38:15:0Z</time></trkpt>
<trkpt lat="-72.23065" lon="48.11167"><ele>0</ele><time>0-393.549457432827-1267.67245545416T00:2009-01-24 14:38:25:0Z</time></trkpt>
<trkpt lat="-72.23065" lon="48.11167"><ele>0</ele><time>10.471381271912-393.549457432827-1267.67245545417T00:2009-01-24 14:38:25:0Z</time></trkpt>
<trkpt lat="-72.23065" lon="48.11168"><ele>0</ele><time>10.4672160381096-393.665994398127-1268.78536465185T00:2009-01-24 14:38:30:0Z</time></trkpt>
<trkpt lat="-72.23065" lon="48.11169"><ele>0</ele><time>-7.83537035141832-393.782485008231-1269.89827385025T-89.9999962777641:2009-01-24 14:38:36:0Z</time></trkpt>
<trkpt lat="-72.23066" lon="48.11169"><ele>0</ele><time>10.4672160513394-393.724262880778-1270.64134182077T00:2009-01-24 14:38:40:0Z</time></trkpt>
<trkpt lat="-72.23066" lon="48.1117"><ele>0</ele><time>10.4672161719125-393.840753490881-1271.75425101775T00:2009-01-24 14:38:45:0Z</time></trkpt>
<trkpt lat="-72.23066" lon="48.11171"><ele>0</ele><time>-7.84161194457871-393.9572441024-1272.86716021544T-89.9999962777627:2009-01-24 14:38:51:0Z</time></trkpt>
<trkpt lat="-72.23067" lon="48.11171"><ele>0</ele><time>10.471381278573-393.898975618335-1273.61022789689T00:2009-01-24 14:38:56:0Z</time></trkpt>
<trkpt lat="-72.23067" lon="48.11172"><ele>0</ele><time>-11.0126352827503-394.015512583635-1274.72313709387T-110.527426215344:2009-01-24 14:39:01:0Z</time></trkpt>
<trkpt lat="-72.23071" lon="48.11171"><ele>0</ele><time>-12.7636278803076-393.665994398127-1277.89692952896T-130.558244931506:2009-01-24 14:39:05:0Z</time></trkpt>
<trkpt lat="-72.23078" lon="48.11167"><ele>0</ele><time>-13.0594894594312-392.792152579161-1284.74327311685T-146.269687326672:2009-01-24 14:39:10:0Z</time></trkpt>
<trkpt lat="-72.23083" lon="48.11162"><ele>0</ele><time>-12.8704485213002-391.918357115391-1291.43415844192T-153.400048856085:2009-01-24 14:39:16:0Z</time></trkpt>
<trkpt lat="-72.23086" lon="48.11158"><ele>0</ele><time>-12.92793085552-391.27758922844-1296.41275639746T-151.891261762142:2009-01-24 14:39:21:0Z</time></trkpt>
<trkpt lat="-72.2309" lon="48.11153"><ele>0</ele><time>-12.7971408213642-390.462015890709-1302.72137103074T-156.00509560729:2009-01-24 14:39:26:0Z</time></trkpt>
<trkpt lat="-72.23092" lon="48.1115"><ele>0</ele><time>-17.6861555319345-389.994338308005-1306.37591847405T-158.168451837463:2009-01-24 14:39:30:0Z</time></trkpt>
<trkpt lat="-72.23095" lon="48.11145"><ele>0</ele><time>-17.3774437259671-388.93414859703-1312.37037956007T-161.5388162239:2009-01-24 14:39:35:0Z</time></trkpt>
<trkpt lat="-72.23097" lon="48.11141"><ele>0</ele><time>-15.9804917038994-388.118598438312-1317.06353334942T-172.393891817738:2009-01-24 14:39:41:0Z</time></trkpt>
<trkpt lat="-72.23098" lon="48.11136"><ele>0</ele><time>-14.656046280826-387.221463132844-1322.67747390952T180:2009-01-24 14:39:46:0Z</time></trkpt>
<trkpt lat="-72.23098" lon="48.11133"><ele>0</ele><time>-14.6560461960647-386.732137671718-1326.01620150187T180:2009-01-24 14:39:50:0Z</time></trkpt>
<trkpt lat="-72.23098" lon="48.1113"><ele>0</ele><time>-17.853704263326-386.242812213422-1329.35492909423T-156.005000335756:2009-01-24 14:39:55:0Z</time></trkpt>
<trkpt lat="-72.231" lon="48.11127"><ele>0</ele><time>-18.283242456805-385.590339637809-1333.00947924242T-146.269493953352:2009-01-24 14:40:00:0Z</time></trkpt>
<trkpt lat="-72.23103" lon="48.11124"><ele>0</ele><time>-16.5973329394721-384.856351448243-1337.02401983225T-138.322943810573:2009-01-24 14:40:06:0Z</time></trkpt>
<trkpt lat="-72.23107" lon="48.11121"><ele>0</ele><time>-16.4102382402786-384.114436519986-1341.49410506198T-120.925092341323:2009-01-24 14:40:11:0Z</time></trkpt>
<trkpt lat="-72.23112" lon="48.11119"><ele>0</ele><time>-13.8066357650659-383.403695461724-1345.82518818129T-153.399856914096:2009-01-24 14:40:16:0Z</time></trkpt>
<trkpt lat="-72.23115" lon="48.11115"><ele>0</ele><time>-15.4602004335026-382.716317422758-1350.80379448815T-140.151270148226:2009-01-24 14:40:20:0Z</time></trkpt>
<trkpt lat="-72.2312" lon="48.11111"><ele>0</ele><time>-14.1481945816472-381.819877445245-1356.60216677556T-146.269398982849:2009-01-24 14:40:26:0Z</time></trkpt>
<trkpt lat="-72.23125" lon="48.11106"><ele>0</ele><time>-14.1475845537823-380.873234789363-1363.29307458304T-146.26937953916:2009-01-24 14:40:31:0Z</time></trkpt>
<trkpt lat="-72.23129" lon="48.11102"><ele>0</ele><time>-13.7224472403917-380.115953113295-1368.6458022744T-150.908062142292:2009-01-24 14:40:35:0Z</time></trkpt>
<trkpt lat="-72.23134" lon="48.11096"><ele>0</ele><time>-13.3359589048497-379.067352201575-1376.28730304573T-153.399754244386:2009-01-24 14:40:41:0Z</time></trkpt>
<trkpt lat="-72.23137" lon="48.11092"><ele>0</ele><time>-11.367173698075-378.403406714701-1381.26591381989T-153.399736388836:2009-01-24 14:40:45:0Z</time></trkpt>
<trkpt lat="-72.2314" lon="48.11088"><ele>0</ele><time>-12.0208406636667-377.837479291919-1386.24452537113T-141.297229092238:2009-01-24 14:40:51:0Z</time></trkpt>
<trkpt lat="-72.23146" lon="48.11083"><ele>0</ele><time>-11.6625506223551-376.980348521477-1393.37489831611T-146.269261113661:2009-01-24 14:40:56:0Z</time></trkpt>
<trkpt lat="-72.2315" lon="48.11079"><ele>0</ele><time>-8.08419724448632-376.356083083249-1398.72763339476T-146.269240518:2009-01-24 14:41:00:0Z</time></trkpt>
<trkpt lat="-72.23154" lon="48.11075"><ele>0</ele><time>-8.0850612592156-375.923357317681-1404.08036975783T-146.269219926568:2009-01-24 14:41:05:0Z</time></trkpt>
<trkpt lat="-72.23158" lon="48.11071"><ele>0</ele><time>-9.30815252360237-375.490585199746-1409.43310740644T-138.322650318771:2009-01-24 14:41:10:0Z</time></trkpt>
<trkpt lat="-72.23162" lon="48.11068"><ele>0</ele><time>-8.08448079335671-375.074500951321-1413.90321301945T-146.269190184016:2009-01-24 14:41:16:0Z</time></trkpt>
<trkpt lat="-72.23165" lon="48.11065"><ele>0</ele><time>-6.85325747512291-374.749945039407-1417.91776782154T-153.399615860695:2009-01-24 14:41:20:0Z</time></trkpt>
<trkpt lat="-72.23168" lon="48.11061"><ele>0</ele><time>-9.30918151886643-374.408747611764-1422.89638461628T-138.322594962722:2009-01-24 14:41:25:0Z</time></trkpt>
<trkpt lat="-72.23172" lon="48.11058"><ele>0</ele><time>-6.8532556015416-373.992617008143-1427.36649407518T-153.399584606511:2009-01-24 14:41:30:0Z</time></trkpt>
<trkpt lat="-72.23175" lon="48.11054"><ele>0</ele><time>-7.90838569509689-373.651419580499-1432.34511223101T-146.269118099579:2009-01-24 14:41:36:0Z</time></trkpt>
<trkpt lat="-72.23178" lon="48.11051"><ele>0</ele><time>-7.61653978036825-373.33393283613-1436.3596704052T-146.269108928604:2009-01-24 14:41:41:0Z</time></trkpt>
<trkpt lat="-72.2318" lon="48.11049"><ele>0</ele><time>-3.22662147034812-373.130085858662-1439.03604292273T-170.52332164307:2009-01-24 14:41:45:0Z</time></trkpt>
<trkpt lat="-72.23181" lon="48.11045"><ele>0</ele><time>-4.96525646795205-372.984461005819-1443.54927306705T-161.538481317216:2009-01-24 14:41:50:0Z</time></trkpt>
<trkpt lat="-72.23183" lon="48.11041"><ele>0</ele><time>-4.38645354490806-372.751433429-1448.24243601489T-161.538467933803:2009-01-24 14:41:55:0Z</time></trkpt>
<trkpt lat="-72.23185" lon="48.11037"><ele>0</ele><time>-2.48646207290635-372.545570000462-1452.93559932849T-153.399490869568:2009-01-24 14:42:01:0Z</time></trkpt>
<trkpt lat="-72.23188" lon="48.11033"><ele>0</ele><time>-2.48646168535698-372.421778446829-1457.91422156375T-153.39947302149:2009-01-24 14:42:06:0Z</time></trkpt>
<trkpt lat="-72.23191" lon="48.11029"><ele>0</ele><time>-3.13767920378318-372.297986893195-1462.89284457504T-126.827338098667:2009-01-24 14:42:10:0Z</time></trkpt>
<trkpt lat="-72.23195" lon="48.11027"><ele>0</ele><time>-3.21437621288143-372.181473104078-1466.60621938329T-116.529574826712:2009-01-24 14:42:15:0Z</time></trkpt>
<trkpt lat="-72.23201" lon="48.11025"><ele>0</ele><time>4.02628029616548-372.021292722201-1471.58946873771T-126.827306588738:2009-01-24 14:42:20:0Z</time></trkpt>
<trkpt lat="-72.23207" lon="48.11022"><ele>0</ele><time>4.35312553978693-372.245559165369-1477.15953407523T-146.268953318052:2009-01-24 14:42:26:0Z</time></trkpt>
<trkpt lat="-72.2321" lon="48.11019"><ele>0</ele><time>6.65569084435691-372.420318258123-1481.17409995799T-146.268931590006:2009-01-24 14:42:30:0Z</time></trkpt>
<trkpt lat="-72.23214" lon="48.11015"><ele>0</ele><time>9.32965859446731-372.776581124796-1486.52685559229T-131.943035042085:2009-01-24 14:42:35:0Z</time></trkpt>
<trkpt lat="-72.23219" lon="48.11012"><ele>0</ele><time>13.1156998248181-373.242613098007-1491.52202201228T-140.150705209863:2009-01-24 14:42:40:0Z</time></trkpt>
<trkpt lat="-72.23224" lon="48.11008"><ele>0</ele><time>14.5107911701751-374.003116460267-1497.32044201593T-146.268881247065:2009-01-24 14:42:46:0Z</time></trkpt>
<trkpt lat="-72.23227" lon="48.11005"><ele>0</ele><time>13.8143519554373-374.585662221179-1501.33501127049T-156.004482549003:2009-01-24 14:42:51:0Z</time></trkpt>
<trkpt lat="-72.23229" lon="48.11002"><ele>0</ele><time>10.4692986605598-375.090516671891-1504.98957611972T180:2009-01-24 14:42:55:0Z</time></trkpt>
<trkpt lat="-72.23229" lon="48.10999"><ele>0</ele><time>21.4630738203309-375.440058034997-1508.32830371207T-146.268841216227:2009-01-24 14:43:00:0Z</time></trkpt>
<trkpt lat="-72.23231" lon="48.10997"><ele>0</ele><time>17.7408705668304-376.014491636431-1511.00468458017T-167.452324787918:2009-01-24 14:43:05:0Z</time></trkpt>
<trkpt lat="-72.23232" lon="48.10994"><ele>0</ele><time>17.4136281056411-376.621304342982-1514.42510695609T-146.268815463822:2009-01-24 14:43:11:0Z</time></trkpt>
<trkpt lat="-72.23234" lon="48.10992"><ele>0</ele><time>17.4118939979339-377.087359493791-1517.10148862671T-146.26880515585:2009-01-24 14:43:16:0Z</time></trkpt>
<trkpt lat="-72.23236" lon="48.1099"><ele>0</ele><time>16.6432297052848-377.553368289402-1519.77787061977T-134.955444486256:2009-01-24 14:43:20:0Z</time></trkpt>
<trkpt lat="-72.23239" lon="48.10988"><ele>0</ele><time>14.0267077598798-378.077668745263-1522.92810326779T-116.529414436652:2009-01-24 14:43:25:0Z</time></trkpt>
<trkpt lat="-72.23242" lon="48.10987"><ele>0</ele><time>14.0294962184642-378.427163753172-1525.41974288766T-116.529410021179:2009-01-24 14:43:30:0Z</time></trkpt>
<trkpt lat="-72.23245" lon="48.10986"><ele>0</ele><time>16.6417516913632-378.776728293877-1527.9113828957T-134.955422179082:2009-01-24 14:43:36:0Z</time></trkpt>
<trkpt lat="-72.23248" lon="48.10984"><ele>0</ele><time>15.6876846985843-379.300982393126-1531.06161677115T-126.827107483062:2009-01-24 14:43:40:0Z</time></trkpt>
<trkpt lat="-72.2325" lon="48.10983"><ele>0</ele><time>7.84132488256917-379.592255274996-1532.91831447681T-89.9999962778722:2009-01-24 14:43:45:0Z</time></trkpt>
<trkpt lat="-72.23251" lon="48.10983"><ele>0</ele><time>17.4136171311986-379.650523757647-1533.66140934309T-146.268765167735:2009-01-24 14:43:50:0Z</time></trkpt>
<trkpt lat="-72.23252" lon="48.10982"><ele>0</ele><time>7.83820430240317-379.883551333051-1534.99960102175T-89.9999962778729:2009-01-24 14:43:55:0Z</time></trkpt>
<trkpt lat="-72.23253" lon="48.10982"><ele>0</ele><time>10.4488596928307-379.941796638103-1535.74269603185T-89.9999962778729:2009-01-24 14:44:01:0Z</time></trkpt>
<trkpt lat="-72.23254" lon="48.10982"><ele>0</ele><time>10.458216878792-380.019441593106-1536.48579104207T-89.9999962778729:2009-01-24 14:44:05:0Z</time></trkpt>
<trkpt lat="-72.23255" lon="48.10982"><ele>0</ele><time>17.4118840822441-380.097156080905-1537.22888605243T-146.268759947699:2009-01-24 14:44:10:0Z</time></trkpt>
<trkpt lat="-72.23256" lon="48.10981"><ele>0</ele><time>17.4118830365025-380.330160478711-1538.56707781104T-146.268754853346:2009-01-24 14:44:15:0Z</time></trkpt>
<trkpt lat="-72.23257" lon="48.1098"><ele>0</ele><time>16.5501756432717-380.563164876517-1539.90526965001T-161.538270713069:2009-01-24 14:44:21:0Z</time></trkpt>
<trkpt lat="-72.23258" lon="48.10978"><ele>0</ele><time>15.2671197859779-380.951528717125-1542.25185405479T180:2009-01-24 14:44:25:0Z</time></trkpt>
<trkpt lat="-72.23258" lon="48.10974"><ele>0</ele><time>15.7036008852488-381.631165438189-1546.70349084412T180:2009-01-24 14:44:30:0Z</time></trkpt>
<trkpt lat="-72.23258" lon="48.10971"><ele>0</ele><time>20.5755283426153-382.155465894049-1550.04221843718T180:2009-01-24 14:44:35:0Z</time></trkpt>
<trkpt lat="-72.23258" lon="48.10968"><ele>0</ele><time>20.9365148435755-382.842426736242-1553.38094603024T180:2009-01-24 14:44:40:0Z</time></trkpt>
<trkpt lat="-72.23258" lon="48.10967"><ele>0</ele><time>19.5898668182337-383.075431135463-1554.49385522722T-146.268676436509:2009-01-24 14:44:46:0Z</time></trkpt>
<trkpt lat="-72.2326" lon="48.10965"><ele>0</ele><time>22.1333173936152-383.599731589908-1557.17024123489T-146.268672473096:2009-01-24 14:44:50:0Z</time></trkpt>
<trkpt lat="-72.23261" lon="48.10964"><ele>0</ele><time>18.8271719232145-383.895918121248-1558.50843435828T-126.82700049955:2009-01-24 14:44:55:0Z</time></trkpt>
<trkpt lat="-72.23263" lon="48.10963"><ele>0</ele><time>23.9397978035665-384.245482661953-1560.36513669324T-146.268662137997:2009-01-24 14:45:00:0Z</time></trkpt>
<trkpt lat="-72.23264" lon="48.10962"><ele>0</ele><time>21.2651057277211-384.565843428538-1561.70332997797T-134.955288400515:2009-01-24 14:45:05:0Z</time></trkpt>
<trkpt lat="-72.23267" lon="48.1096"><ele>0</ele><time>27.1803767431489-385.235745559643-1564.85357122146T-146.268640386837:2009-01-24 14:45:11:0Z</time></trkpt>
<trkpt lat="-72.23269" lon="48.10958"><ele>0</ele><time>25.2712024827231-385.963197665015-1567.52995835268T-134.955266102679:2009-01-24 14:45:15:0Z</time></trkpt>
<trkpt lat="-72.23272" lon="48.10956"><ele>0</ele><time>24.2286311669802-386.759301818585-1570.68020082379T-126.826957723883:2009-01-24 14:45:20:0Z</time></trkpt>
<trkpt lat="-72.23274" lon="48.10955"><ele>0</ele><time>30.4729118713774-387.209155828036-1572.53690501129T-146.268614661923:2009-01-24 14:45:25:0Z</time></trkpt>
<trkpt lat="-72.23276" lon="48.10953"><ele>0</ele><time>30.4694451007003-388.024729164352-1575.2132929448T-146.26861065055:2009-01-24 14:45:30:0Z</time></trkpt>
<trkpt lat="-72.23277" lon="48.10952"><ele>0</ele><time>30.4737723863271-388.432469477314-1576.55148703273T-146.268599224131:2009-01-24 14:45:35:0Z</time></trkpt>
<trkpt lat="-72.23279" lon="48.1095"><ele>0</ele><time>29.5870310980368-389.248065991229-1579.22787544823T-134.955221493527:2009-01-24 14:45:40:0Z</time></trkpt>
<trkpt lat="-72.23282" lon="48.10948"><ele>0</ele><time>26.1701227420496-390.180129937649-1582.37812037592T180:2009-01-24 14:45:45:0Z</time></trkpt>
<trkpt lat="-72.23282" lon="48.10947"><ele>0</ele><time>30.2872537330922-390.471379640506-1583.4910295729T-156.004242318437:2009-01-24 14:45:50:0Z</time></trkpt>
<trkpt lat="-72.23284" lon="48.10944"><ele>0</ele><time>26.1715111345424-391.578249034877-1587.14560124231T180:2009-01-24 14:45:56:0Z</time></trkpt>
<trkpt lat="-72.23284" lon="48.10941"><ele>0</ele><time>30.4711542551525-392.452044498647-1590.48432883537T-146.268542569336:2009-01-24 14:46:00:0Z</time></trkpt>
<trkpt lat="-72.23286" lon="48.10939"><ele>0</ele><time>30.2872459429748-393.267571479767-1593.16071901833T-156.004209177452:2009-01-24 14:46:05:0Z</time></trkpt>
<trkpt lat="-72.23288" lon="48.10936"><ele>0</ele><time>28.2369143366403-394.374440874138-1596.81529162772T-126.826850759078:2009-01-24 14:46:10:0Z</time></trkpt>
<trkpt lat="-72.2329" lon="48.10935"><ele>0</ele><time>30.2859736213706-394.8987181524-1598.67200044516T-156.004192613748:2009-01-24 14:46:15:0Z</time></trkpt>
<trkpt lat="-72.23292" lon="48.10932"><ele>0</ele><time>30.4728707309068-396.005541191574-1602.3265735258T-146.268502510552:2009-01-24 14:46:20:0Z</time></trkpt>
<trkpt lat="-72.23293" lon="48.10931"><ele>0</ele><time>30.4711359716248-396.413327859732-1603.66476929921T-146.26849108222:2009-01-24 14:46:25:0Z</time></trkpt>
<trkpt lat="-72.23295" lon="48.10929"><ele>0</ele><time>30.4728652391755-397.228854840851-1606.34116108807T-146.26848708126:2009-01-24 14:46:30:0Z</time></trkpt>
<trkpt lat="-72.23296" lon="48.10928"><ele>0</ele><time>30.4728615873761-397.63664150901-1607.67935710265T-146.268469346586:2009-01-24 14:46:35:0Z</time></trkpt>
<trkpt lat="-72.23299" lon="48.10925"><ele>0</ele><time>30.4728570127877-398.860001513484-1611.69394562748T-146.268460208822:2009-01-24 14:46:40:0Z</time></trkpt>
<trkpt lat="-72.23301" lon="48.10923"><ele>0</ele><time>30.4221308521477-399.675574849801-1614.37033837915T-153.398981996481:2009-01-24 14:46:45:0Z</time></trkpt>
<trkpt lat="-72.23304" lon="48.10919"><ele>0</ele><time>30.2859580287546-401.190184557133-1619.34898275713T-156.004126341038:2009-01-24 14:46:51:0Z</time></trkpt>
<trkpt lat="-72.23306" lon="48.10916"><ele>0</ele><time>29.588404546785-402.297007596307-1623.00355771931T-134.95503196371:2009-01-24 14:46:55:0Z</time></trkpt>
<trkpt lat="-72.23309" lon="48.10914"><ele>0</ele><time>30.471681319776-403.229117897924-1626.15381308419T-146.268397264943:2009-01-24 14:47:00:0Z</time></trkpt>
<trkpt lat="-72.23312" lon="48.10911"><ele>0</ele><time>24.4189086970973-404.452431547202-1630.16840498163T-146.268381824519:2009-01-24 14:47:05:0Z</time></trkpt>
<trkpt lat="-72.23315" lon="48.10908"><ele>0</ele><time>21.6466825699489-405.432751253717-1634.18299760194T-153.39891504099:2009-01-24 14:47:10:0Z</time></trkpt>
<trkpt lat="-72.23318" lon="48.10904"><ele>0</ele><time>21.7643195859164-406.510463229164-1639.16164489335T-146.268352078101:2009-01-24 14:47:16:0Z</time></trkpt>
<trkpt lat="-72.2332" lon="48.10902"><ele>0</ele><time>21.7666256453312-407.092962634879-1641.8380410169T-146.268335473972:2009-01-24 14:47:20:0Z</time></trkpt>
<trkpt lat="-72.23323" lon="48.10899"><ele>0</ele><time>21.7654670717418-407.966804453846-1645.85263580621T-146.268320029304:2009-01-24 14:47:25:0Z</time></trkpt>
<trkpt lat="-72.23326" lon="48.10896"><ele>0</ele><time>15.3671670531956-408.840599917616-1649.86723131611T-146.268298295018:2009-01-24 14:47:30:0Z</time></trkpt>
<trkpt lat="-72.2333" lon="48.10892"><ele>0</ele><time>15.2358205492483-409.663172888682-1655.22002645537T-146.268283994346:2009-01-24 14:47:35:0Z</time></trkpt>
<trkpt lat="-72.23333" lon="48.10889"><ele>0</ele><time>15.6377832140186-410.274829713321-1659.2346236519T-138.321642589479:2009-01-24 14:47:41:0Z</time></trkpt>
<trkpt lat="-72.23337" lon="48.10886"><ele>0</ele><time>10.6363860074029-410.973866084337-1663.70479926087T-138.321625968687:2009-01-24 14:47:45:0Z</time></trkpt>
<trkpt lat="-72.23341" lon="48.10883"><ele>0</ele><time>5.21293737767473-411.44933134014-1668.1749760246T-138.321609356063:2009-01-24 14:47:50:0Z</time></trkpt>
<trkpt lat="-72.23345" lon="48.1088"><ele>0</ele><time>5.21293603062795-411.682358915544-1672.64515394006T-138.321592757477:2009-01-24 14:47:55:0Z</time></trkpt>
<trkpt lat="-72.23349" lon="48.10877"><ele>0</ele><time>6.52963130482664-411.915386490948-1677.11533301065T-146.268200466677:2009-01-24 14:48:00:0Z</time></trkpt>
<trkpt lat="-72.23353" lon="48.10873"><ele>0</ele><time>5.83823596136697-412.264904676456-1682.4681342515T-138.321553999355:2009-01-24 14:48:06:0Z</time></trkpt>
<trkpt lat="-72.23357" lon="48.1087"><ele>0</ele><time>7.97071073124328-412.525884435662-1686.93831601416T-156.003923367195:2009-01-24 14:48:10:0Z</time></trkpt>
<trkpt lat="-72.23359" lon="48.10867"><ele>0</ele><time>7.61732174280142-412.817180493716-1690.59289673947T-146.268161586845:2009-01-24 14:48:15:0Z</time></trkpt>
<trkpt lat="-72.23361" lon="48.10865"><ele>0</ele><time>6.93355228776707-413.021050650197-1693.26929880524T-134.954747677686:2009-01-24 14:48:20:0Z</time></trkpt>
<trkpt lat="-72.23364" lon="48.10863"><ele>0</ele><time>7.97070893511148-413.239476338541-1696.41956982475T-156.003894373267:2009-01-24 14:48:25:0Z</time></trkpt>
<trkpt lat="-72.23366" lon="48.1086"><ele>0</ele><time>6.93354891023366-413.530772396595-1700.07415137359T-134.954719806348:2009-01-24 14:48:30:0Z</time></trkpt>
<trkpt lat="-72.23369" lon="48.10858"><ele>0</ele><time>7.61847206293067-413.749198084939-1703.22442392768T-146.268108934222:2009-01-24 14:48:35:0Z</time></trkpt>
<trkpt lat="-72.23372" lon="48.10855"><ele>0</ele><time>8.06863526244012-414.055049674857-1707.23902931563T-161.537845048024:2009-01-24 14:48:40:0Z</time></trkpt>
<trkpt lat="-72.23374" lon="48.10851"><ele>0</ele><time>6.51009797969714-414.433725279289-1711.93220966293T-153.398660615917:2009-01-24 14:48:45:0Z</time></trkpt>
<trkpt lat="-72.23377" lon="48.10847"><ele>0</ele><time>0.297903076067058-414.757840816831-1716.91086802649T-146.268052301027:2009-01-24 14:48:50:0Z</time></trkpt>
<trkpt lat="-72.2338" lon="48.10844"><ele>0</ele><time>-3.27123580107786-414.769800457662-1720.92547606239T-156.003815695341:2009-01-24 14:48:56:0Z</time></trkpt>
<trkpt lat="-72.23382" lon="48.10841"><ele>0</ele><time>-4.09581090443616-414.650250404555-1724.58005984591T-153.398615976:2009-01-24 14:49:00:0Z</time></trkpt>
<trkpt lat="-72.23385" lon="48.10837"><ele>0</ele><time>-4.35307721910857-414.446333892877-1729.55872015118T-146.268000826486:2009-01-24 14:49:05:0Z</time></trkpt>
<trkpt lat="-72.23388" lon="48.10834"><ele>0</ele><time>-4.35249897404864-414.271574800123-1733.57333059702T-146.267979077116:2009-01-24 14:49:10:0Z</time></trkpt>
<trkpt lat="-72.23392" lon="48.1083"><ele>0</ele><time>-4.35336392606447-414.038593579916-1738.9261456487T-146.26795848287:2009-01-24 14:49:15:0Z</time></trkpt>
<trkpt lat="-72.23396" lon="48.10826"><ele>0</ele><time>-4.52159550363287-413.805566004512-1744.2789619848T-140.14968508463:2009-01-24 14:49:20:0Z</time></trkpt>
<trkpt lat="-72.23401" lon="48.10822"><ele>0</ele><time>-4.09580786812873-413.543381010184-1750.07746815629T-153.398531181897:2009-01-24 14:49:25:0Z</time></trkpt>
<trkpt lat="-72.23404" lon="48.10818"><ele>0</ele><time>-2.07419593148827-413.339464498506-1755.05613215234T172.393419354558:2009-01-24 14:49:30:0Z</time></trkpt>
<trkpt lat="-72.23403" lon="48.10813"><ele>0</ele><time>-3.72433694433818-413.2230202436-1760.67007889374T-161.537697325578:2009-01-24 14:49:35:0Z</time></trkpt>
<trkpt lat="-72.23406" lon="48.10807"><ele>0</ele><time>-3.39758766802984-412.960835249272-1767.70985532231T-146.267827469293:2009-01-24 14:49:40:0Z</time></trkpt>
<trkpt lat="-72.23412" lon="48.10801"><ele>0</ele><time>-1.25590741660903-412.688034914827-1775.73909138918T-140.1495479756:2009-01-24 14:49:46:0Z</time></trkpt>
<trkpt lat="-72.23417" lon="48.10797"><ele>0</ele><time>-1.08826659495345-412.615210900313-1781.53760914223T-146.267775996014:2009-01-24 14:49:50:0Z</time></trkpt>
<trkpt lat="-72.23423" lon="48.10791"><ele>0</ele><time>-1.08826620320643-412.527831353936-1789.56685002698T-146.267745093111:2009-01-24 14:49:55:0Z</time></trkpt>
<trkpt lat="-72.23429" lon="48.10785"><ele>0</ele><time>-4.76816304334071-412.440451807559-1797.59609380203T-146.267714202135:2009-01-24 14:50:00:0Z</time></trkpt>
<trkpt lat="-72.23435" lon="48.10779"><ele>0</ele><time>-6.50673047925025-412.057604235396-1805.62534046753T-146.267689621851:2009-01-24 14:50:06:0Z</time></trkpt>
<trkpt lat="-72.2344" lon="48.10774"><ele>0</ele><time>-3.8057525167703-411.622236225013-1812.31638156369T-146.267657568815:2009-01-24 14:50:10:0Z</time></trkpt>
<trkpt lat="-72.23446" lon="48.10768"><ele>0</ele><time>1.23591836219671-411.316662766277-1820.3456335287T-140.149366993337:2009-01-24 14:50:15:0Z</time></trkpt>
<trkpt lat="-72.23451" lon="48.10764"><ele>0</ele><time>-1.85957548803925-411.388327900865-1826.1441665694T-146.267606086934:2009-01-24 14:50:20:0Z</time></trkpt>
<trkpt lat="-72.23457" lon="48.10758"><ele>0</ele><time>-4.81759879287122-411.239017809859-1834.17342335227T-142.080543533458:2009-01-24 14:50:25:0Z</time></trkpt>
<trkpt lat="-72.23464" lon="48.10752"><ele>0</ele><time>-4.83708673417214-410.831231143115-1842.63794446074T-146.267550602407:2009-01-24 14:50:31:0Z</time></trkpt>
<trkpt lat="-72.23469" lon="48.10747"><ele>0</ele><time>-0.350438112156828-410.507579157543-1849.32899639672T-146.267518560487:2009-01-24 14:50:35:0Z</time></trkpt>
<trkpt lat="-72.23475" lon="48.10741"><ele>0</ele><time>1.08837843650494-410.479441552954-1857.35826136903T-146.267493969589:2009-01-24 14:50:40:0Z</time></trkpt>
<trkpt lat="-72.2348" lon="48.10736"><ele>0</ele><time>4.88938783032989-410.552265567467-1864.04931772134T-146.267461936833:2009-01-24 14:50:45:0Z</time></trkpt>
<trkpt lat="-72.23486" lon="48.1073"><ele>0</ele><time>6.24994272978661-410.944847731004-1872.07858799321T-150.906300022313:2009-01-24 14:50:50:0Z</time></trkpt>
<trkpt lat="-72.23491" lon="48.10724"><ele>0</ele><time>1.45070790681656-411.42244532587-1879.72021953313T-146.267406443116:2009-01-24 14:50:56:0Z</time></trkpt>
<trkpt lat="-72.23496" lon="48.10719"><ele>0</ele><time>1.07718467688328-411.519513108423-1886.41128270972T-151.88922774184:2009-01-24 14:51:00:0Z</time></trkpt>
<trkpt lat="-72.235" lon="48.10714"><ele>0</ele><time>1.69734105492495-411.58746982725-1892.7200169765T-146.267348665632:2009-01-24 14:51:05:0Z</time></trkpt>
<trkpt lat="-72.23506" lon="48.10708"><ele>0</ele><time>4.12834769474601-411.723754107895-1900.74929784787T-146.267324072168:2009-01-24 14:51:10:0Z</time></trkpt>
<trkpt lat="-72.23511" lon="48.10703"><ele>0</ele><time>0-411.999984725504-1907.44036744844T-158.166731444112:2009-01-24 14:51:15:0Z</time></trkpt>
<trkpt lat="-72.23514" lon="48.10698"><ele>0</ele><time>-1.76230211644912E-08-411.999984725504-1913.43490064482T-146.267266291568:2009-01-24 14:51:20:0Z</time></trkpt>
<trkpt lat="-72.2352" lon="48.10692"><ele>0</ele><time>1.76230148217314E-08-411.999984724089-1921.4641892242T-146.267235407655:2009-01-24 14:51:25:0Z</time></trkpt>
<trkpt lat="-72.23526" lon="48.10686"><ele>0</ele><time>0-411.999984725504-1929.49348069342T-146.267210804717:2009-01-24 14:51:30:0Z</time></trkpt>
<trkpt lat="-72.23531" lon="48.10681"><ele>0</ele><time>0-411.999984725504-1936.18455912585T-141.295014918778:2009-01-24 14:51:35:0Z</time></trkpt>
<trkpt lat="-72.23537" lon="48.10676"><ele>0</ele><time>0-411.999984725504-1943.31515286254T-150.906044246825:2009-01-24 14:51:39:0Z</time></trkpt>
<trkpt lat="-72.23542" lon="48.1067"><ele>0</ele><time>-1.98440984579983E-08-411.999984725504-1950.95680338561T-141.294955083178:2009-01-24 14:51:45:0Z</time></trkpt>
<trkpt lat="-72.23548" lon="48.10665"><ele>0</ele><time>2.11475841600187E-08-411.999984724089-1958.08740308857T-146.267102693008:2009-01-24 14:51:50:0Z</time></trkpt>
<trkpt lat="-72.23553" lon="48.1066"><ele>0</ele><time>0-411.999984725504-1964.77848995218T-146.267076951418:2009-01-24 14:51:55:0Z</time></trkpt>
<trkpt lat="-72.23558" lon="48.10655"><ele>0</ele><time>0-411.999984725504-1971.46957882345T-138.320346999307:2009-01-24 14:52:00:0Z</time></trkpt>
<trkpt lat="-72.23562" lon="48.10652"><ele>0</ele><time>0-411.999984725504-1975.93984442584T-140.148730832746:2009-01-24 14:52:05:0Z</time></trkpt>
<trkpt lat="-72.23567" lon="48.10648"><ele>0</ele><time>0-411.999984725504-1981.73843120579T-141.294835399833:2009-01-24 14:52:10:0Z</time></trkpt>
<trkpt lat="-72.23573" lon="48.10643"><ele>0</ele><time>-0.345817330014417-411.999984725504-1988.86904284389T-146.266983139768:2009-01-24 14:52:15:0Z</time></trkpt>
<trkpt lat="-72.23579" lon="48.10637"><ele>0</ele><time>-1.45023843100904-411.972217962491-1996.89835791953T-146.26695224379:2009-01-24 14:52:20:0Z</time></trkpt>
<trkpt lat="-72.23585" lon="48.10631"><ele>0</ele><time>-1.34062898313105-411.855773707584-2004.92767588665T-140.148615662944:2009-01-24 14:52:26:0Z</time></trkpt>
<trkpt lat="-72.2359" lon="48.10627"><ele>0</ele><time>-1.37566121557017-411.778036042187-2010.72627239434T-142.079835534858:2009-01-24 14:52:30:0Z</time></trkpt>
<trkpt lat="-72.23597" lon="48.10621"><ele>0</ele><time>-0.687354741825493-411.66159178728-2019.1908749861T-113.164837657663:2009-01-24 14:52:35:0Z</time></trkpt>
<trkpt lat="-72.23604" lon="48.10619"><ele>0</ele><time>-0.94191007501583-411.622699776983-2024.84909015949T-122.692806526034:2009-01-24 14:52:40:0Z</time></trkpt>
<trkpt lat="-72.23611" lon="48.10616"><ele>0</ele><time>0.599693989625848-411.56447764953-2031.03037317125T-113.164817505925:2009-01-24 14:52:45:0Z</time></trkpt>
<trkpt lat="-72.23618" lon="48.10614"><ele>0</ele><time>4.25944932325443-411.598409653746-2036.6885929972T-120.9226005316:2009-01-24 14:52:51:0Z</time></trkpt>
<trkpt lat="-72.23623" lon="48.10612"><ele>0</ele><time>4.28617806717363-411.782903337874-2041.01999055887T-116.527725965572:2009-01-24 14:52:55:0Z</time></trkpt>
<trkpt lat="-72.23629" lon="48.1061"><ele>0</ele><time>4.25568669032158-411.996508085728-2046.00356204158T-106.673558799266:2009-01-24 14:53:00:0Z</time></trkpt>
<trkpt lat="-72.23634" lon="48.10609"><ele>0</ele><time>3.91975337780369-412.161578942305-2049.88239214795T-89.999981390438:2009-01-24 14:53:05:0Z</time></trkpt>
<trkpt lat="-72.23639" lon="48.10609"><ele>0</ele><time>3.91904050088687-412.307226971333-2053.59813686426T-89.999973946611:2009-01-24 14:53:10:0Z</time></trkpt>
<trkpt lat="-72.23646" lon="48.10609"><ele>0</ele><time>-2.09914964212187-412.511097127813-2058.80017946713T-102.075623817173:2009-01-24 14:53:15:0Z</time></trkpt>
<trkpt lat="-72.23653" lon="48.10608"><ele>0</ele><time>-5.22627744130737-412.399427458199-2064.11993692383T-89.9999739466161:2009-01-24 14:53:20:0Z</time></trkpt>
<trkpt lat="-72.2366" lon="48.10608"><ele>0</ele><time>-5.225609067398-412.12755422628-2069.32198053847T-89.9999702247037:2009-01-24 14:53:25:0Z</time></trkpt>
<trkpt lat="-72.23668" lon="48.10608"><ele>0</ele><time>-2.29305820694504-411.816881697287-2075.26717324206T-100.602731128334:2009-01-24 14:53:30:0Z</time></trkpt>
<trkpt lat="-72.23676" lon="48.10607"><ele>0</ele><time>-2.61358374640503-411.678186947812-2081.3156350323T-89.9999813904452:2009-01-24 14:53:36:0Z</time></trkpt>
<trkpt lat="-72.23681" lon="48.10607"><ele>0</ele><time>-2.61269265066232-411.581072810062-2085.03138119439T-89.9999739466192:2009-01-24 14:53:40:0Z</time></trkpt>
<trkpt lat="-72.23688" lon="48.10607"><ele>0</ele><time>-2.61280403760409-411.445159372408-2090.23342582139T-89.9999702247078:2009-01-24 14:53:45:0Z</time></trkpt>
<trkpt lat="-72.23696" lon="48.10607"><ele>0</ele><time>-2.61254413442509-411.289823107204-2096.17861968088T-89.9999776685315:2009-01-24 14:53:50:0Z</time></trkpt>
<trkpt lat="-72.23702" lon="48.10607"><ele>0</ele><time>-2.61358374626934-411.173332497101-2100.63751507591T-89.9999776685315:2009-01-24 14:53:56:0Z</time></trkpt>
<trkpt lat="-72.23708" lon="48.10607"><ele>0</ele><time>-1.5022171595803-411.0567955318-2105.09641047068T-106.673549621874:2009-01-24 14:54:00:0Z</time></trkpt>
<trkpt lat="-72.23713" lon="48.10606"><ele>0</ele><time>-1.6895184367257-410.99852704915-2108.97524265406T-104.014268896104:2009-01-24 14:54:05:0Z</time></trkpt>
<trkpt lat="-72.23719" lon="48.10605"><ele>0</ele><time>-3.98726665860534-410.920882092732-2113.57092830804T-60.6820894977117:2009-01-24 14:54:10:0Z</time></trkpt>
<trkpt lat="-72.23727" lon="48.10608"><ele>0</ele><time>-2.16644529031767-410.649008863642-2120.38946472329T-37.9201826218553:2009-01-24 14:54:15:0Z</time></trkpt>
<trkpt lat="-72.23734" lon="48.10614"><ele>0</ele><time>1.08837046953761-410.465627704243-2128.85407540229T-33.7330969091264:2009-01-24 14:54:21:0Z</time></trkpt>
<trkpt lat="-72.23739" lon="48.10619"><ele>0</ele><time>0.764327383974343-410.538451718756-2135.54518073373T-43.0715247244316:2009-01-24 14:54:25:0Z</time></trkpt>
<trkpt lat="-72.23746" lon="48.10624"><ele>0</ele><time>-5.70568216785355-410.59667384621-2143.16261387492T-43.0714969242706:2009-01-24 14:54:30:0Z</time></trkpt>
<trkpt lat="-72.23753" lon="48.10629"><ele>0</ele><time>-2.01832521777581-410.162047518978-2150.78004356073T-33.7330133861946:2009-01-24 14:54:35:0Z</time></trkpt>
<trkpt lat="-72.23759" lon="48.10635"><ele>0</ele><time>-1.50950796833967E-08-409.999989750207-2158.80936249029T-33.7329762043405:2009-01-24 14:54:40:0Z</time></trkpt>
<trkpt lat="-72.23766" lon="48.10642"><ele>0</ele><time>2.64163981661091E-08-409.999989748793-2168.1768975894T-33.7329590522675:2009-01-24 14:54:45:0Z</time></trkpt>
<trkpt lat="-72.2377" lon="48.10646"><ele>0</ele><time>0-409.999989750207-2173.52977302189T-33.7329258623413:2009-01-24 14:54:50:0Z</time></trkpt>
<trkpt lat="-72.23776" lon="48.10652"><ele>0</ele><time>-0.625985207656433-409.999989750207-2181.55908376205T-33.7328886855277:2009-01-24 14:54:55:0Z</time></trkpt>
<trkpt lat="-72.23783" lon="48.10659"><ele>0</ele><time>-6.57219599849028-409.941350425981-2190.92660930559T-37.9199069871914:2009-01-24 14:55:00:0Z</time></trkpt>
<trkpt lat="-72.2379" lon="48.10665"><ele>0</ele><time>-1.88825446151747-409.38504170658-2199.39118826107T-37.9198745656051:2009-01-24 14:55:05:0Z</time></trkpt>
<trkpt lat="-72.23797" lon="48.10671"><ele>0</ele><time>1.73796020438023-409.225208987266-2207.85576348498T-41.6795180318105:2009-01-24 14:55:10:0Z</time></trkpt>
<trkpt lat="-72.23801" lon="48.10674"><ele>0</ele><time>1.90760347985673-409.302900297466-2212.32602177998T-46.8937681561626:2009-01-24 14:55:15:0Z</time></trkpt>
<trkpt lat="-72.23809" lon="48.10679"><ele>0</ele><time>1.90760448619512-409.45823656267-2220.46902774764T-46.8937403401387:2009-01-24 14:55:20:0Z</time></trkpt>
<trkpt lat="-72.23817" lon="48.10684"><ele>0</ele><time>0.694764272695491-409.613572829288-2228.61202949366T-50.2398614751594:2009-01-24 14:55:25:0Z</time></trkpt>
<trkpt lat="-72.23826" lon="48.10689"><ele>0</ele><time>-3.64538343386936-409.674020004784-2237.31241577884T-50.2398340703245:2009-01-24 14:55:30:0Z</time></trkpt>
<trkpt lat="-72.23835" lon="48.10694"><ele>0</ele><time>-3.68717970343175-409.356857746794-2246.01279706228T-49.444308021021:2009-01-24 14:55:35:0Z</time></trkpt>
<trkpt lat="-72.23842" lon="48.10698"><ele>0</ele><time>-4.04263393164297-409.104407343839-2252.85950439038T-41.6793453526546:2009-01-24 14:55:40:0Z</time></trkpt>
<trkpt lat="-72.2385" lon="48.10704"><ele>0</ele><time>-3.35639066259948-408.742975872698-2261.79999905926T-46.8936012992668:2009-01-24 14:55:45:0Z</time></trkpt>
<trkpt lat="-72.23858" lon="48.10709"><ele>0</ele><time>-3.35696166889739-408.469665631086-2269.94297969193T-46.8935734865777:2009-01-24 14:55:50:0Z</time></trkpt>
<trkpt lat="-72.23866" lon="48.10714"><ele>0</ele><time>-3.18079533119122-408.196309034277-2278.08595610246T-50.2396970453565:2009-01-24 14:55:55:0Z</time></trkpt>
<trkpt lat="-72.23875" lon="48.10719"><ele>0</ele><time>-3.44833475603861-407.919568508086-2286.78631237743T-45.0460159277807:2009-01-24 14:56:01:0Z</time></trkpt>
<trkpt lat="-72.23881" lon="48.10723"><ele>0</ele><time>-3.18133141986522-407.702301699667-2293.08694221154T-50.2396477160442:2009-01-24 14:56:05:0Z</time></trkpt>
<trkpt lat="-72.2389" lon="48.10728"><ele>0</ele><time>-1.11064017670581-407.425514818279-2301.78728948311T-46.8934678189812:2009-01-24 14:56:10:0Z</time></trkpt>
<trkpt lat="-72.23898" lon="48.10733"><ele>0</ele><time>-0.348236819980678-407.335075828899-2309.93024984749T-42.556121844825:2009-01-24 14:56:15:0Z</time></trkpt>
<trkpt lat="-72.2392" lon="48.10749"><ele>0</ele><time>0.953685321774846-407.250894791116-2334.10375274923T-141.295384838593:2009-01-24 14:56:20:0Z</time></trkpt>
<trkpt lat="-72.23926" lon="48.10744"><ele>0</ele><time>0.974137654694225-407.31889786514-2341.23430959763T-156.003401494037:2009-01-24 14:56:25:0Z</time></trkpt>
<trkpt lat="-72.23928" lon="48.10741"><ele>0</ele><time>0.924805716084119-407.354498656449-2344.88890514041T-134.954039740647:2009-01-24 14:56:30:0Z</time></trkpt>
<trkpt lat="-72.23934" lon="48.10737"><ele>0</ele><time>0.972027913683006-407.412767139099-2351.18952392299T-158.166862296799:2009-01-24 14:56:35:0Z</time></trkpt>
<trkpt lat="-72.23937" lon="48.10732"><ele>0</ele><time>0.948920360010101-407.47103562175-2357.18405163467T-140.149169560301:2009-01-24 14:56:40:0Z</time></trkpt>
<trkpt lat="-72.23942" lon="48.10728"><ele>0</ele><time>0.974221789706264-407.526059240609-2362.98260135263T-150.906290551569:2009-01-24 14:56:45:0Z</time></trkpt>
<trkpt lat="-72.23947" lon="48.10722"><ele>0</ele><time>2.38004195049382-407.600505687018-2370.6242335965T-142.080348957568:2009-01-24 14:56:50:0Z</time></trkpt>
<trkpt lat="-72.23954" lon="48.10716"><ele>0</ele><time>3.65059991621423-407.801965373254-2379.08877709727T-150.906233706569:2009-01-24 14:56:55:0Z</time></trkpt>
<trkpt lat="-72.23959" lon="48.1071"><ele>0</ele><time>3.43209215712623-408.080930947487-2386.730413558T-146.267334379824:2009-01-24 14:57:00:0Z</time></trkpt>
<trkpt lat="-72.23964" lon="48.10705"><ele>0</ele><time>3.43228884111463-408.310574594924-2393.4214823558T-146.26729603112:2009-01-24 14:57:05:0Z</time></trkpt>
<trkpt lat="-72.23971" lon="48.10698"><ele>0</ele><time>3.43208966502128-408.632094241434-2402.78898204459T-146.267272588409:2009-01-24 14:57:10:0Z</time></trkpt>
<trkpt lat="-72.23976" lon="48.10693"><ele>0</ele><time>4.08855649842301-408.861737887456-2409.48005565967T-150.215265065639:2009-01-24 14:57:15:0Z</time></trkpt>
<trkpt lat="-72.23982" lon="48.10686"><ele>0</ele><time>3.2959536405964-409.228731982239-2418.45618439666T-146.267204508453:2009-01-24 14:57:20:0Z</time></trkpt>
<trkpt lat="-72.23988" lon="48.1068"><ele>0</ele><time>-1.08817644755137-409.493373802009-2426.48547875658T-146.267167329933:2009-01-24 14:57:25:0Z</time></trkpt>
<trkpt lat="-72.23995" lon="48.10673"><ele>0</ele><time>-1.42954457875034-409.391438723768-2435.85299249669T-141.294971399729:2009-01-24 14:57:31:0Z</time></trkpt>
<trkpt lat="-72.24001" lon="48.10668"><ele>0</ele><time>-0.398279245613189-409.289503645528-2442.98359057353T-156.003073056634:2009-01-24 14:57:35:0Z</time></trkpt>
<trkpt lat="-72.24005" lon="48.10662"><ele>0</ele><time>-1.08867012230963-409.260392581802-2450.29279989001T-146.267074652255:2009-01-24 14:57:40:0Z</time></trkpt>
<trkpt lat="-72.24012" lon="48.10655"><ele>0</ele><time>-1.62907578622363-409.158411148364-2459.66032374762T-138.320346999307:2009-01-24 14:57:45:0Z</time></trkpt>
<trkpt lat="-72.24016" lon="48.10652"><ele>0</ele><time>-1.08421612204577-409.085587133851-2464.13058935029T-146.267060945141:2009-01-24 14:57:50:0Z</time></trkpt>
<trkpt lat="-72.24017" lon="48.10651"><ele>0</ele><time>-1.09114374346238-409.07107795577-2465.46880760641T-146.267055834445:2009-01-24 14:57:55:0Z</time></trkpt>
<trkpt lat="-72.24018" lon="48.1065"><ele>0</ele><time>-1.08767980205078-409.056476070124-2466.80702594231T-146.267044352448:2009-01-24 14:58:06:0Z</time></trkpt>
<trkpt lat="-72.2402" lon="48.10648"><ele>0</ele><time>-1.08883428862084-409.027365006397-2469.48346285619T-146.267027761067:2009-01-24 14:58:10:0Z</time></trkpt>
<trkpt lat="-72.24023" lon="48.10645"><ele>0</ele><time>-0.424568195155792-408.98365205561-2473.49811882762T-153.397741129956:2009-01-24 14:58:15:0Z</time></trkpt>
<trkpt lat="-72.24026" lon="48.10641"><ele>0</ele><time>2.25329709190877-408.96251408577-2478.47681720426T-146.266985430804:2009-01-24 14:58:19:0Z</time></trkpt>
<trkpt lat="-72.2403" lon="48.10637"><ele>0</ele><time>4.35331351339591-409.083130308409-2483.82969424263T-146.266964837661:2009-01-24 14:58:25:0Z</time></trkpt>
<trkpt lat="-72.24034" lon="48.10633"><ele>0</ele><time>-0.696840742564511-409.316157883813-2489.18257256594T-138.320225203409:2009-01-24 14:58:30:0Z</time></trkpt>
<trkpt lat="-72.24038" lon="48.1063"><ele>0</ele><time>-3.51106521967262-409.285007192832-2493.65284662976T-153.397674186048:2009-01-24 14:58:35:0Z</time></trkpt>
<trkpt lat="-72.24041" lon="48.10626"><ele>0</ele><time>-4.35244465474683-409.110201743467-2498.6315479192T-146.266908206628:2009-01-24 14:58:40:0Z</time></trkpt>
<trkpt lat="-72.24045" lon="48.10622"><ele>0</ele><time>-7.63452925059981-408.877220523259-2503.98442977501T-146.266893898817:2009-01-24 14:58:45:0Z</time></trkpt>
<trkpt lat="-72.24048" lon="48.10619"><ele>0</ele><time>-8.7083503821815-408.570719960583-2507.99909201043T-146.266891089345:2009-01-24 14:58:51:0Z</time></trkpt>
<trkpt lat="-72.24049" lon="48.10618"><ele>0</ele><time>-8.70488539180702-408.454182995282-2509.3373129155T-146.266873305775:2009-01-24 14:58:55:0Z</time></trkpt>
<trkpt lat="-72.24052" lon="48.10615"><ele>0</ele><time>-8.70719311848051-408.104711164972-2513.35197611415T-146.266857879153:2009-01-24 14:59:00:0Z</time></trkpt>
<trkpt lat="-72.24055" lon="48.10612"><ele>0</ele><time>-8.70603690530279-407.755146624267-2517.36664003568T-146.26684242879:2009-01-24 14:59:05:0Z</time></trkpt>
<trkpt lat="-72.24058" lon="48.10609"><ele>0</ele><time>-7.6137396574236-407.405628438759-2521.38130467941T-146.266826971513:2009-01-24 14:59:10:0Z</time></trkpt>
<trkpt lat="-72.24061" lon="48.10606"><ele>0</ele><time>-5.35577133992264-407.099962269629-2525.39597004602T-151.888704215882:2009-01-24 14:59:15:0Z</time></trkpt>
<trkpt lat="-72.24065" lon="48.10601"><ele>0</ele><time>-5.22361869622633-406.762079238572-2531.70473510733T-146.266785792525:2009-01-24 14:59:20:0Z</time></trkpt>
<trkpt lat="-72.24068" lon="48.10598"><ele>0</ele><time>-4.80715746913519-406.552368327267-2535.71940240027T-134.953259412115:2009-01-24 14:59:25:0Z</time></trkpt>
<trkpt lat="-72.24071" lon="48.10596"><ele>0</ele><time>-5.22477177424912-406.400925898613-2538.86975538176T-146.266760056987:2009-01-24 14:59:30:0Z</time></trkpt>
<trkpt lat="-72.24074" lon="48.10593"><ele>0</ele><time>-7.85140990838544-406.191168632111-2542.88442387955T-156.002776090072:2009-01-24 14:59:35:0Z</time></trkpt>
<trkpt lat="-72.24076" lon="48.1059"><ele>0</ele><time>-8.03459936946791-405.904229961162-2546.53903718209T-146.26673545674:2009-01-24 14:59:40:0Z</time></trkpt>
<trkpt lat="-72.24078" lon="48.10588"><ele>0</ele><time>-8.03748486710975-405.689188203615-2549.21548373105T-146.266718871223:2009-01-24 14:59:45:0Z</time></trkpt>
<trkpt lat="-72.24081" lon="48.10585"><ele>0</ele><time>-7.53811948879402-405.366509675765-2553.23015415576T-134.953186953524:2009-01-24 14:59:50:0Z</time></trkpt>
<trkpt lat="-72.24084" lon="48.10583"><ele>0</ele><time>-6.14877539312893-405.129032002862-2556.38051112816T-153.39746440738:2009-01-24 14:59:55:0Z</time></trkpt>
<trkpt lat="-72.24087" lon="48.10579"><ele>0</ele><time>-4.16119258010878-404.822902281762-2561.35922154653T-134.953153515674:2009-01-24 15:00:00:0Z</time></trkpt>
<trkpt lat="-72.2409" lon="48.10577"><ele>0</ele><time>-1.86084302417528-404.691809784598-2564.5095803593T-161.536921171452:2009-01-24 15:00:05:0Z</time></trkpt>
<trkpt lat="-72.24091" lon="48.10575"><ele>0</ele><time>-3.2641792695135-404.648143189008-2566.8561832174T-146.266651944548:2009-01-24 15:00:10:0Z</time></trkpt>
<trkpt lat="-72.24094" lon="48.10572"><ele>0</ele><time>-7.10279255744802-404.517097047041-2570.87085677381T-146.266630202248:2009-01-24 15:00:15:0Z</time></trkpt>
<trkpt lat="-72.24098" lon="48.10568"><ele>0</ele><time>-11.9713461025873-404.136891721107-2576.22375597309T-146.266609600093:2009-01-24 15:00:20:0Z</time></trkpt>
<trkpt lat="-72.24102" lon="48.10564"><ele>0</ele><time>-9.75009790517412-403.496077477545-2581.57665645788T-146.266589016768:2009-01-24 15:00:25:0Z</time></trkpt>
<trkpt lat="-72.24106" lon="48.1056"><ele>0</ele><time>0-402.974164314331-2586.92955822656T00:2009-01-24 15:00:30:0Z</time></trkpt>
<trkpt lat="-72.24106" lon="48.1056"><ele>0</ele><time>-9.24869260317474-402.974164314331-2586.92955822676T-146.266587344389:2009-01-24 15:00:30:0Z</time></trkpt>
<trkpt lat="-72.24107" lon="48.10559"><ele>0</ele><time>-9.25007650827603-402.850395938296-2588.26778386951T-146.266556978881:2009-01-24 15:00:34:0Z</time></trkpt>
<trkpt lat="-72.24112" lon="48.10554"><ele>0</ele><time>-9.24984335980939-402.231461347725-2594.95891328901T-146.266543820202:2009-01-24 15:00:39:0Z</time></trkpt>
<trkpt lat="-72.24115" lon="48.10551"><ele>0</ele><time>-9.16673056539283-401.860109864422-2598.97359190418T-156.002602137845:2009-01-24 15:00:44:0Z</time></trkpt>
<trkpt lat="-72.24117" lon="48.10548"><ele>0</ele><time>-9.24984006301814-401.525100856995-2602.62821014606T-146.26651293684:2009-01-24 15:00:49:0Z</time></trkpt>
<trkpt lat="-72.2412" lon="48.10545"><ele>0</ele><time>-9.2509930097519-401.153749372278-2606.64289020741T-146.266497493686:2009-01-24 15:00:54:0Z</time></trkpt>
<trkpt lat="-72.24123" lon="48.10542"><ele>0</ele><time>-9.01392285660683-400.782351533778-2610.65757098934T-134.952947298744:2009-01-24 15:00:59:0Z</time></trkpt>
<trkpt lat="-72.24126" lon="48.1054"><ele>0</ele><time>-8.68871527730524-400.498379596852-2613.8079411605T-153.397272477023:2009-01-24 15:01:04:0Z</time></trkpt>
<trkpt lat="-72.24129" lon="48.10536"><ele>0</ele><time>-3.81807488072699-400.06579289829-2618.78665993256T-138.319688166051:2009-01-24 15:01:09:0Z</time></trkpt>
<trkpt lat="-72.24133" lon="48.10533"><ele>0</ele><time>-8.76717935990995-399.895113062873-2623.25697130017T-156.002527587385:2009-01-24 15:01:15:0Z</time></trkpt>
<trkpt lat="-72.24135" lon="48.1053"><ele>0</ele><time>-6.53065019277927-399.574705941092-2626.91159165898T-146.266420270229:2009-01-24 15:01:19:0Z</time></trkpt>
<trkpt lat="-72.24138" lon="48.10527"><ele>0</ele><time>-6.52776261420148-399.312520946764-2630.92627605623T-146.266411132154:2009-01-24 15:01:24:0Z</time></trkpt>
<trkpt lat="-72.2414" lon="48.10525"><ele>0</ele><time>-6.53295791019298-399.137808209207-2633.60273272113T-146.266407104602:2009-01-24 15:01:29:0Z</time></trkpt>
<trkpt lat="-72.24141" lon="48.10524"><ele>0</ele><time>-6.52949320222719-399.050382307633-2634.94096117409T-146.266389393996:2009-01-24 15:01:34:0Z</time></trkpt>
<trkpt lat="-72.24144" lon="48.10521"><ele>0</ele><time>-8.76590757477862-398.788243668502-2638.95564701589T-156.002477872119:2009-01-24 15:01:39:0Z</time></trkpt>
<trkpt lat="-72.24146" lon="48.10518"><ele>0</ele><time>-3.69914284586044-398.467882901918-2642.61026878609T-134.952813522831:2009-01-24 15:01:44:0Z</time></trkpt>
<trkpt lat="-72.24149" lon="48.10516"><ele>0</ele><time>-6.52949006912597-398.351345936617-2645.76064632373T-146.266348203436:2009-01-24 15:01:49:0Z</time></trkpt>
<trkpt lat="-72.24152" lon="48.10513"><ele>0</ele><time>-6.52948869585602-398.089207297486-2649.77533409193T-146.266326456276:2009-01-24 15:01:54:0Z</time></trkpt>
<trkpt lat="-72.24156" lon="48.10509"><ele>0</ele><time>-6.52948736303727-397.739689111978-2655.12825224201T-146.266312161074:2009-01-24 15:01:59:0Z</time></trkpt>
<trkpt lat="-72.24159" lon="48.10506"><ele>0</ele><time>-6.53064075457598-397.477550471433-2659.14294169572T-146.266296727995:2009-01-24 15:02:04:0Z</time></trkpt>
<trkpt lat="-72.24162" lon="48.10503"><ele>0</ele><time>-7.88943908728097-397.215365478519-2663.1576318734T-156.002403322156:2009-01-24 15:02:09:0Z</time></trkpt>
<trkpt lat="-72.24164" lon="48.105"><ele>0</ele><time>-4.35414402387335-396.927036153074-2666.81225576054T-146.266272133179:2009-01-24 15:02:15:0Z</time></trkpt>
<trkpt lat="-72.24166" lon="48.10498"><ele>0</ele><time>-1.84956777284303-396.810499186359-2669.48871676128T-134.95270204689:2009-01-24 15:02:19:0Z</time></trkpt>
<trkpt lat="-72.24169" lon="48.10496"><ele>0</ele><time>-4.3524109673431-396.752230705123-2672.63910043965T-146.266251540827:2009-01-24 15:02:24:0Z</time></trkpt>
<trkpt lat="-72.24171" lon="48.10494"><ele>0</ele><time>-4.35298763312607-396.635740095019-2675.31556208305T-146.266234950922:2009-01-24 15:02:29:0Z</time></trkpt>
<trkpt lat="-72.24174" lon="48.10491"><ele>0</ele><time>-5.54017221959507-396.460981002265-2679.33025515096T-151.888171421134:2009-01-24 15:02:34:0Z</time></trkpt>
<trkpt lat="-72.24178" lon="48.10486"><ele>0</ele><time>-4.35298554377637-396.111462816757-2685.63905155031T-146.26619376632:2009-01-24 15:02:39:0Z</time></trkpt>
<trkpt lat="-72.24181" lon="48.10483"><ele>0</ele><time>-1.84956511529283-395.936703724003-2689.6537465452T-134.952618448254:2009-01-24 15:02:45:0Z</time></trkpt>
<trkpt lat="-72.24184" lon="48.10481"><ele>0</ele><time>-6.37496668461196-395.878435241353-2692.80413482665T-156.002312205933:2009-01-24 15:02:49:0Z</time></trkpt>
<trkpt lat="-72.24186" lon="48.10478"><ele>0</ele><time>-4.35327198300249-395.645454021146-2696.45876130132T-146.266146278599:2009-01-24 15:02:54:0Z</time></trkpt>
<trkpt lat="-72.2419" lon="48.10474"><ele>0</ele><time>-4.35298240945105-395.412426445742-2701.8116906913T-146.266131989586:2009-01-24 15:02:59:0Z</time></trkpt>
<trkpt lat="-72.24193" lon="48.10471"><ele>0</ele><time>-4.31256920045921-395.237667352988-2705.82638857693T-146.266110242235:2009-01-24 15:03:04:0Z</time></trkpt>
<trkpt lat="-72.24197" lon="48.10467"><ele>0</ele><time>-1.95459992820726-395.006818471843-2711.179320215T-156.002254214087:2009-01-24 15:03:09:0Z</time></trkpt>
<trkpt lat="-72.24199" lon="48.10464"><ele>0</ele><time>-1.27129777300566-394.93538511324-2714.83394833465T-134.95251256986:2009-01-24 15:03:14:0Z</time></trkpt>
<trkpt lat="-72.24202" lon="48.10462"><ele>0</ele><time>-1.63265588751709-394.895334223017-2717.9843424495T-146.266070189302:2009-01-24 15:03:19:0Z</time></trkpt>
<trkpt lat="-72.24205" lon="48.10459"><ele>0</ele><time>-2.01689634119767-394.829787974435-2721.99904322528T-161.5365260649:2009-01-24 15:03:24:0Z</time></trkpt>
<trkpt lat="-72.24206" lon="48.10457"><ele>0</ele><time>-1.63323276478631-394.782459318281-2724.34565148607T-146.266050747782:2009-01-24 15:03:29:0Z</time></trkpt>
<trkpt lat="-72.24208" lon="48.10455"><ele>0</ele><time>-1.63150060094236-394.738746367494-2727.02211939251T-146.266034176842:2009-01-24 15:03:34:0Z</time></trkpt>
<trkpt lat="-72.24211" lon="48.10452"><ele>0</ele><time>-1.63265487219939-394.673246472694-2731.0368218549T-146.266018720238:2009-01-24 15:03:39:0Z</time></trkpt>
<trkpt lat="-72.24214" lon="48.10449"><ele>0</ele><time>-1.63265457916582-394.607700225527-2735.05152504068T-146.266003277493:2009-01-24 15:03:43:0Z</time></trkpt>
<trkpt lat="-72.24217" lon="48.10446"><ele>0</ele><time>-1.63265419055589-394.54215397836-2739.06622894704T-146.265968950936:2009-01-24 15:03:49:0Z</time></trkpt>
<trkpt lat="-72.24223" lon="48.1044"><ele>0</ele><time>-1.63236502471087-394.411061479781-2747.09563893093T-146.265950653464:2009-01-24 15:03:54:0Z</time></trkpt>
<trkpt lat="-72.24227" lon="48.10436"><ele>0</ele><time>-1.76340267866153-394.323681933404-2752.44858052514T-150.904907491785:2009-01-24 15:03:59:0Z</time></trkpt>
<trkpt lat="-72.24232" lon="48.1043"><ele>0</ele><time>-1.44293169772797-394.188927375676-2760.09031541409T-140.147513417517:2009-01-24 15:04:04:0Z</time></trkpt>
<trkpt lat="-72.24237" lon="48.10426"><ele>0</ele><time>4.69870505353242-394.10525624506-2765.88900503659T-65.9597970482865:2009-01-24 15:04:10:0Z</time></trkpt>
<trkpt lat="-72.24284" lon="48.1044"><ele>0</ele><time>-0.310385206793438-395.902354523014-2804.13567635305T-108.406368269031:2009-01-24 15:04:14:0Z</time></trkpt>
<trkpt lat="-72.24293" lon="48.10438"><ele>0</ele><time>0.803581758095425-395.880474870022-2811.18486958557T-108.406361595254:2009-01-24 15:04:19:0Z</time></trkpt>
<trkpt lat="-72.24302" lon="48.10436"><ele>0</ele><time>3.30573165542809-395.937120920777-2818.23406528772T-108.40635491056:2009-01-24 15:04:24:0Z</time></trkpt>
<trkpt lat="-72.24311" lon="48.10434"><ele>0</ele><time>1.99324211993846-396.170148496181-2825.28326345907T-119.317022869629:2009-01-24 15:04:29:0Z</time></trkpt>
<trkpt lat="-72.24319" lon="48.10431"><ele>0</ele><time>2.74523691610005-396.306061933835-2832.10197536037T-113.164071675545:2009-01-24 15:04:35:0Z</time></trkpt>
<trkpt lat="-72.24326" lon="48.10429"><ele>0</ele><time>3.2662719317542-396.461398199038-2837.76036732982T-108.406331538771:2009-01-24 15:04:39:0Z</time></trkpt>
<trkpt lat="-72.24335" lon="48.10427"><ele>0</ele><time>4.81587240660957-396.691644462622-2844.80957414403T-79.3975721923185:2009-01-24 15:04:44:0Z</time></trkpt>
<trkpt lat="-72.24343" lon="48.10428"><ele>0</ele><time>4.72539832623875-396.982940520676-2850.85824058408T-80.5530922215884:2009-01-24 15:04:49:0Z</time></trkpt>
<trkpt lat="-72.24352" lon="48.10429"><ele>0</ele><time>5.37189141505457-397.303347642458-2857.63877207923T-71.5935947949328:2009-01-24 15:04:54:0Z</time></trkpt>
<trkpt lat="-72.24361" lon="48.10431"><ele>0</ele><time>1.74129195011352-397.682023245475-2864.68797642383T-53.1758199108324:2009-01-24 15:04:59:0Z</time></trkpt>
<trkpt lat="-72.24365" lon="48.10433"><ele>0</ele><time>2.0334823254593-397.746688746728-2868.40162715591T-45.0476099998391:2009-01-24 15:05:04:0Z</time></trkpt>
<trkpt lat="-72.24371" lon="48.10437"><ele>0</ele><time>2.61178429583496-397.874814511283-2874.70243257481T-33.7340081326128:2009-01-24 15:05:09:0Z</time></trkpt>
<trkpt lat="-72.24376" lon="48.10442"><ele>0</ele><time>3.9273765022385-398.049573605451-2881.39360896509T-33.7339823891769:2009-01-24 15:05:14:0Z</time></trkpt>
<trkpt lat="-72.24381" lon="48.10447"><ele>0</ele><time>5.23229441834199-398.312361215926-2888.08478334894T-28.1119794714289:2009-01-24 15:05:19:0Z</time></trkpt>
<trkpt lat="-72.24385" lon="48.10452"><ele>0</ele><time>6.36250262369919-398.642456573884-2894.39359037632T-39.8523068000759:2009-01-24 15:05:24:0Z</time></trkpt>
<trkpt lat="-72.2439" lon="48.10456"><ele>0</ele><time>4.5751307721804-399.011397586942-2900.19226795461T-33.7339103167934:2009-01-24 15:05:29:0Z</time></trkpt>
<trkpt lat="-72.24395" lon="48.10461"><ele>0</ele><time>6.60869273487402-399.317527308042-2906.88343671773T-26.6030399298194:2009-01-24 15:05:35:0Z</time></trkpt>
<trkpt lat="-72.24398" lon="48.10465"><ele>0</ele><time>11.6082575129953-399.646556496468-2911.86217005616T-33.7338639844028:2009-01-24 15:05:39:0Z</time></trkpt>
<trkpt lat="-72.24403" lon="48.1047"><ele>0</ele><time>11.2339037825038-400.423284177684-2918.55333520603T-28.1118729174764:2009-01-24 15:05:44:0Z</time></trkpt>
<trkpt lat="-72.24407" lon="48.10475"><ele>0</ele><time>5.21734541600588-401.132008784877-2924.86213596589T-33.7338125071937:2009-01-24 15:05:50:0Z</time></trkpt>
<trkpt lat="-72.24412" lon="48.1048"><ele>0</ele><time>-2.27752362375382-401.481109773612-2931.55329710052T-39.8521532500004:2009-01-24 15:05:55:0Z</time></trkpt>
<trkpt lat="-72.24417" lon="48.10484"><ele>0</ele><time>-2.23302268789455-401.34904381731-2937.35196170819T-38.7059848466448:2009-01-24 15:05:59:0Z</time></trkpt>
<trkpt lat="-72.24423" lon="48.10489"><ele>0</ele><time>-2.39579730535329-401.189813715557-2944.48265960106T-43.072247662931:2009-01-24 15:06:04:0Z</time></trkpt>
<trkpt lat="-72.2443" lon="48.10494"><ele>0</ele><time>-2.72034806247139-401.007313304901-2952.10018259636T-53.1754728736428:2009-01-24 15:06:09:0Z</time></trkpt>
<trkpt lat="-72.24436" lon="48.10497"><ele>0</ele><time>-2.71868474855889-400.855778165853-2957.67061459874T-53.1754568292104:2009-01-24 15:06:15:0Z</time></trkpt>
<trkpt lat="-72.24442" lon="48.105"><ele>0</ele><time>-3.97775266593247-400.704335737198-2963.2410445184T-53.1754407724118:2009-01-24 15:06:19:0Z</time></trkpt>
<trkpt lat="-72.24448" lon="48.10503"><ele>0</ele><time>-4.61798720139569-400.482757895457-2968.81147235416T-57.3077139604172:2009-01-24 15:06:24:0Z</time></trkpt>
<trkpt lat="-72.24455" lon="48.10506"><ele>0</ele><time>-4.32394625964422-400.197302592227-2974.99285161705T-66.8355657984871:2009-01-24 15:06:29:0Z</time></trkpt>
<trkpt lat="-72.24462" lon="48.10508"><ele>0</ele><time>-4.70590216674067-399.952639862371-2980.65117193753T-53.1754081168907:2009-01-24 15:06:34:0Z</time></trkpt>
<trkpt lat="-72.24466" lon="48.1051"><ele>0</ele><time>-3.13125126561412-399.777880769617-2984.36478702263T-89.9999962781481:2009-01-24 15:06:39:0Z</time></trkpt>
<trkpt lat="-72.24467" lon="48.1051"><ele>0</ele><time>-3.66539996559108-399.754610460715-2985.10795028T00:2009-01-24 15:06:49:0Z</time></trkpt>
<trkpt lat="-72.24467" lon="48.10511"><ele>0</ele><time>0-399.71381788734-2986.22085947839T00:2009-01-24 15:06:54:0Z</time></trkpt>
<trkpt lat="-72.24467" lon="48.10511"><ele>0</ele><time>-1.3093616987696-399.71381788734-2986.22085947856T33.73365237722:2009-01-24 15:06:54:0Z</time></trkpt>
<trkpt lat="-72.24466" lon="48.10512"><ele>0</ele><time>0-399.696295622867-2987.55908897537T00:2009-01-24 15:07:01:0Z</time></trkpt>
<trkpt lat="-72.24466" lon="48.10512"><ele>0</ele><time>3.13749003639787-399.696295622867-2987.55908897567T89.9999962781467:2009-01-24 15:07:01:0Z</time></trkpt>
<trkpt lat="-72.24465" lon="48.10512"><ele>0</ele><time>-3.66539996791758-399.719612286967-2988.30225194446T00:2009-01-24 15:07:05:0Z</time></trkpt>
<trkpt lat="-72.24465" lon="48.10513"><ele>0</ele><time>-3.13125309391879-399.678819713592-2989.41516114215T-89.9999962781459:2009-01-24 15:07:13:0Z</time></trkpt>
<trkpt lat="-72.24466" lon="48.10513"><ele>0</ele><time>3.13125309086297-399.655549404689-2990.15832396563T89.9999962781459:2009-01-24 15:07:32:0Z</time></trkpt>
<trkpt lat="-72.24465" lon="48.10513"><ele>0</ele><time>-4.08049805971294-399.678819713592-2990.90148678983T-33.7336420810003:2009-01-24 15:07:51:0Z</time></trkpt>
<trkpt lat="-72.24466" lon="48.10514"><ele>0</ele><time>0-399.624213291506-2992.23971612573T00:2009-01-24 15:07:56:0Z</time></trkpt>
<trkpt lat="-72.24466" lon="48.10514"><ele>0</ele><time>-2.61992792997414-399.624213291506-2992.23971612603T00:2009-01-24 15:07:56:0Z</time></trkpt>
<trkpt lat="-72.24466" lon="48.10515"><ele>0</ele><time>0-399.595055872582-2993.35262532442T00:2009-01-24 15:08:03:0Z</time></trkpt>
<trkpt lat="-72.24466" lon="48.10515"><ele>0</ele><time>2.61992792997414-399.595055872582-2993.35262532472T180:2009-01-24 15:08:03:0Z</time></trkpt>
<trkpt lat="-72.24466" lon="48.10514"><ele>0</ele><time>0-399.624213291506-2994.46553452311T-89.9999962781452:2009-01-24 15:08:08:0Z</time></trkpt>
<trkpt lat="-72.24467" lon="48.10514"><ele>0</ele><time>0-399.624213291506-2995.20869720214T00:2009-01-24 15:08:18:0Z</time></trkpt>
<trkpt lat="-72.24467" lon="48.10514"><ele>0</ele><time>2.6157627060686-399.624213291506-2995.2086972023T180:2009-01-24 15:08:18:0Z</time></trkpt>
<trkpt lat="-72.24467" lon="48.10513"><ele>0</ele><time>3.2145178009778-399.653324355233-2996.32160639928T146.266345344004:2009-01-24 15:08:22:0Z</time></trkpt>
<trkpt lat="-72.24466" lon="48.10512"><ele>0</ele><time>0.821348697886948-399.696341978064-2997.65983581639T-126.824582903901:2009-01-24 15:08:28:0Z</time></trkpt>
<trkpt lat="-72.24468" lon="48.10511"><ele>0</ele><time>-1.02978494085602-399.711592837883-2999.51664278014T-66.8355456411713:2009-01-24 15:08:38:0Z</time></trkpt>
<trkpt lat="-72.24475" lon="48.10513"><ele>0</ele><time>-1.44988659259989-399.653324355233-3005.17495844764T-56.3534419175413:2009-01-24 15:08:42:0Z</time></trkpt>
<trkpt lat="-72.24484" lon="48.10517"><ele>0</ele><time>-5.29181242169239-399.536833745129-3013.20942201869T-60.6825083042448:2009-01-24 15:08:48:0Z</time></trkpt>
<trkpt lat="-72.24492" lon="48.1052"><ele>0</ele><time>-9.65265311607367-399.176004891549-3020.02804718577T-65.8074873778647:2009-01-24 15:08:53:0Z</time></trkpt>
<trkpt lat="-72.24502" lon="48.10523"><ele>0</ele><time>-4.27235161895216-398.389588974156-3028.17519500032T-53.1753177707774:2009-01-24 15:08:58:0Z</time></trkpt>
<trkpt lat="-72.24508" lon="48.10526"><ele>0</ele><time>-3.46887119188293-398.151601392671-3033.74560686505T-71.5932708388214:2009-01-24 15:09:02:0Z</time></trkpt>
<trkpt lat="-72.24517" lon="48.10528"><ele>0</ele><time>-4.67678599266661-397.907077728407-3040.79469144439T-63.4725812633806:2009-01-24 15:09:07:0Z</time></trkpt>
<trkpt lat="-72.24526" lon="48.10531"><ele>0</ele><time>-2.54369663496602-397.55746683109-3048.27014355755T-73.3266228152351:2009-01-24 15:09:13:0Z</time></trkpt>
<trkpt lat="-72.24536" lon="48.10533"><ele>0</ele><time>-1.66989231453885-397.360132758803-3056.0279111142T-81.4830005183912:2009-01-24 15:09:18:0Z</time></trkpt>
<trkpt lat="-72.24546" lon="48.10534"><ele>0</ele><time>-1.94972932006321-397.234649240478-3063.54237879769T-75.9858723998351:2009-01-24 15:09:23:0Z</time></trkpt>
<trkpt lat="-72.24552" lon="48.10535"><ele>0</ele><time>-1.62942320288473-397.145044644645-3068.13812421275T-82.2473865889435:2009-01-24 15:09:27:0Z</time></trkpt>
<trkpt lat="-72.24563" lon="48.10536"><ele>0</ele><time>-0.535298107046251-397.010614573295-3076.38828728346T-89.9999590594292:2009-01-24 15:09:33:0Z</time></trkpt>
<trkpt lat="-72.24574" lon="48.10536"><ele>0</ele><time>0.774800718480499-396.966855267311-3084.56304176288T-98.5169283084907:2009-01-24 15:09:38:0Z</time></trkpt>
<trkpt lat="-72.24584" lon="48.10535"><ele>0</ele><time>-4.14226329402176-397.025077394765-3092.07750658787T-116.52736956588:2009-01-24 15:09:43:0Z</time></trkpt>
<trkpt lat="-72.24593" lon="48.10532"><ele>0</ele><time>-3.12281859319229-396.715424678691-3099.55295404484T-116.527356197523:2009-01-24 15:09:47:0Z</time></trkpt>
<trkpt lat="-72.24602" lon="48.10529"><ele>0</ele><time>3.52750535972424-396.481979906514-3107.02840499437T-123.646552788271:2009-01-24 15:09:52:0Z</time></trkpt>
<trkpt lat="-72.24611" lon="48.10525"><ele>0</ele><time>12.7457748815171-396.765395581076-3115.06285556666T-136.927872617502:2009-01-24 15:09:58:0Z</time></trkpt>
<trkpt lat="-72.24618" lon="48.1052"><ele>0</ele><time>12.7457690971821-397.736305182596-3122.68035713519T-136.927844810396:2009-01-24 15:10:03:0Z</time></trkpt>
<trkpt lat="-72.24625" lon="48.10515"><ele>0</ele><time>7.81766229465129-398.707214784116-3130.29786216071T-130.554632129869:2009-01-24 15:10:08:0Z</time></trkpt>
<trkpt lat="-72.24632" lon="48.10511"><ele>0</ele><time>3.18246443445641-399.242478242657-3137.14471021281T-140.147957594568:2009-01-24 15:10:13:0Z</time></trkpt>
<trkpt lat="-72.24637" lon="48.10507"><ele>0</ele><time>4.44376774582994-399.427018283396-3142.94336231214T-126.824535945656:2009-01-24 15:10:17:0Z</time></trkpt>
<trkpt lat="-72.24643" lon="48.10504"><ele>0</ele><time>4.11227351137822-399.674555035466-3148.51378737097T-130.554571561632:2009-01-24 15:10:23:0Z</time></trkpt>
<trkpt lat="-72.2465" lon="48.105"><ele>0</ele><time>4.11227166385602-399.956116502147-3155.36064388239T-130.554549524996:2009-01-24 15:10:28:0Z</time></trkpt>
<trkpt lat="-72.24657" lon="48.10496"><ele>0</ele><time>4.84536598693889-400.237677968828-3162.20750346989T-134.952674169713:2009-01-24 15:10:33:0Z</time></trkpt>
<trkpt lat="-72.24663" lon="48.10492"><ele>0</ele><time>8.10424335500993-400.542973296382-3168.50827266621T-126.824445610509:2009-01-24 15:10:37:0Z</time></trkpt>
<trkpt lat="-72.24671" lon="48.10488"><ele>0</ele><time>8.63976917561916-401.144895529647-3175.93552042887T-122.692142721277:2009-01-24 15:10:43:0Z</time></trkpt>
<trkpt lat="-72.24678" lon="48.10485"><ele>0</ele><time>4.21526972181958-401.67895375448-3182.11691502376T-122.692127531013:2009-01-24 15:10:48:0Z</time></trkpt>
<trkpt lat="-72.24685" lon="48.10482"><ele>0</ele><time>4.8048193215065-401.939516316912-3188.29831217335T-113.164277280926:2009-01-24 15:10:53:0Z</time></trkpt>
<trkpt lat="-72.24692" lon="48.1048"><ele>0</ele><time>4.77286358954683-402.211389547417-3193.95665668774T-108.406501855188:2009-01-24 15:10:57:0Z</time></trkpt>
<trkpt lat="-72.24701" lon="48.10478"><ele>0</ele><time>4.68277069644801-402.547835567366-3201.00580053266T-108.406495175818:2009-01-24 15:11:02:0Z</time></trkpt>
<trkpt lat="-72.2471" lon="48.10476"><ele>0</ele><time>3.99189501887537-402.877930925324-3208.05494684701T-114.19224234462:2009-01-24 15:11:07:0Z</time></trkpt>
<trkpt lat="-72.2472" lon="48.10473"><ele>0</ele><time>5.38410851020154-403.203158987595-3216.2021566492T-102.075313683328:2009-01-24 15:11:13:0Z</time></trkpt>
<trkpt lat="-72.24727" lon="48.10472"><ele>0</ele><time>5.65589391300221-403.489587748548-3221.5220487058T-99.4469184028399:2009-01-24 15:11:18:0Z</time></trkpt>
<trkpt lat="-72.24736" lon="48.10471"><ele>0</ele><time>5.38410653384302-403.873084294884-3228.30252500601T-102.075309115212:2009-01-24 15:11:23:0Z</time></trkpt>
<trkpt lat="-72.24743" lon="48.1047"><ele>0</ele><time>5.6558917509432-404.159513057252-3233.62241904168T-99.4469147873567:2009-01-24 15:11:27:0Z</time></trkpt>
<trkpt lat="-72.24752" lon="48.10469"><ele>0</ele><time>5.65589068028706-404.543009602173-3240.40289790882T-99.4469129766646:2009-01-24 15:11:32:0Z</time></trkpt>
<trkpt lat="-72.24761" lon="48.10468"><ele>0</ele><time>6.02605005733919-404.926506147094-3247.1833780595T-89.9999627816958:2009-01-24 15:11:38:0Z</time></trkpt>
<trkpt lat="-72.24771" lon="48.10468"><ele>0</ele><time>5.04811904683465-405.374343705475-3254.61507135975T-99.4469111836793:2009-01-24 15:11:43:0Z</time></trkpt>
<trkpt lat="-72.2478" lon="48.10467"><ele>0</ele><time>5.87884388190774-405.716630480249-3261.39555279449T-89.9999702253606:2009-01-24 15:11:48:0Z</time></trkpt>
<trkpt lat="-72.24788" lon="48.10467"><ele>0</ele><time>5.87849735398665-406.066148665756-3267.3409085911T-89.9999665035317:2009-01-24 15:11:52:0Z</time></trkpt>
<trkpt lat="-72.24797" lon="48.10467"><ele>0</ele><time>5.87962356845674-406.459333446854-3274.02943386247T-89.9999702253606:2009-01-24 15:11:58:0Z</time></trkpt>
<trkpt lat="-72.24805" lon="48.10467"><ele>0</ele><time>5.16614160943456-406.808897987559-3279.97478966008T-100.602446867229:2009-01-24 15:12:03:0Z</time></trkpt>
<trkpt lat="-72.24813" lon="48.10466"><ele>0</ele><time>5.31611033217772-407.121378370651-3286.02341175982T-99.4469075682039:2009-01-24 15:12:08:0Z</time></trkpt>
<trkpt lat="-72.24822" lon="48.10465"><ele>0</ele><time>5.13227905013129-407.48183638124-3292.80389576157T-102.07529543326:2009-01-24 15:12:13:0Z</time></trkpt>
<trkpt lat="-72.24829" lon="48.10464"><ele>0</ele><time>4.05475260632752-407.754868493085-3298.12379573541T-108.40644843132:2009-01-24 15:12:17:0Z</time></trkpt>
<trkpt lat="-72.24838" lon="48.10462"><ele>0</ele><time>3.25686859690947-408.040694637891-3305.17295933567T-122.692010973765:2009-01-24 15:12:23:0Z</time></trkpt>
<trkpt lat="-72.24845" lon="48.10459"><ele>0</ele><time>2.27809653557615-408.242015258536-3311.35437607554T-119.317141843675:2009-01-24 15:12:28:0Z</time></trkpt>
<trkpt lat="-72.24853" lon="48.10456"><ele>0</ele><time>2.27877535006932-408.39735152374-3318.17306276323T-119.317127566718:2009-01-24 15:12:33:0Z</time></trkpt>
<trkpt lat="-72.24861" lon="48.10453"><ele>0</ele><time>2.09121969510135-408.552734144141-3324.99175247726T-126.824247142517:2009-01-24 15:12:38:0Z</time></trkpt>
<trkpt lat="-72.24867" lon="48.1045"><ele>0</ele><time>2.09205107344384-408.669224754244-3330.56221503439T-126.824231116576:2009-01-24 15:12:42:0Z</time></trkpt>
<trkpt lat="-72.24873" lon="48.10447"><ele>0</ele><time>1.63364427503258-408.785761719545-3336.13267967459T-141.293742030995:2009-01-24 15:12:48:0Z</time></trkpt>
<trkpt lat="-72.24879" lon="48.10442"><ele>0</ele><time>1.37101252112423-408.902252329648-3343.26340035126T-141.293714829983:2009-01-24 15:12:53:0Z</time></trkpt>
<trkpt lat="-72.24885" lon="48.10437"><ele>0</ele><time>-0.00103694795120598-409.000015440157-3350.39412374019T-138.319140097791:2009-01-24 15:12:58:0Z</time></trkpt>
<trkpt lat="-72.24889" lon="48.10434"><ele>0</ele><time>0-408.99996908496-3354.86447318285T-150.904898019155:2009-01-24 15:13:02:0Z</time></trkpt>
<trkpt lat="-72.24894" lon="48.10428"><ele>0</ele><time>0-408.99996908496-3362.50620877457T-146.265888885947:2009-01-24 15:13:08:0Z</time></trkpt>
<trkpt lat="-72.24898" lon="48.10424"><ele>0</ele><time>0-408.99996908496-3367.85915422426T-146.265861985399:2009-01-24 15:13:13:0Z</time></trkpt>
<trkpt lat="-72.24903" lon="48.10419"><ele>0</ele><time>0-408.99996908496-3374.55033784089T-146.265842549924:2009-01-24 15:13:18:0Z</time></trkpt>
<trkpt lat="-72.24907" lon="48.10415"><ele>0</ele><time>0-408.99996908496-3379.90328618056T-140.1474311453:2009-01-24 15:13:22:0Z</time></trkpt>
<trkpt lat="-72.24912" lon="48.10411"><ele>0</ele><time>0-408.99996908496-3385.70198275144T-134.952200425324:2009-01-24 15:13:27:0Z</time></trkpt>
<trkpt lat="-72.24918" lon="48.10407"><ele>0</ele><time>0-408.99996908496-3392.00280413209T-110.524609008636:2009-01-24 15:13:33:0Z</time></trkpt>
<trkpt lat="-72.24926" lon="48.10405"><ele>0</ele><time>6.55462664306435-408.99996908496-3398.35121827023T-66.8359729591471:2009-01-24 15:13:38:0Z</time></trkpt>
<trkpt lat="-72.24933" lon="48.10407"><ele>0</ele><time>9.24555269364395-409.370857016293-3404.009632571T-45.0477549199089:2009-01-24 15:13:43:0Z</time></trkpt>
<trkpt lat="-72.24939" lon="48.10411"><ele>0</ele><time>2.73616893668376-409.953402777205-3410.31045395199T-38.7063819243341:2009-01-24 15:13:47:0Z</time></trkpt>
<trkpt lat="-72.24945" lon="48.10416"><ele>0</ele><time>2.09703444589978-410.14851180145-3417.44119144518T-29.0951215985111:2009-01-24 15:13:52:0Z</time></trkpt>
<trkpt lat="-72.2495" lon="48.10422"><ele>0</ele><time>2.24601368186237-410.308761717537-3425.08293125543T-38.706322096908:2009-01-24 15:13:58:0Z</time></trkpt>
<trkpt lat="-72.24956" lon="48.10427"><ele>0</ele><time>1.38531316259759-410.468918923231-3432.21366278157T-38.7062948929217:2009-01-24 15:14:03:0Z</time></trkpt>
<trkpt lat="-72.24962" lon="48.10432"><ele>0</ele><time>0.693767599864433-410.567701848074-3439.3443915951T-45.0476155846198:2009-01-24 15:14:08:0Z</time></trkpt>
<trkpt lat="-72.24968" lon="48.10436"><ele>0</ele><time>0.714977867396386-410.611414798861-3445.64519762806T-46.8950917904995:2009-01-24 15:14:12:0Z</time></trkpt>
<trkpt lat="-72.24976" lon="48.10441"><ele>0</ele><time>0.693768208277782-410.669636926314-3453.78840458705T-45.0475654236139:2009-01-24 15:14:17:0Z</time></trkpt>
<trkpt lat="-72.24982" lon="48.10445"><ele>0</ele><time>0.744727184846236-410.713349877101-3460.08920509439T-49.4456791972977:2009-01-24 15:14:23:0Z</time></trkpt>
<trkpt lat="-72.24989" lon="48.10449"><ele>0</ele><time>0.744050514974552-410.76434059382-3466.93610389929T-49.4456571770539:2009-01-24 15:14:28:0Z</time></trkpt>
<trkpt lat="-72.24996" lon="48.10453"><ele>0</ele><time>0.824902692889116-410.815284956756-3473.78299962891T-57.307967306175:2009-01-24 15:14:33:0Z</time></trkpt>
<trkpt lat="-72.25003" lon="48.10456"><ele>0</ele><time>0.853861309542009-410.86627567206-3479.96442147946T-60.6827986114803:2009-01-24 15:14:37:0Z</time></trkpt>
<trkpt lat="-72.25011" lon="48.10459"><ele>0</ele><time>0.824903397892695-410.924497799514-3486.78310816819T-57.3079369153817:2009-01-24 15:14:43:0Z</time></trkpt>
<trkpt lat="-72.25018" lon="48.10462"><ele>0</ele><time>0.491113249469066-410.975488516232-3492.96452490721T-63.4728886385894:2009-01-24 15:14:48:0Z</time></trkpt>
<trkpt lat="-72.25024" lon="48.10464"><ele>0</ele><time>0-410.999964060257-3497.94821126701T-53.1756434342875:2009-01-24 15:14:53:0Z</time></trkpt>
<trkpt lat="-72.25028" lon="48.10466"><ele>0</ele><time>0-410.999964060257-3501.6618467218T-60.6827510222338:2009-01-24 15:14:57:0Z</time></trkpt>
<trkpt lat="-72.25036" lon="48.10469"><ele>0</ele><time>0.330711727017629-410.999964060257-3508.48052332388T-57.3078862344353:2009-01-24 15:15:02:0Z</time></trkpt>
<trkpt lat="-72.25043" lon="48.10472"><ele>0</ele><time>3.50673456549382-411.020406702142-3514.66193154588T-53.175590532249:2009-01-24 15:15:08:0Z</time></trkpt>
<trkpt lat="-72.25049" lon="48.10475"><ele>0</ele><time>3.40868215438736-411.215747502371-3520.23237882612T-46.8948749033323:2009-01-24 15:15:13:0Z</time></trkpt>
<trkpt lat="-72.25057" lon="48.1048"><ele>0</ele><time>3.07249136465485-411.493322422109-3528.37555284957T-33.7337993593879:2009-01-24 15:15:18:0Z</time></trkpt>
<trkpt lat="-72.2506" lon="48.10483"><ele>0</ele><time>-1.5146848522171-411.616673601371-3532.39024856787T-38.7059902795938:2009-01-24 15:15:22:0Z</time></trkpt>
<trkpt lat="-72.25066" lon="48.10488"><ele>0</ele><time>-2.72318337277245-411.508665992321-3539.52094700273T-38.705963084786:2009-01-24 15:15:27:0Z</time></trkpt>
<trkpt lat="-72.25072" lon="48.10493"><ele>0</ele><time>-2.52946061967798-411.314484072017-3546.65164272618T-38.7059358939817:2009-01-24 15:15:33:0Z</time></trkpt>
<trkpt lat="-72.25078" lon="48.10498"><ele>0</ele><time>0-411.134116000424-3553.78233573598T-45.0472477222268:2009-01-24 15:15:38:0Z</time></trkpt>
<trkpt lat="-72.25084" lon="48.10502"><ele>0</ele><time>0-411.134116000424-3560.0831012496T-45.0472254392911:2009-01-24 15:15:43:0Z</time></trkpt>
<trkpt lat="-72.2509" lon="48.10506"><ele>0</ele><time>0.199723658801414-411.134116000424-3566.38386430749T-49.4453433017749:2009-01-24 15:15:47:0Z</time></trkpt>
<trkpt lat="-72.25097" lon="48.1051"><ele>0</ele><time>-0.0894546291287616-411.147790783544-3573.23071620379T-43.0721308848758:2009-01-24 15:15:52:0Z</time></trkpt>
<trkpt lat="-72.25104" lon="48.10515"><ele>0</ele><time>-0.288635927729967-411.140976569583-3580.84822468529T-38.70581621247:2009-01-24 15:15:58:0Z</time></trkpt>
<trkpt lat="-72.2511" lon="48.1052"><ele>0</ele><time>-0.288636037512711-411.120394862107-3587.97890576089T-38.7057890245084:2009-01-24 15:16:03:0Z</time></trkpt>
<trkpt lat="-72.25116" lon="48.10525"><ele>0</ele><time>-0.510928651187949-411.099813154632-3595.10958412398T-33.7335613937211:2009-01-24 15:16:08:0Z</time></trkpt>
<trkpt lat="-72.2512" lon="48.10529"><ele>0</ele><time>-0.354013032177941-411.072463588392-3600.46249713373T-33.7335345062766:2009-01-24 15:16:12:0Z</time></trkpt>
<trkpt lat="-72.25125" lon="48.10534"><ele>0</ele><time>1.82477977522201-411.048776082716-3607.15363658988T-38.7057128659245:2009-01-24 15:16:17:0Z</time></trkpt>
<trkpt lat="-72.25131" lon="48.10539"><ele>0</ele><time>1.8495757478523-411.178895120743-3614.2843073587T-45.0470192089567:2009-01-24 15:16:23:0Z</time></trkpt>
<trkpt lat="-72.25137" lon="48.10543"><ele>0</ele><time>4.27140098952178-411.295432086043-3620.58504770065T-60.6823845705012:2009-01-24 15:16:28:0Z</time></trkpt>
<trkpt lat="-72.25145" lon="48.10546"><ele>0</ele><time>2.33287761530504-411.586681788901-3627.40364664682T-48.0595104820085:2009-01-24 15:16:33:0Z</time></trkpt>
<trkpt lat="-72.2515" lon="48.10549"><ele>0</ele><time>3.13749258000146-411.703218754201-3632.39906366036T-53.1751686048219:2009-01-24 15:16:37:0Z</time></trkpt>
<trkpt lat="-72.25158" lon="48.10553"><ele>0</ele><time>-5.14821379827157-411.936246329606-3639.82625494331T-57.3074606041274:2009-01-24 15:16:43:0Z</time></trkpt>
<trkpt lat="-72.25165" lon="48.10556"><ele>0</ele><time>-5.2651499600585-411.618017902084-3646.0075916164T-53.1751412788256:2009-01-24 15:16:48:0Z</time></trkpt>
<trkpt lat="-72.25171" lon="48.10559"><ele>0</ele><time>-0.582756242021811-411.324728570558-3651.57798056545T-48.0594384451055:2009-01-24 15:16:53:0Z</time></trkpt>
<trkpt lat="-72.25176" lon="48.10562"><ele>0</ele><time>1.99404478752696-411.295617506831-3656.57339058904T-57.3074149993753:2009-01-24 15:16:57:0Z</time></trkpt>
<trkpt lat="-72.25183" lon="48.10565"><ele>0</ele><time>2.31475110644169-411.418875975699-3662.75471959624T-69.4747457954674:2009-01-24 15:17:02:0Z</time></trkpt>
<trkpt lat="-72.25191" lon="48.10567"><ele>0</ele><time>2.38654063004187-411.565821950243-3669.10296041294T-79.3972899669066:2009-01-24 15:17:07:0Z</time></trkpt>
<trkpt lat="-72.25199" lon="48.10568"><ele>0</ele><time>2.31402208585462-411.710172033754-3675.151467683T-69.4747348262795:2009-01-24 15:17:13:0Z</time></trkpt>
<trkpt lat="-72.25207" lon="48.1057"><ele>0</ele><time>2.31402287553146-411.857071653101-3681.49970524931T-69.4747274995188:2009-01-24 15:17:18:0Z</time></trkpt>
<trkpt lat="-72.25215" lon="48.10572"><ele>0</ele><time>2.3805887975335-412.003971272448-3687.84794064924T-77.9244061710222:2009-01-24 15:17:22:0Z</time></trkpt>
<trkpt lat="-72.25222" lon="48.10573"><ele>0</ele><time>2.2832457377596-412.130613670698-3693.16773373493T-66.8352956906314:2009-01-24 15:17:27:0Z</time></trkpt>
<trkpt lat="-72.25229" lon="48.10575"><ele>0</ele><time>-2.60989752445663-412.259805604784-3698.8259917117T-60.6822322711222:2009-01-24 15:17:33:0Z</time></trkpt>
<trkpt lat="-72.25237" lon="48.10578"><ele>0</ele><time>-6.17902318973402-412.081848002021-3705.64455838321T-63.4723719254012:2009-01-24 15:17:38:0Z</time></trkpt>
<trkpt lat="-72.25243" lon="48.1058"><ele>0</ele><time>-5.06471716099456-411.773910429652-3710.6281547044T-69.4747076252623:2009-01-24 15:17:43:0Z</time></trkpt>
<trkpt lat="-72.25247" lon="48.10581"><ele>0</ele><time>3.13129451793443-411.613150606398-3713.80226725883T89.99999627811:2009-01-24 15:17:47:0Z</time></trkpt>
<trkpt lat="-72.25246" lon="48.10581"><ele>0</ele><time>3.13753215598095-411.6364209153-3714.54542025095T89.99999627811:2009-01-24 15:17:53:0Z</time></trkpt>
<trkpt lat="-72.25245" lon="48.10581"><ele>0</ele><time>-1.8326999840022-411.6597375794-3715.2885732432T00:2009-01-24 15:17:58:0Z</time></trkpt>
<trkpt lat="-72.25245" lon="48.10582"><ele>0</ele><time>-3.26302638850156-411.639341292712-3716.40148244089T-33.7332868577983:2009-01-24 15:18:03:0Z</time></trkpt>
<trkpt lat="-72.25246" lon="48.10583"><ele>0</ele><time>-1.83269998391537-411.595674697122-3717.73970623656T00:2009-01-24 15:18:13:0Z</time></trkpt>
<trkpt lat="-72.25246" lon="48.10584"><ele>0</ele><time>3.13129634504403-411.575278410435-3718.85261543425T89.9999962781078:2009-01-24 15:18:24:0Z</time></trkpt>
<trkpt lat="-72.25245" lon="48.10584"><ele>0</ele><time>-3.13129634774392-411.598548719337-3719.59576799274T-89.9999962781078:2009-01-24 15:18:36:0Z</time></trkpt>
<trkpt lat="-72.25246" lon="48.10584"><ele>0</ele><time>3.1375339871654-411.575278410435-3720.33892055058T89.9999962781078:2009-01-24 15:18:36:0Z</time></trkpt>
<trkpt lat="-72.25245" lon="48.10584"><ele>0</ele><time>1.82853475677129-411.598595074534-3721.08207310907T180:2009-01-24 15:18:36:0Z</time></trkpt>
<trkpt lat="-72.25245" lon="48.10583"><ele>0</ele><time>-3.48493287909353-411.618945006025-3722.19498230676T-75.9857440627648:2009-01-24 15:18:42:0Z</time></trkpt>
<trkpt lat="-72.25251" lon="48.10584"><ele>0</ele><time>-3.55373845751691-411.458787800331-3726.79068647813T-71.5930771287588:2009-01-24 15:18:47:0Z</time></trkpt>
<trkpt lat="-72.2526" lon="48.10586"><ele>0</ele><time>-3.62389047900964-411.208284315651-3733.83969944503T-63.4723362957565:2009-01-24 15:18:51:0Z</time></trkpt>
<trkpt lat="-72.25266" lon="48.10588"><ele>0</ele><time>-3.61075219497625-411.027684468073-3738.82328955692T-65.8072040071624:2009-01-24 15:18:55:0Z</time></trkpt>
<trkpt lat="-72.25276" lon="48.10591"><ele>0</ele><time>-3.62562004249404-410.733514387804-3746.97034768731T-56.3530408659549:2009-01-24 15:19:00:0Z</time></trkpt>
<trkpt lat="-72.25285" lon="48.10595"><ele>0</ele><time>-3.6312257398438-410.442218329749-3755.00472676292T-59.0774222719821:2009-01-24 15:19:06:0Z</time></trkpt>
<trkpt lat="-72.25295" lon="48.10599"><ele>0</ele><time>-7.74935890179686-410.127651962792-3763.66754173213T-49.4448311781132:2009-01-24 15:19:11:0Z</time></trkpt>
<trkpt lat="-72.25302" lon="48.10603"><ele>0</ele><time>-6.90708762492153-409.597070377736-3770.5143221146T-23.9971415329763:2009-01-24 15:19:16:0Z</time></trkpt>
<trkpt lat="-72.25306" lon="48.10609"><ele>0</ele><time>-5.62290299981771-409.092215927024-3777.82354530862T-12.5485779779312:2009-01-24 15:19:21:0Z</time></trkpt>
<trkpt lat="-72.25307" lon="48.10612"><ele>0</ele><time>-7.07928912037731-408.899888214601-3781.24397977867T-14.9546453339278:2009-01-24 15:19:25:0Z</time></trkpt>
<trkpt lat="-72.25309" lon="48.10617"><ele>0</ele><time>-7.97064660515684-408.492147901639-3787.00360205188T-23.9970972101008:2009-01-24 15:19:31:0Z</time></trkpt>
<trkpt lat="-72.25311" lon="48.1062"><ele>0</ele><time>-8.70604265257158-408.200851843585-3790.65821217931T-33.7330786144773:2009-01-24 15:19:36:0Z</time></trkpt>
<trkpt lat="-72.25314" lon="48.10623"><ele>0</ele><time>-9.24501066517915-407.851333658077-3794.67287417278T-45.0465677417068:2009-01-24 15:19:41:0Z</time></trkpt>
<trkpt lat="-72.25317" lon="48.10625"><ele>0</ele><time>-9.24648389977473-407.560083955219-3797.82321886578T-45.046556625883:2009-01-24 15:19:45:0Z</time></trkpt>
<trkpt lat="-72.2532" lon="48.10627"><ele>0</ele><time>-9.41194391989891-407.268787897165-3800.9735629448T-53.1747716605044:2009-01-24 15:19:50:0Z</time></trkpt>
<trkpt lat="-72.25324" lon="48.10629"><ele>0</ele><time>-9.12218423713758-406.919269713071-3804.68712293909T-41.6797505696878:2009-01-24 15:19:56:0Z</time></trkpt>
<trkpt lat="-72.25328" lon="48.10632"><ele>0</ele><time>-9.32974089406631-406.511483042084-3809.15739738637T-48.0590338722136:2009-01-24 15:20:01:0Z</time></trkpt>
<trkpt lat="-72.25333" lon="48.10635"><ele>0</ele><time>-6.54890774494579-406.04542789269-3814.15276815482T-14.9545814008109:2009-01-24 15:20:06:0Z</time></trkpt>
<trkpt lat="-72.25335" lon="48.1064"><ele>0</ele><time>-3.48976624100739-405.668235655978-3819.91238871144T00:2009-01-24 15:20:11:0Z</time></trkpt>
<trkpt lat="-72.25335" lon="48.10646"><ele>0</ele><time>-3.48993977086686-405.435208079159-3826.58984389685T00:2009-01-24 15:20:15:0Z</time></trkpt>
<trkpt lat="-72.25335" lon="48.10654"><ele>0</ele><time>-2.72951878404115-405.124489193554-3835.49311747764T5.44909246119771:2009-01-24 15:20:21:0Z</time></trkpt>
<trkpt lat="-72.25334" lon="48.10661"><ele>0</ele><time>-1.34809195162477-404.9108844457-3843.31884665389T14.9545091415586:2009-01-24 15:20:26:0Z</time></trkpt>
<trkpt lat="-72.25332" lon="48.10666"><ele>0</ele><time>-1.70286368116268-404.833239490696-3849.0784652697T12.5484359673459:2009-01-24 15:20:31:0Z</time></trkpt>
<trkpt lat="-72.2533" lon="48.10672"><ele>0</ele><time>-1.48134073367178-404.716748880593-3855.91933053635T14.0580309417016:2009-01-24 15:20:35:0Z</time></trkpt>
<trkpt lat="-72.25327" lon="48.1068"><ele>0</ele><time>-0.827701512630543-404.580789087742-3865.09748852259T18.462719782817:2009-01-24 15:20:41:0Z</time></trkpt>
<trkpt lat="-72.25326" lon="48.10682"><ele>0</ele><time>96552270.1829707-404.561366260192-3867.44408657196T00:2009-01-24 15:20:45:0Z</time></trkpt>
<trkpt lat="-72.25326" lon="48.10682"><ele>0</ele><time>-1.348897149496-404.561412615389-3867.44408657201T14.9544507747811:2009-01-24 15:20:45:0Z</time></trkpt>
<trkpt lat="-72.25324" lon="48.10687"><ele>0</ele><time>-0.0288632404958101-404.483721305188-3873.20370362139T26.6020312236821:2009-01-24 15:20:50:0Z</time></trkpt>
<trkpt lat="-72.25321" lon="48.10691"><ele>0</ele><time>-6.45425792102936-404.482284294081-3878.18239306271T-9.47731187116677:2009-01-24 15:20:54:0Z</time></trkpt>
<trkpt lat="-72.25322" lon="48.10695"><ele>0</ele><time>-6.45323096226602-404.190988236026-3882.69563163512T-9.47730462757947:2009-01-24 15:20:59:0Z</time></trkpt>
<trkpt lat="-72.25323" lon="48.10699"><ele>0</ele><time>-5.23569063600197-403.899738533169-3887.20887011302T00:2009-01-24 15:21:05:0Z</time></trkpt>
<trkpt lat="-72.25323" lon="48.10701"><ele>0</ele><time>-3.40572841154436-403.783201567868-3889.4346885084T12.5483604944663:2009-01-24 15:21:10:0Z</time></trkpt>
<trkpt lat="-72.25322" lon="48.10704"><ele>0</ele><time>-3.86651150910096-403.666710957764-3892.855120088T12.5483533967559:2009-01-24 15:21:15:0Z</time></trkpt>
<trkpt lat="-72.25321" lon="48.10707"><ele>0</ele><time>-7.93098914006212-403.534459580675-3896.27555157457T7.6067282481375:2009-01-24 15:21:19:0Z</time></trkpt>
<trkpt lat="-72.2532" lon="48.10712"><ele>0</ele><time>-7.93098927505755-403.089217913327-3901.88950034546T7.60672094530922:2009-01-24 15:21:24:0Z</time></trkpt>
<trkpt lat="-72.25319" lon="48.10717"><ele>0</ele><time>-6.73816681915058-402.643976245979-3907.50344902079T18.4625958758664:2009-01-24 15:21:30:0Z</time></trkpt>
<trkpt lat="-72.25318" lon="48.10719"><ele>0</ele><time>4.66595796888457-402.485858668954-3909.85004537658T-146.267405901852:2009-01-24 15:21:35:0Z</time></trkpt>
<trkpt lat="-72.25319" lon="48.10718"><ele>0</ele><time>8.59702902112042-402.548299119336-3911.18825825373T180:2009-01-24 15:21:45:0Z</time></trkpt>
<trkpt lat="-72.25319" lon="48.10717"><ele>0</ele><time>0-402.643976245979-3912.30116745071T00:2009-01-24 15:21:49:0Z</time></trkpt>
<trkpt lat="-72.25319" lon="48.10717"><ele>0</ele><time>-8.59702902112042-402.643976245979-3912.30116745089T00:2009-01-24 15:21:49:0Z</time></trkpt>
<trkpt lat="-72.25319" lon="48.10718"><ele>0</ele><time>0-402.548299119336-3913.41407664787T00:2009-01-24 15:21:54:0Z</time></trkpt>
<trkpt lat="-72.25319" lon="48.10718"><ele>0</ele><time>4.47874362247705-402.548299119336-3913.41407664805T89.9999962780241:2009-01-24 15:21:54:0Z</time></trkpt>
<trkpt lat="-72.25318" lon="48.10718"><ele>0</ele><time>0-402.58158214938-3914.15720983114T00:2009-01-24 15:21:58:0Z</time></trkpt>
<trkpt lat="-72.25318" lon="48.10718"><ele>0</ele><time>-4.66249390055226-402.58158214938-3914.15720983119T33.7325866541952:2009-01-24 15:21:58:0Z</time></trkpt>
<trkpt lat="-72.25317" lon="48.10719"><ele>0</ele><time>0-402.519188055609-3915.49542270828T00:2009-01-24 15:22:02:0Z</time></trkpt>
<trkpt lat="-72.25317" lon="48.10719"><ele>0</ele><time>4.47250687673806-402.519188055609-3915.49542270837T89.9999962780234:2009-01-24 15:22:02:0Z</time></trkpt>
<trkpt lat="-72.25316" lon="48.10719"><ele>0</ele><time>-9.64020932574979-402.552424731871-3916.23855574713T-33.7325815394406:2009-01-24 15:22:07:0Z</time></trkpt>
<trkpt lat="-72.25317" lon="48.1072"><ele>0</ele><time>54278434.3449808-402.423418217158-3917.57676854266T00:2009-01-24 15:22:12:0Z</time></trkpt>
<trkpt lat="-72.25317" lon="48.1072"><ele>0</ele><time>-8.60119411583007-402.423464572355-3917.57676854275T00:2009-01-24 15:22:12:0Z</time></trkpt>
<trkpt lat="-72.25317" lon="48.10721"><ele>0</ele><time>-4.47874642644965-402.327741091929-3918.68967774043T-89.999996278022:2009-01-24 15:22:16:0Z</time></trkpt>
<trkpt lat="-72.25318" lon="48.10721"><ele>0</ele><time>0-402.294458060471-3919.43281048984T00:2009-01-24 15:22:21:0Z</time></trkpt>
<trkpt lat="-72.25318" lon="48.10721"><ele>0</ele><time>-8.60119424835909-402.294458060471-3919.43281048989T00:2009-01-24 15:22:21:0Z</time></trkpt>
<trkpt lat="-72.25318" lon="48.10722"><ele>0</ele><time>-8.59702901018309-402.198734578631-3920.54571968687T00:2009-01-24 15:22:26:0Z</time></trkpt>
<trkpt lat="-72.25318" lon="48.10723"><ele>0</ele><time>4.47874816908668-402.103057451988-3921.65862888527T89.9999962780205:2009-01-24 15:22:30:0Z</time></trkpt>
<trkpt lat="-72.25317" lon="48.10723"><ele>0</ele><time>4.47874816827219-402.136340483446-3922.40176134553T89.9999962780205:2009-01-24 15:22:41:0Z</time></trkpt>
<trkpt lat="-72.25316" lon="48.10723"><ele>0</ele><time>0-402.169623514904-3923.14489380593T00:2009-01-24 15:22:46:0Z</time></trkpt>
<trkpt lat="-72.25316" lon="48.10723"><ele>0</ele><time>-4.47874817010845-402.169623514904-3923.14489380615T-89.9999962780205:2009-01-24 15:22:46:0Z</time></trkpt>
<trkpt lat="-72.25317" lon="48.10723"><ele>0</ele><time>8.60119423741135-402.136340483446-3923.88802626624T180:2009-01-24 15:22:51:0Z</time></trkpt>
<trkpt lat="-72.25317" lon="48.10722"><ele>0</ele><time>-54278455.466827-402.232063965286-3925.00093546464T00:2009-01-24 15:22:57:0Z</time></trkpt>
<trkpt lat="-72.25317" lon="48.10722"><ele>0</ele><time>8.60119424835909-402.232017610089-3925.00093546473T180:2009-01-24 15:22:57:0Z</time></trkpt>
<trkpt lat="-72.25317" lon="48.10721"><ele>0</ele><time>-4.47874642644965-402.327741091929-3926.1138446617T-89.999996278022:2009-01-24 15:23:04:0Z</time></trkpt>
<trkpt lat="-72.25318" lon="48.10721"><ele>0</ele><time>4.47874642622429-402.294458060471-3926.85697741111T89.999996278022:2009-01-24 15:23:05:0Z</time></trkpt>
<trkpt lat="-72.25317" lon="48.10721"><ele>0</ele><time>8.60119424288777-402.327741091929-3927.60011016056T180:2009-01-24 15:23:06:0Z</time></trkpt>
<trkpt lat="-72.25317" lon="48.1072"><ele>0</ele><time>-2.90610673978552-402.423464573769-3928.71301935825T45.0460270914861:2009-01-24 15:23:11:0Z</time></trkpt>
<trkpt lat="-72.25314" lon="48.10722"><ele>0</ele><time>-9.64021094741966-402.331913059661-3931.86333427458T-33.7325660605588:2009-01-24 15:23:17:0Z</time></trkpt>
<trkpt lat="-72.25315" lon="48.10723"><ele>0</ele><time>-8.60119424835909-402.202906546363-3933.20154683032T00:2009-01-24 15:23:21:0Z</time></trkpt>
<trkpt lat="-72.25315" lon="48.10724"><ele>0</ele><time>-8.59911162926721-402.107183064523-3934.3144560273T00:2009-01-24 15:23:25:0Z</time></trkpt>
<trkpt lat="-72.25315" lon="48.10728"><ele>0</ele><time>-8.59911163110671-401.724381847557-3938.76609281805T00:2009-01-24 15:23:31:0Z</time></trkpt>
<trkpt lat="-72.25315" lon="48.10734"><ele>0</ele><time>-8.59980583563087-401.150180022107-3945.44354800275T00:2009-01-24 15:23:36:0Z</time></trkpt>
<trkpt lat="-72.25315" lon="48.1074"><ele>0</ele><time>-7.92809352149989-400.575931841461-3952.12100318746T00:2009-01-24 15:23:41:0Z</time></trkpt>
<trkpt lat="-72.25315" lon="48.10745"><ele>0</ele><time>-7.26381264979588-400.134769431451-3957.68554917589T7.60667267598488:2009-01-24 15:23:45:0Z</time></trkpt>
<trkpt lat="-72.25314" lon="48.1075"><ele>0</ele><time>-6.81281522568593-399.726982763293-3963.29949721969T12.5482373780017:2009-01-24 15:23:51:0Z</time></trkpt>
<trkpt lat="-72.25312" lon="48.10756"><ele>0</ele><time>-7.09927527888537-399.260927612484-3970.14035720737T9.47719417307989:2009-01-24 15:23:56:0Z</time></trkpt>
<trkpt lat="-72.25311" lon="48.1076"><ele>0</ele><time>-6.9643587275287-398.940520492117-3974.653594232T18.4624448103998:2009-01-24 15:24:01:0Z</time></trkpt>
<trkpt lat="-72.25309" lon="48.10764"><ele>0</ele><time>-6.80342796359296-398.613669996536-3979.3467829141T21.8329922173637:2009-01-24 15:24:05:0Z</time></trkpt>
<trkpt lat="-72.25306" lon="48.10769"><ele>0</ele><time>-11.4138559394506-398.205836973181-3985.34130546269T-7.60663756017562:2009-01-24 15:24:10:0Z</time></trkpt>
<trkpt lat="-72.25307" lon="48.10774"><ele>0</ele><time>-13.0591854051499-397.565069083401-3990.95525304692T-33.7322731655683:2009-01-24 15:24:16:0Z</time></trkpt>
<trkpt lat="-72.25312" lon="48.10779"><ele>0</ele><time>-13.0317117104516-396.691273621046-3997.64629414364T-41.6789200840761:2009-01-24 15:24:21:0Z</time></trkpt>
<trkpt lat="-72.25316" lon="48.10782"><ele>0</ele><time>-13.0609225039024-396.108727860133-4002.116510903T-33.7322508654987:2009-01-24 15:24:26:0Z</time></trkpt>
<trkpt lat="-72.25318" lon="48.10784"><ele>0</ele><time>-12.4125849877306-395.759163319428-4004.79292629863T-18.4623644434252:2009-01-24 15:24:30:0Z</time></trkpt>
<trkpt lat="-72.2532" lon="48.10788"><ele>0</ele><time>-12.4096225792442-395.176617558516-4009.48611278225T-18.4623580974841:2009-01-24 15:24:36:0Z</time></trkpt>
<trkpt lat="-72.25321" lon="48.1079"><ele>0</ele><time>-12.8711948433933-394.885414210856-4011.83270588611T-26.601571480934:2009-01-24 15:24:41:0Z</time></trkpt>
<trkpt lat="-72.25324" lon="48.10794"><ele>0</ele><time>-12.8711968538608-394.244599967293-4016.81137532092T-26.6015536157556:2009-01-24 15:24:46:0Z</time></trkpt>
<trkpt lat="-72.25327" lon="48.10798"><ele>0</ele><time>-10.4672160480971-393.603785723731-4021.79004397806T00:2009-01-24 15:24:51:0Z</time></trkpt>
<trkpt lat="-72.25327" lon="48.108"><ele>0</ele><time>-11.6174655172247-393.370804503523-4024.01586237273T-9.47711452049791:2009-01-24 15:24:55:0Z</time></trkpt>
<trkpt lat="-72.25328" lon="48.10804"><ele>0</ele><time>-7.81208065148338-392.846480870065-4028.52909835075T9.47710727973721:2009-01-24 15:25:00:0Z</time></trkpt>
<trkpt lat="-72.25327" lon="48.10808"><ele>0</ele><time>-4.45892620031106-392.493903242968-4033.0423342328T26.6014911255355:2009-01-24 15:25:06:0Z</time></trkpt>
<trkpt lat="-72.25324" lon="48.10812"><ele>0</ele><time>-21.717738316968-392.271908203039-4038.02100017065T-23.9962895332323:2009-01-24 15:25:11:0Z</time></trkpt>
<trkpt lat="-72.25326" lon="48.10815"><ele>0</ele><time>-22.021384361932-391.478214519715-4041.6755873645T-12.5480909746386:2009-01-24 15:25:16:0Z</time></trkpt>
<trkpt lat="-72.25327" lon="48.10818"><ele>0</ele><time>-33.7368933907122-390.724988923386-4045.0960153628T-33.7320592182349:2009-01-24 15:25:20:0Z</time></trkpt>
<trkpt lat="-72.2533" lon="48.10821"><ele>0</ele><time>-29.7884470078208-389.370582776944-4049.11062966281T-18.462247607452:2009-01-24 15:25:25:0Z</time></trkpt>
<trkpt lat="-72.25331" lon="48.10823"><ele>0</ele><time>-5329995.42256361-388.671569583527-4051.45722125663T00:2009-01-24 15:25:31:0Z</time></trkpt>
<trkpt lat="-72.25331" lon="48.10823"><ele>0</ele><time>-12.4125944646514-388.671546405929-4051.45722125707T18.462233829611:2009-01-24 15:25:31:0Z</time></trkpt>
<trkpt lat="-72.25329" lon="48.10827"><ele>0</ele><time>-7.60550538545926-388.089000643602-4056.15040416887T26.6014063242679:2009-01-24 15:25:37:0Z</time></trkpt>
<trkpt lat="-72.25326" lon="48.10831"><ele>0</ele><time>-3.26422999649455-387.710348218183-4061.12906641718T33.7319922981806:2009-01-24 15:25:42:0Z</time></trkpt>
<trkpt lat="-72.25323" lon="48.10834"><ele>0</ele><time>-22.2485612825003-387.579302076216-4065.14367758453T00:2009-01-24 15:25:47:0Z</time></trkpt>
<trkpt lat="-72.25323" lon="48.10835"><ele>0</ele><time>-22.2457844690633-387.33169579135-4066.25658678221T00:2009-01-24 15:25:51:0Z</time></trkpt>
<trkpt lat="-72.25323" lon="48.10838"><ele>0</ele><time>-15.7540548021383-386.588969647146-4069.59531437457T12.5480365920282:2009-01-24 15:25:56:0Z</time></trkpt>
<trkpt lat="-72.25322" lon="48.10841"><ele>0</ele><time>-3.26538658198504-386.050113659422-4073.01574165181T33.731940801203:2009-01-24 15:26:02:0Z</time></trkpt>
<trkpt lat="-72.25319" lon="48.10844"><ele>0</ele><time>-21.2960975810597-385.919021163673-4077.03035041122T18.462163520234:2009-01-24 15:26:07:0Z</time></trkpt>
<trkpt lat="-72.25317" lon="48.10848"><ele>0</ele><time>-12.6089235913072-384.91955676079-4081.72353139933T33.7319110511686:2009-01-24 15:26:12:0Z</time></trkpt>
<trkpt lat="-72.25315" lon="48.1085"><ele>0</ele><time>-13.9304369665922-384.582090925092-4084.39993619514T33.7319070691321:2009-01-24 15:26:16:0Z</time></trkpt>
<trkpt lat="-72.25314" lon="48.10851"><ele>0</ele><time>-13.9295722230047-384.395673500288-4085.73813847301T33.7318956241862:2009-01-24 15:26:22:0Z</time></trkpt>
<trkpt lat="-72.25312" lon="48.10853"><ele>0</ele><time>-13.9304394894368-384.022861828279-4088.4145427878T33.7318916025756:2009-01-24 15:26:27:0Z</time></trkpt>
<trkpt lat="-72.25311" lon="48.10854"><ele>0</ele><time>-20.4030575797501-383.836444403476-4089.75274482331T23.9961155904061:2009-01-24 15:26:31:0Z</time></trkpt>
<trkpt lat="-72.25309" lon="48.10857"><ele>0</ele><time>-13.929866324791-383.090797881859-4093.40732707748T33.7318584236921:2009-01-24 15:26:36:0Z</time></trkpt>
<trkpt lat="-72.25306" lon="48.1086"><ele>0</ele><time>-13.9313117416746-382.531568785047-4097.42193198303T33.7318492867692:2009-01-24 15:26:42:0Z</time></trkpt>
<trkpt lat="-72.25304" lon="48.10862"><ele>0</ele><time>-13.9292931765579-382.158710757841-4100.09833485248T33.7318326918691:2009-01-24 15:26:47:0Z</time></trkpt>
<trkpt lat="-72.25301" lon="48.10865"><ele>0</ele><time>7.48157481448177-381.599504838626-4104.11293855223T63.4711067517451:2009-01-24 15:26:52:0Z</time></trkpt>
<trkpt lat="-72.25298" lon="48.10866"><ele>0</ele><time>-2.82928469554351-381.78592226343-4106.60462552224T53.1734933327777:2009-01-24 15:26:56:0Z</time></trkpt>
<trkpt lat="-72.25294" lon="48.10868"><ele>0</ele><time>-11.0770916186152-381.680858209391-4110.3180748688T41.6784272978593:2009-01-24 15:27:01:0Z</time></trkpt>
<trkpt lat="-72.2529" lon="48.10871"><ele>0</ele><time>-9.24596981374765-381.185691994856-4114.78825740031T45.0451853956633:2009-01-24 15:27:07:0Z</time></trkpt>
<trkpt lat="-72.25287" lon="48.10873"><ele>0</ele><time>-7.58026317576092-380.8944191144-4117.93852596406T48.057698175464:2009-01-24 15:27:12:0Z</time></trkpt>
<trkpt lat="-72.25282" lon="48.10876"><ele>0</ele><time>4.58812360770801-380.515766687567-4122.93376713252T69.4736240531389:2009-01-24 15:27:17:0Z</time></trkpt>
<trkpt lat="-72.25278" lon="48.10877"><ele>0</ele><time>-4.70611865452963-380.661391538996-4126.10771935962T53.1734344854777:2009-01-24 15:27:21:0Z</time></trkpt>
<trkpt lat="-72.25274" lon="48.10879"><ele>0</ele><time>-1.34530967303866-380.486632446242-4129.82116361342T59.0760500664247:2009-01-24 15:27:27:0Z</time></trkpt>
<trkpt lat="-72.25269" lon="48.10881"><ele>0</ele><time>-15.2329256549002-380.428363963591-4134.15239558319T33.7317474620677:2009-01-24 15:27:32:0Z</time></trkpt>
<trkpt lat="-72.25268" lon="48.10882"><ele>0</ele><time>15.6698653725072-380.224516984709-4135.4905953716T89.999996277932:2009-01-24 15:27:37:0Z</time></trkpt>
<trkpt lat="-72.25267" lon="48.10882"><ele>0</ele><time>15.6823417802875-380.340961238201-4136.23370484142T89.999996277932:2009-01-24 15:27:41:0Z</time></trkpt>
<trkpt lat="-72.25266" lon="48.10882"><ele>0</ele><time>-15.6761035817915-380.457498204916-4136.97681431033T-89.999996277932:2009-01-24 15:27:46:0Z</time></trkpt>
<trkpt lat="-72.25267" lon="48.10882"><ele>0</ele><time>-20577514.5494968-380.341007594813-4137.71992377943T00:2009-01-24 15:27:52:0Z</time></trkpt>
<trkpt lat="-72.25267" lon="48.10882"><ele>0</ele><time>32.648169265387-380.340984417214-4137.71992377954T146.268245131394:2009-01-24 15:27:52:0Z</time></trkpt>
<trkpt lat="-72.25266" lon="48.10881"><ele>0</ele><time>-15.6792195328908-380.777882149099-4139.05812356751T-89.9999962779327:2009-01-24 15:27:57:0Z</time></trkpt>
<trkpt lat="-72.25267" lon="48.10881"><ele>0</ele><time>28.792133289017-380.661368361397-4139.80123318121T180:2009-01-24 15:28:08:0Z</time></trkpt>
<trkpt lat="-72.25267" lon="48.1088"><ele>0</ele><time>-20576250.2247057-380.981798660777-4140.91414237819T00:2009-01-24 15:28:13:0Z</time></trkpt>
<trkpt lat="-72.25267" lon="48.1088"><ele>0</ele><time>-28.7879681888412-380.981775484593-4140.9141423783T00:2009-01-24 15:28:13:0Z</time></trkpt>
<trkpt lat="-72.25267" lon="48.10881"><ele>0</ele><time>0-380.661391538996-4142.02705157528T00:2009-01-24 15:28:18:0Z</time></trkpt>
<trkpt lat="-72.25267" lon="48.10881"><ele>0</ele><time>15.6761005357955-380.661391538996-4142.0270515754T89.9999962779327:2009-01-24 15:28:18:0Z</time></trkpt>
<trkpt lat="-72.25266" lon="48.10881"><ele>0</ele><time>28.7879680617835-380.777882149099-4142.77016118889T180:2009-01-24 15:28:23:0Z</time></trkpt>
<trkpt lat="-72.25266" lon="48.1088"><ele>0</ele><time>-15.6760974814006-381.098266093282-4143.88307038587T-89.9999962779334:2009-01-24 15:28:34:0Z</time></trkpt>
<trkpt lat="-72.25267" lon="48.1088"><ele>0</ele><time>-15.6760974585031-380.981775483178-4144.62618014417T-89.9999962779335:2009-01-24 15:28:39:0Z</time></trkpt>
<trkpt lat="-72.25268" lon="48.1088"><ele>0</ele><time>-15.6792164564276-380.865284873075-4145.36928990354T-89.9999962779335:2009-01-24 15:28:43:0Z</time></trkpt>
<trkpt lat="-72.25269" lon="48.1088"><ele>0</ele><time>15.2346558202145-380.748771085373-4146.11239966305T-146.268234796523:2009-01-24 15:28:49:0Z</time></trkpt>
<trkpt lat="-72.2527" lon="48.10879"><ele>0</ele><time>-28.7879680525813-380.952641241853-4147.45059961246T00:2009-01-24 15:28:54:0Z</time></trkpt>
<trkpt lat="-72.2527" lon="48.10881"><ele>0</ele><time>-18.0066017162064-380.311873353488-4149.67641800713T28.1099687442822:2009-01-24 15:28:59:0Z</time></trkpt>
<trkpt lat="-72.25266" lon="48.10886"><ele>0</ele><time>-12.7474310051892-379.17589289539-4155.98510676474T39.8499266905603:2009-01-24 15:29:04:0Z</time></trkpt>
<trkpt lat="-72.25261" lon="48.1089"><ele>0</ele><time>-14.7926962019616-378.436736101356-4161.78358328705T45.0450794882163:2009-01-24 15:29:09:0Z</time></trkpt>
<trkpt lat="-72.25258" lon="48.10892"><ele>0</ele><time>-21.7000007522045-377.970727305744-4164.93384601976T28.1099177783977:2009-01-24 15:29:13:0Z</time></trkpt>
<trkpt lat="-72.25254" lon="48.10897"><ele>0</ele><time>-19.5883441671129-376.601742448426-4171.2425317795T33.7316524839348:2009-01-24 15:29:19:0Z</time></trkpt>
<trkpt lat="-72.25251" lon="48.109"><ele>0</ele><time>-27.1060644155556-375.815349710047-4175.25712704937T9.47693346451416:2009-01-24 15:29:24:0Z</time></trkpt>
<trkpt lat="-72.2525" lon="48.10904"><ele>0</ele><time>-28.7886622056153-374.591989704157-4179.77036064586T00:2009-01-24 15:29:29:0Z</time></trkpt>
<trkpt lat="-72.2525" lon="48.10907"><ele>0</ele><time>-23.5441627023907-373.630814695425-4183.10908823892T-18.4619596109112:2009-01-24 15:29:34:0Z</time></trkpt>
<trkpt lat="-72.25251" lon="48.10909"><ele>0</ele><time>-18.320231351137-373.078330279778-4185.45567589477T00:2009-01-24 15:29:38:0Z</time></trkpt>
<trkpt lat="-72.25251" lon="48.10913"><ele>0</ele><time>-36.3253632501915-372.26278012106-4189.9073126841T00:2009-01-24 15:29:44:0Z</time></trkpt>
<trkpt lat="-72.25251" lon="48.10918"><ele>0</ele><time>-29.7909732669155-370.241438577537-4195.47185867254T18.4619157056054:2009-01-24 15:29:49:0Z</time></trkpt>
<trkpt lat="-72.25249" lon="48.10922"><ele>0</ele><time>-21.8791050808972-368.84329630271-4200.1650328844T12.5478379795417:2009-01-24 15:29:54:0Z</time></trkpt>
<trkpt lat="-72.25248" lon="48.10925"><ele>0</ele><time>-18.5208039056815-368.094938002068-4203.58545752186T12.5478309039774:2009-01-24 15:29:58:0Z</time></trkpt>
<trkpt lat="-72.25247" lon="48.10928"><ele>0</ele><time>-23.5543600248113-367.461447879634-4207.00588206531T00:2009-01-24 15:30:03:0Z</time></trkpt>
<trkpt lat="-72.25247" lon="48.10932"><ele>0</ele><time>-23.5557484351614-366.412893323111-4211.45751885535T00:2009-01-24 15:30:08:0Z</time></trkpt>
<trkpt lat="-72.25247" lon="48.10935"><ele>0</ele><time>-26.6212804547672-365.626431050521-4214.7962464477T-9.47687009368581:2009-01-24 15:30:14:0Z</time></trkpt>
<trkpt lat="-72.25248" lon="48.10939"><ele>0</ele><time>-15.8251797783176-364.424950699038-4219.30947921096T18.4618524481724:2009-01-24 15:30:19:0Z</time></trkpt>
<trkpt lat="-72.25247" lon="48.10941"><ele>0</ele><time>-8.1620724320434-364.053599215735-4221.65606540148T33.7314196424577:2009-01-24 15:30:23:0Z</time></trkpt>
<trkpt lat="-72.25243" lon="48.10945"><ele>0</ele><time>7.89049535590698-363.61670148385-4227.00884480306T63.4707369512177:2009-01-24 15:30:28:0Z</time></trkpt>
<trkpt lat="-72.25237" lon="48.10947"><ele>0</ele><time>5.5482523885491-364.009909442547-4231.99215625515T59.0757158426684:2009-01-24 15:30:33:0Z</time></trkpt>
<trkpt lat="-72.25232" lon="48.10949"><ele>0</ele><time>5.54771884587663-364.250214783883-4236.32334605163T59.0757060206724:2009-01-24 15:30:39:0Z</time></trkpt>
<trkpt lat="-72.25227" lon="48.10951"><ele>0</ele><time>5.54772043361412-364.49049694762-4240.65453460701T59.0756961826042:2009-01-24 15:30:44:0Z</time></trkpt>
<trkpt lat="-72.25222" lon="48.10953"><ele>0</ele><time>7.88910931622168-364.730779111357-4244.98572192281T63.4707146894954:2009-01-24 15:30:49:0Z</time></trkpt>
<trkpt lat="-72.25219" lon="48.10954"><ele>0</ele><time>-3.90895021012972-364.927348325723-4247.47737473794T41.6779511264182:2009-01-24 15:30:53:0Z</time></trkpt>
<trkpt lat="-72.25215" lon="48.10957"><ele>0</ele><time>-3.90946968500177-364.752612409152-4251.94752419439T41.6779345153324:2009-01-24 15:30:58:0Z</time></trkpt>
<trkpt lat="-72.25211" lon="48.1096"><ele>0</ele><time>-11.2083925794454-364.577853316398-4256.41767249671T33.7313281097533:2009-01-24 15:31:04:0Z</time></trkpt>
<trkpt lat="-72.25208" lon="48.10963"><ele>0</ele><time>-18.2045956381245-364.127883418955-4260.43225259153T18.4617650074326:2009-01-24 15:31:09:0Z</time></trkpt>
<trkpt lat="-72.25206" lon="48.10967"><ele>0</ele><time>-15.2106283439558-363.27351078132-4265.1254226823T26.6007814007598:2009-01-24 15:31:14:0Z</time></trkpt>
<trkpt lat="-72.25203" lon="48.10971"><ele>0</ele><time>-23.5543600210591-362.516229106667-4270.10405773622T00:2009-01-24 15:31:19:0Z</time></trkpt>
<trkpt lat="-72.25203" lon="48.10974"><ele>0</ele><time>-23.5554013353881-361.729813189275-4273.44278532928T00:2009-01-24 15:31:23:0Z</time></trkpt>
<trkpt lat="-72.25203" lon="48.10978"><ele>0</ele><time>-26.9444094880331-360.681212277554-4277.89442211861T-18.4617147621835:2009-01-24 15:31:28:0Z</time></trkpt>
<trkpt lat="-72.25205" lon="48.10982"><ele>0</ele><time>-33.1294773948517-359.41666568053-4282.58759083543T-9.47678499513584:2009-01-24 15:31:34:0Z</time></trkpt>
<trkpt lat="-72.25206" lon="48.10986"><ele>0</ele><time>-32.8593454482146-357.921455623149-4287.10082247974T-7.60632015575738:2009-01-24 15:31:39:0Z</time></trkpt>
<trkpt lat="-72.25207" lon="48.10991"><ele>0</ele><time>-31.4068546732527-356.076750557859-4292.71476591084T00:2009-01-24 15:31:44:0Z</time></trkpt>
<trkpt lat="-72.25207" lon="48.10995"><ele>0</ele><time>-26.9716137169921-354.67863146063-4297.16640270088T14.9535808425847:2009-01-24 15:31:48:0Z</time></trkpt>
<trkpt lat="-72.25205" lon="48.11"><ele>0</ele><time>-18.8637636257437-353.125176098198-4302.92599639346T33.7311158693174:2009-01-24 15:31:54:0Z</time></trkpt>
<trkpt lat="-72.25201" lon="48.11004"><ele>0</ele><time>-11.27288311918-352.115444019176-4308.27875684495T48.0569720732868:2009-01-24 15:31:59:0Z</time></trkpt>
<trkpt lat="-72.25196" lon="48.11007"><ele>0</ele><time>-4.93128710452752-351.552344261997-4313.2739275677T59.0754209380756:2009-01-24 15:32:04:0Z</time></trkpt>
<trkpt lat="-72.25191" lon="48.11009"><ele>0</ele><time>-8.36754229540428-351.338762693156-4317.60508015148T53.1727182859841:2009-01-24 15:32:08:0Z</time></trkpt>
<trkpt lat="-72.25185" lon="48.11012"><ele>0</ele><time>3.504829900571-350.872684364749-4323.17515451684T73.3251690737185:2009-01-24 15:32:13:0Z</time></trkpt>
<trkpt lat="-72.2518" lon="48.11013"><ele>0</ele><time>5.07095149564949-351.008620980002-4327.05370551958T75.9846176898965:2009-01-24 15:32:19:0Z</time></trkpt>
<trkpt lat="-72.25174" lon="48.11014"><ele>0</ele><time>7.0632669694943-351.241648555406-4331.64904774685T79.3963886708134:2009-01-24 15:32:24:0Z</time></trkpt>
<trkpt lat="-72.25166" lon="48.11015"><ele>0</ele><time>8.21771913973341-351.668834873516-4337.69704678122T80.5520326546524:2009-01-24 15:32:29:0Z</time></trkpt>
<trkpt lat="-72.25157" lon="48.11016"><ele>0</ele><time>15.6787402326791-352.225977986463-4344.4768247643T89.9999739449513:2009-01-24 15:32:34:0Z</time></trkpt>
<trkpt lat="-72.2515" lon="48.11016"><ele>0</ele><time>8.76106393781956-353.041528145181-4349.67845542222T77.9233935353289:2009-01-24 15:32:38:0Z</time></trkpt>
<trkpt lat="-72.25143" lon="48.11017"><ele>0</ele><time>8.76150129004626-353.507560118391-4354.99780905914T77.9233912394225:2009-01-24 15:32:44:0Z</time></trkpt>
<trkpt lat="-72.25136" lon="48.11018"><ele>0</ele><time>-6.27493557007951-353.973615269199-4360.31716170636T53.1726701490607:2009-01-24 15:32:49:0Z</time></trkpt>
<trkpt lat="-72.2513" lon="48.11021"><ele>0</ele><time>3.66857380058955-353.624097083691-4365.88722982267T73.3251414821928:2009-01-24 15:32:54:0Z</time></trkpt>
<trkpt lat="-72.25125" lon="48.11022"><ele>0</ele><time>-4.7825293337414-353.766384360935-4369.76577459179T59.0753472187356:2009-01-24 15:32:58:0Z</time></trkpt>
<trkpt lat="-72.2512" lon="48.11024"><ele>0</ele><time>-2.33810835660319-353.559246163064-4374.09691787218T63.4703849648192:2009-01-24 15:33:03:0Z</time></trkpt>
<trkpt lat="-72.25114" lon="48.11026"><ele>0</ele><time>-8.01802743353079-353.442732375362-4379.08016800141T53.1726273489262:2009-01-24 15:33:09:0Z</time></trkpt>
<trkpt lat="-72.25108" lon="48.11029"><ele>0</ele><time>-9.00265294137852-352.996123231117-4384.6502305629T57.3050483756554:2009-01-24 15:33:14:0Z</time></trkpt>
<trkpt lat="-72.25101" lon="48.11032"><ele>0</ele><time>-11.5039985573144-352.439675444711-4390.83116178427T53.1726053775603:2009-01-24 15:33:19:0Z</time></trkpt>
<trkpt lat="-72.25097" lon="48.11034"><ele>0</ele><time>-8.51834315112078-352.012489126601-4394.54453427804T59.0752882284552:2009-01-24 15:33:23:0Z</time></trkpt>
<trkpt lat="-72.25092" lon="48.11036"><ele>0</ele><time>-8.51834559389863-351.643548113543-4398.87567011646T59.0752783989053:2009-01-24 15:33:29:0Z</time></trkpt>
<trkpt lat="-72.25087" lon="48.11038"><ele>0</ele><time>-13.994759064472-351.274607100485-4403.20680471286T48.0567836150733:2009-01-24 15:33:34:0Z</time></trkpt>
<trkpt lat="-72.25082" lon="48.11041"><ele>0</ele><time>-14.1543802641712-350.575547551871-4408.20195715095T48.0567669923362:2009-01-24 15:33:38:0Z</time></trkpt>
<trkpt lat="-72.25077" lon="48.11044"><ele>0</ele><time>-15.688221999852-349.868514909369-4413.19710797568T53.172531067049:2009-01-24 15:33:43:0Z</time></trkpt>
<trkpt lat="-72.25071" lon="48.11047"><ele>0</ele><time>-17.4933497775339-348.994673090403-4418.767158036T48.0567337286777:2009-01-24 15:33:49:0Z</time></trkpt>
<trkpt lat="-72.25066" lon="48.1105"><ele>0</ele><time>-12.9186643354398-348.120854449034-4423.76230563484T57.304941942627:2009-01-24 15:33:54:0Z</time></trkpt>
<trkpt lat="-72.25059" lon="48.11053"><ele>0</ele><time>-12.1054130369705-347.322363002818-4429.94321896677T59.0751948392531:2009-01-24 15:33:59:0Z</time></trkpt>
<trkpt lat="-72.25054" lon="48.11055"><ele>0</ele><time>-15.7436107587277-346.798062546958-4434.2743430206T48.0566893911152:2009-01-24 15:34:03:0Z</time></trkpt>
<trkpt lat="-72.25049" lon="48.11058"><ele>0</ele><time>-14.1190915539628-346.011646629565-4439.26948631679T53.1724561702983:2009-01-24 15:34:08:0Z</time></trkpt>
<trkpt lat="-72.25043" lon="48.11061"><ele>0</ele><time>-12.1054269086185-345.225207534574-4444.83952665533T59.0751555181043:2009-01-24 15:34:14:0Z</time></trkpt>
<trkpt lat="-72.25038" lon="48.11063"><ele>0</ele><time>-10.5208538509334-344.700907078714-4449.17064574612T63.4702112026812:2009-01-24 15:34:19:0Z</time></trkpt>
<trkpt lat="-72.25032" lon="48.11065"><ele>0</ele><time>-12.1054338385953-344.176629800452-4454.15386560346T59.0751358561907:2009-01-24 15:34:23:0Z</time></trkpt>
<trkpt lat="-72.25027" lon="48.11067"><ele>0</ele><time>-5.70449858091332-343.652329344591-4458.48498221482T75.9844762301625:2009-01-24 15:34:28:0Z</time></trkpt>
<trkpt lat="-72.25021" lon="48.11068"><ele>0</ele><time>-9.26686522583619-343.39019070546-4463.08027898653T66.8332998035221:2009-01-24 15:34:33:0Z</time></trkpt>
<trkpt lat="-72.25014" lon="48.1107"><ele>0</ele><time>-9.26686827340621-342.8658902496-4468.73807634392T66.8332917492054:2009-01-24 15:34:39:0Z</time></trkpt>
<trkpt lat="-72.25007" lon="48.11072"><ele>0</ele><time>-5.80823589901927-342.34158979374-4474.39587184064T77.9232657976916:2009-01-24 15:34:44:0Z</time></trkpt>
<trkpt lat="-72.25" lon="48.11073"><ele>0</ele><time>-1.42543684687396-342.032632405622-4479.71517004908T89.9999813890856:2009-01-24 15:34:49:0Z</time></trkpt>
<trkpt lat="-72.24995" lon="48.11073"><ele>0</ele><time>-1.42543684679007-341.97967159303-4483.43057930822T89.9999702225359:2009-01-24 15:34:53:0Z</time></trkpt>
<trkpt lat="-72.24987" lon="48.11073"><ele>0</ele><time>-13.5378101442179-341.894934292883-4489.37523412318T57.3048253715175:2009-01-24 15:34:58:0Z</time></trkpt>
<trkpt lat="-72.2498" lon="48.11076"><ele>0</ele><time>-19.7870156896748-341.058176632944-4495.55612786467T33.7307245556016:2009-01-24 15:35:04:0Z</time></trkpt>
<trkpt lat="-72.24976" lon="48.1108"><ele>0</ele><time>-21.0616433096956-339.999029912487-4500.90886390667T26.6002769854233:2009-01-24 15:35:09:0Z</time></trkpt>
<trkpt lat="-72.24973" lon="48.11084"><ele>0</ele><time>-20.818432908708-338.950452178365-4505.88747701251T28.109028173129:2009-01-24 15:35:13:0Z</time></trkpt>
<trkpt lat="-72.24969" lon="48.11089"><ele>0</ele><time>-20.8188047974293-337.637093558882-4512.19611044925T28.1090050026597:2009-01-24 15:35:18:0Z</time></trkpt>
<trkpt lat="-72.24965" lon="48.11094"><ele>0</ele><time>-19.7872974305626-336.3237117618-4518.50474252425T33.730625579202:2009-01-24 15:35:24:0Z</time></trkpt>
<trkpt lat="-72.2496" lon="48.11099"><ele>0</ele><time>-21.0616589252866-334.999760979799-4525.19565514962T26.6001921751749:2009-01-24 15:35:29:0Z</time></trkpt>
<trkpt lat="-72.24957" lon="48.11103"><ele>0</ele><time>-19.7871914579184-333.951183245676-4530.17426456421T33.7305918361442:2009-01-24 15:35:34:0Z</time></trkpt>
<trkpt lat="-72.24954" lon="48.11106"><ele>0</ele><time>-17.2761485082542-333.156817411995-4534.18881021294T39.8487200586197:2009-01-24 15:35:38:0Z</time></trkpt>
<trkpt lat="-72.24949" lon="48.1111"><ele>0</ele><time>-14.148024324634-332.155081604459-4539.98718481627T33.7305494915369:2009-01-24 15:35:44:0Z</time></trkpt>
<trkpt lat="-72.24945" lon="48.11114"><ele>0</ele><time>-12.3808459319191-331.397776752207-4545.33990993799T41.677065172993:2009-01-24 15:35:49:0Z</time></trkpt>
<trkpt lat="-72.24941" lon="48.11117"><ele>0</ele><time>-14.1475972880499-330.844342053607-4549.80999785964T33.7305134529391:2009-01-24 15:35:54:0Z</time></trkpt>
<trkpt lat="-72.24937" lon="48.11121"><ele>0</ele><time>-17.9673089666125-330.087060377539-4555.16272073299T73.3248350024118:2009-01-24 15:35:59:0Z</time></trkpt>
<trkpt lat="-72.24932" lon="48.11122"><ele>0</ele><time>-26.2274945615007-329.390202699369-4559.04119624352T59.0748556904055:2009-01-24 15:36:03:0Z</time></trkpt>
<trkpt lat="-72.24927" lon="48.11124"><ele>0</ele><time>-24.8764104791502-328.254268597883-4563.37227750186T53.1721132232939:2009-01-24 15:36:08:0Z</time></trkpt>
<trkpt lat="-72.24923" lon="48.11126"><ele>0</ele><time>-20.7834684963403-327.330525409327-4567.08560740261T59.0748360288193:2009-01-24 15:36:14:0Z</time></trkpt>
<trkpt lat="-72.24918" lon="48.11128"><ele>0</ele><time>-15.2360390372442-326.430377016053-4571.41668618011T33.7304630992657:2009-01-24 15:36:19:0Z</time></trkpt>
<trkpt lat="-72.24915" lon="48.11131"><ele>0</ele><time>-12.4627878119507-325.818720191414-4575.43122580648T41.6769710504124:2009-01-24 15:36:24:0Z</time></trkpt>
<trkpt lat="-72.24911" lon="48.11134"><ele>0</ele><time>-4.88777403599581-325.261623433664-4579.9013071892T33.7304259159132:2009-01-24 15:36:28:0Z</time></trkpt>
<trkpt lat="-72.24907" lon="48.11138"><ele>0</ele><time>-2.24296837083591E-08-324.999994701701-4585.25402460282T28.1087779602877:2009-01-24 15:36:34:0Z</time></trkpt>
<trkpt lat="-72.24903" lon="48.11143"><ele>0</ele><time>-0.000346384019568461-324.999994700286-4591.56264332478T33.7303732757841:2009-01-24 15:36:39:0Z</time></trkpt>
<trkpt lat="-72.24898" lon="48.11148"><ele>0</ele><time>0.000367876998011748-324.999971524102-4598.25353627865T45.0436245022395:2009-01-24 15:36:44:0Z</time></trkpt>
<trkpt lat="-72.24892" lon="48.11152"><ele>0</ele><time>0.000518505993217955-324.999994701701-4604.55390272916T41.6768547596766:2009-01-24 15:36:49:0Z</time></trkpt>
<trkpt lat="-72.24888" lon="48.11155"><ele>0</ele><time>-0.000325056278811921-325.000017879299-4609.02397603568T38.7023345154808:2009-01-24 15:36:53:0Z</time></trkpt>
<trkpt lat="-72.24882" lon="48.1116"><ele>0</ele><time>-0.000399727519263046-324.999994701701-4616.15430992132T39.8484238724931:2009-01-24 15:36:58:0Z</time></trkpt>
<trkpt lat="-72.24877" lon="48.11164"><ele>0</ele><time>0.000317087079578306-324.999971524102-4621.9526595082T23.9948178640983:2009-01-24 15:37:04:0Z</time></trkpt>
<trkpt lat="-72.24873" lon="48.1117"><ele>0</ele><time>-0.000399703435061575-324.999994700286-4629.26175074884T39.8483690226539:2009-01-24 15:37:09:0Z</time></trkpt>
<trkpt lat="-72.24868" lon="48.11174"><ele>0</ele><time>0.000433007252153861-324.999971524102-4635.06009570303T33.7302199505083:2009-01-24 15:37:14:0Z</time></trkpt>
<trkpt lat="-72.24864" lon="48.11178"><ele>0</ele><time>0.000367396399549383-324.999994701701-4640.41280027012T28.1085926206005:2009-01-24 15:37:18:0Z</time></trkpt>
<trkpt lat="-72.2486" lon="48.11183"><ele>0</ele><time>-0.000386650632431676-325.000017879299-4646.72140809098T21.8313795587409:2009-01-24 15:37:24:0Z</time></trkpt>
<trkpt lat="-72.24857" lon="48.11188"><ele>0</ele><time>0-324.999994701701-4652.71586304629T39.8482702925065:2009-01-24 15:37:29:0Z</time></trkpt>
<trkpt lat="-72.24852" lon="48.11192"><ele>0</ele><time>0-324.999994701701-4658.51419966147T26.5997770243647:2009-01-24 15:37:34:0Z</time></trkpt>
<trkpt lat="-72.24849" lon="48.11196"><ele>0</ele><time>0-324.999994701701-4663.49279101228T39.848226412263:2009-01-24 15:37:38:0Z</time></trkpt>
<trkpt lat="-72.24844" lon="48.112"><ele>0</ele><time>0-324.999994701701-4669.29112392122T33.7300797829528:2009-01-24 15:37:44:0Z</time></trkpt>
<trkpt lat="-72.24839" lon="48.11205"><ele>0</ele><time>0-324.999994701701-4675.98199399045T26.5997189959663:2009-01-24 15:37:49:0Z</time></trkpt>
<trkpt lat="-72.24836" lon="48.11209"><ele>0</ele><time>0-324.999994701701-4680.96058281573T41.6765391317577:2009-01-24 15:37:54:0Z</time></trkpt>
<trkpt lat="-72.24832" lon="48.11212"><ele>0</ele><time>-0.000399729179976312-324.999994701701-4685.43063419931T39.8481386469562:2009-01-24 15:37:58:0Z</time></trkpt>
<trkpt lat="-72.24827" lon="48.11216"><ele>0</ele><time>0.000367397017964092-324.999971524102-4691.2289596964T28.1084165433513:2009-01-24 15:38:03:0Z</time></trkpt>
<trkpt lat="-72.24823" lon="48.11221"><ele>0</ele><time>0.000433008455195868-324.999994701701-4697.53755716142T33.7299779525939:2009-01-24 15:38:09:0Z</time></trkpt>
<trkpt lat="-72.24819" lon="48.11225"><ele>0</ele><time>-0.000346406857794804-325.000017879299-4702.89024663374T33.7299510475717:2009-01-24 15:38:14:0Z</time></trkpt>
<trkpt lat="-72.24814" lon="48.1123"><ele>0</ele><time>0-324.999994701701-4709.58110666552T26.5996074026025:2009-01-24 15:38:19:0Z</time></trkpt>
<trkpt lat="-72.24811" lon="48.11234"><ele>0</ele><time>-2.44036957536855E-08-324.999994701701-4714.55969063588T39.8480179840614:2009-01-24 15:38:23:0Z</time></trkpt>
<trkpt lat="-72.24806" lon="48.11238"><ele>0</ele><time>2.36052373484309E-08-324.999994700286-4720.35800594018T21.8311678605005:2009-01-24 15:38:28:0Z</time></trkpt>
<trkpt lat="-72.24803" lon="48.11243"><ele>0</ele><time>0-324.999994701701-4726.35245202355T33.7298646663018:2009-01-24 15:38:34:0Z</time></trkpt>
<trkpt lat="-72.24799" lon="48.11247"><ele>0</ele><time>0-324.999994701701-4731.70513442895T33.7298377738349:2009-01-24 15:38:39:0Z</time></trkpt>
<trkpt lat="-72.24794" lon="48.11252"><ele>0</ele><time>-0.000433009278768498-324.999994701701-4738.39598562902T33.729818323833:2009-01-24 15:38:44:0Z</time></trkpt>
<trkpt lat="-72.2479" lon="48.11256"><ele>0</ele><time>0.000432982947295307-324.999971524102-4743.74866514383T33.7297977271453:2009-01-24 15:38:49:0Z</time></trkpt>
<trkpt lat="-72.24786" lon="48.1126"><ele>0</ele><time>2.84218342131076E-08-324.999994700286-4749.10134337363T26.5994734883316:2009-01-24 15:38:53:0Z</time></trkpt>
<trkpt lat="-72.24783" lon="48.11264"><ele>0</ele><time>0-324.999994701701-4754.07992151568T39.8478534176793:2009-01-24 15:38:59:0Z</time></trkpt>
<trkpt lat="-72.24778" lon="48.11268"><ele>0</ele><time>0-324.999994701701-4759.87822292121T33.7297296410873:2009-01-24 15:39:04:0Z</time></trkpt>
<trkpt lat="-72.24773" lon="48.11273"><ele>0</ele><time>0-324.999994701701-4766.56906569053T39.84780405922:2009-01-24 15:39:09:0Z</time></trkpt>
<trkpt lat="-72.24768" lon="48.11277"><ele>0</ele><time>0-324.999994701701-4772.36736292731T33.7296895899454:2009-01-24 15:39:14:0Z</time></trkpt>
<trkpt lat="-72.24764" lon="48.11281"><ele>0</ele><time>0-324.999994701701-4777.72003441322T33.729668997322:2009-01-24 15:39:18:0Z</time></trkpt>
<trkpt lat="-72.2476" lon="48.11285"><ele>0</ele><time>0-324.999994701701-4783.07270461353T33.7296484098662:2009-01-24 15:39:23:0Z</time></trkpt>
<trkpt lat="-72.24756" lon="48.11289"><ele>0</ele><time>0-324.999994701701-4788.42537352995T28.1080782821011:2009-01-24 15:39:29:0Z</time></trkpt>
<trkpt lat="-72.24752" lon="48.11294"><ele>0</ele><time>0-324.999994701701-4794.73395110232T33.729602057462:2009-01-24 15:39:34:0Z</time></trkpt>
<trkpt lat="-72.24748" lon="48.11298"><ele>0</ele><time>0.000493861272019581-324.999994701701-4800.08661712755T18.4606430893321:2009-01-24 15:39:39:0Z</time></trkpt>
<trkpt lat="-72.24746" lon="48.11302"><ele>0</ele><time>-0.000367398367464007-325.000017879299-4804.7797565391T28.1080180437046:2009-01-24 15:39:43:0Z</time></trkpt>
<trkpt lat="-72.24742" lon="48.11307"><ele>0</ele><time>0-324.999994701701-4811.08833056884T33.7295351173604:2009-01-24 15:39:48:0Z</time></trkpt>
<trkpt lat="-72.24738" lon="48.11311"><ele>0</ele><time>0-324.999994701701-4816.44099241877T28.1079763485492:2009-01-24 15:39:54:0Z</time></trkpt>
<trkpt lat="-72.24734" lon="48.11316"><ele>0</ele><time>0-324.999994701701-4822.74956399635T39.8475681872425:2009-01-24 15:39:59:0Z</time></trkpt>
<trkpt lat="-72.24729" lon="48.1132"><ele>0</ele><time>0.000577348019254915-324.999994701701-4828.54784131202T33.7294744791765:2009-01-24 15:40:04:0Z</time></trkpt>
<trkpt lat="-72.24726" lon="48.11323"><ele>0</ele><time>-0.000367398700736824-325.000017879299-4832.56233468907T28.1079207351266:2009-01-24 15:40:08:0Z</time></trkpt>
<trkpt lat="-72.24722" lon="48.11328"><ele>0</ele><time>0.000346408998717975-324.999994701701-4838.87090299621T33.7294206902785:2009-01-24 15:40:13:0Z</time></trkpt>
<trkpt lat="-72.24717" lon="48.11333"><ele>0</ele><time>-0.000399733027770501-325.000017879299-4845.56172167624T39.8474749413426:2009-01-24 15:40:19:0Z</time></trkpt>
<trkpt lat="-72.24712" lon="48.11337"><ele>0</ele><time>0-324.999994701701-4851.35999111742T28.1078558654927:2009-01-24 15:40:24:0Z</time></trkpt>
<trkpt lat="-72.24708" lon="48.11342"><ele>0</ele><time>0-324.999994701701-4857.6685556086T39.8474255737938:2009-01-24 15:40:29:0Z</time></trkpt>
<trkpt lat="-72.24703" lon="48.11346"><ele>0</ele><time>0-324.999994701701-4863.46682088033T41.6757804725657:2009-01-24 15:40:34:0Z</time></trkpt>
<trkpt lat="-72.24699" lon="48.11349"><ele>0</ele><time>0-324.999994701701-4867.93681957465T28.1078002571526:2009-01-24 15:40:38:0Z</time></trkpt>
<trkpt lat="-72.24695" lon="48.11354"><ele>0</ele><time>0-324.999994701701-4874.24538079652T39.8473597546584:2009-01-24 15:40:44:0Z</time></trkpt>
<trkpt lat="-72.2469" lon="48.11358"><ele>0</ele><time>0-324.999994701701-4880.04364050809T39.8473378133984:2009-01-24 15:40:49:0Z</time></trkpt>
<trkpt lat="-72.24685" lon="48.11362"><ele>0</ele><time>0-324.999994701701-4885.84189836693T33.7292519023726:2009-01-24 15:40:54:0Z</time></trkpt>
<trkpt lat="-72.24681" lon="48.11366"><ele>0</ele><time>0-324.999994701701-4891.19454255239T39.8472939307952:2009-01-24 15:40:58:0Z</time></trkpt>
<trkpt lat="-72.24676" lon="48.1137"><ele>0</ele><time>-0.000325061609651384-324.999994701701-4896.99279670504T38.7011647196857:2009-01-24 15:41:04:0Z</time></trkpt>
<trkpt lat="-72.2467" lon="48.11375"><ele>0</ele><time>0.000367885135934319-324.999971524102-4904.12301395423T45.0423589633683:2009-01-24 15:41:09:0Z</time></trkpt>
<trkpt lat="-72.24664" lon="48.11379"><ele>0</ele><time>0-324.999994701701-4910.42324103544T53.1707490369548:2009-01-24 15:41:14:0Z</time></trkpt>
<trkpt lat="-72.2466" lon="48.11381"><ele>0</ele><time>0-324.999994701701-4914.13645287621T45.0423255116318:2009-01-24 15:41:18:0Z</time></trkpt>
<trkpt lat="-72.24654" lon="48.11385"><ele>0</ele><time>0-324.999994701701-4920.43667627375T53.1706966926412:2009-01-24 15:41:23:0Z</time></trkpt>
<trkpt lat="-72.24646" lon="48.11389"><ele>0</ele><time>0-324.999994701701-4927.86309347299T57.3032236664744:2009-01-24 15:41:29:0Z</time></trkpt>
<trkpt lat="-72.24639" lon="48.11392"><ele>0</ele><time>0-324.999994701701-4934.04371803471T53.1706693607019:2009-01-24 15:41:34:0Z</time></trkpt>
<trkpt lat="-72.24633" lon="48.11395"><ele>0</ele><time>-0.000375004465948778-324.999994701701-4939.6135264212T57.3031932633843:2009-01-24 15:41:39:0Z</time></trkpt>
<trkpt lat="-72.24626" lon="48.11398"><ele>0</ele><time>0.000518516989390671-324.999971524102-4945.79414587148T41.6754925117599:2009-01-24 15:41:44:0Z</time></trkpt>
<trkpt lat="-72.24622" lon="48.11401"><ele>0</ele><time>0-324.999994701701-4950.26412456767T28.1075592989188:2009-01-24 15:41:48:0Z</time></trkpt>
<trkpt lat="-72.24618" lon="48.11406"><ele>0</ele><time>0-324.999994701701-4956.57267161884T28.1075361327268:2009-01-24 15:41:54:0Z</time></trkpt>
<trkpt lat="-72.24614" lon="48.11411"><ele>0</ele><time>2.64176170901681E-08-324.999994701701-4962.88121730658T33.7289995836868:2009-01-24 15:41:59:0Z</time></trkpt>
<trkpt lat="-72.2461" lon="48.11415"><ele>0</ele><time>2.99212309035598-324.999994703115-4968.23384575431T33.728991570862:2009-01-24 15:42:04:0Z</time></trkpt>
<trkpt lat="-72.24608" lon="48.11417"><ele>0</ele><time>4.35438407210954-325.080073304547-4970.91015949588T33.7289812992728:2009-01-24 15:42:09:0Z</time></trkpt>
<trkpt lat="-72.24606" lon="48.11419"><ele>0</ele><time>4.35265241035797-325.196610269848-4973.58647291636T33.728977305963:2009-01-24 15:42:13:0Z</time></trkpt>
<trkpt lat="-72.24605" lon="48.1142"><ele>0</ele><time>7.84043209018234-325.2548555749-4974.92462950597T89.9999925552312:2009-01-24 15:42:19:0Z</time></trkpt>
<trkpt lat="-72.24603" lon="48.1142"><ele>0</ele><time>5.94484161493234-325.371369362602-4976.41069285505T53.1705397859917:2009-01-24 15:42:24:0Z</time></trkpt>
<trkpt lat="-72.24601" lon="48.11421"><ele>0</ele><time>-1.45059567879774-325.481741086699-4978.2672894012T33.7289606828515:2009-01-24 15:42:29:0Z</time></trkpt>
<trkpt lat="-72.24599" lon="48.11423"><ele>0</ele><time>-1.43843744140818-325.442918609198-4980.94360217867T45.0421080922707:2009-01-24 15:42:33:0Z</time></trkpt>
<trkpt lat="-72.24596" lon="48.11425"><ele>0</ele><time>-1.45146209768209-325.397606404114-4984.09370129175T33.7289337915799:2009-01-24 15:42:38:0Z</time></trkpt>
<trkpt lat="-72.24593" lon="48.11428"><ele>0</ele><time>-1.43696659475278-325.339337921463-4988.10816937493T45.0420802018057:2009-01-24 15:42:44:0Z</time></trkpt>
<trkpt lat="-72.2459" lon="48.1143"><ele>0</ele><time>-1.39445534786074-325.294072071576-4991.25826695217T53.1704863018857:2009-01-24 15:42:49:0Z</time></trkpt>
<trkpt lat="-72.24588" lon="48.11431"><ele>0</ele><time>-1.37985197874811-325.268182694042-4993.11486118258T18.4602047420985:2009-01-24 15:42:54:0Z</time></trkpt>
<trkpt lat="-72.24587" lon="48.11433"><ele>0</ele><time>-1.39570426368955-325.235803588926-4995.46142484409T53.1704702318321:2009-01-24 15:42:59:0Z</time></trkpt>
<trkpt lat="-72.24585" lon="48.11434"><ele>0</ele><time>-1.39445604357617-325.209891033793-4997.3180183795T53.1704649011876:2009-01-24 15:43:03:0Z</time></trkpt>
<trkpt lat="-72.24583" lon="48.11435"><ele>0</ele><time>-1.45059689736284-325.184001656259-4999.17461168362T33.728888591008:2009-01-24 15:43:09:0Z</time></trkpt>
<trkpt lat="-72.24581" lon="48.11437"><ele>0</ele><time>-1.44973099923229-325.145179178758-5001.85092221287T33.7288845996486:2009-01-24 15:43:14:0Z</time></trkpt>
<trkpt lat="-72.2458" lon="48.11438"><ele>0</ele><time>-1.45146324810222-325.125779528806-5003.18907735767T33.728879450223:2009-01-24 15:43:19:0Z</time></trkpt>
<trkpt lat="-72.24579" lon="48.11439"><ele>0</ele><time>-1.39570523100136-325.106356699841-5004.52723242225T53.1704381502662:2009-01-24 15:43:23:0Z</time></trkpt>
<trkpt lat="-72.24577" lon="48.1144"><ele>0</ele><time>-0.990015028965618-325.080444146124-5006.38382456946T23.9936882162955:2009-01-24 15:43:29:0Z</time></trkpt>
<trkpt lat="-72.24575" lon="48.11443"><ele>0</ele><time>4.22187730397572-325.044263914852-5010.03833790647T45.0419965799416:2009-01-24 15:43:34:0Z</time></trkpt>
<trkpt lat="-72.24572" lon="48.11445"><ele>0</ele><time>4.35092714234196-325.177256975093-5013.18843087852T33.7288434041709:2009-01-24 15:43:39:0Z</time></trkpt>
<trkpt lat="-72.24571" lon="48.11446"><ele>0</ele><time>4.35352561948316-325.235479102547-5014.52658538098T33.7288319576061:2009-01-24 15:43:43:0Z</time></trkpt>
<trkpt lat="-72.24569" lon="48.11448"><ele>0</ele><time>6.27693574471485-325.351992890249-5017.20289414509T53.1703899789418:2009-01-24 15:43:48:0Z</time></trkpt>
<trkpt lat="-72.24567" lon="48.11449"><ele>0</ele><time>6.27506432429441-325.46852985555-5019.05948420815T53.1703745185867:2009-01-24 15:43:54:0Z</time></trkpt>
<trkpt lat="-72.24563" lon="48.11451"><ele>0</ele><time>7.5104263428738-325.701534253355-5022.77266363968T73.3238235605203:2009-01-24 15:43:59:0Z</time></trkpt>
<trkpt lat="-72.24558" lon="48.11452"><ele>0</ele><time>7.51042768453236-325.992807133811-5026.6509105881T73.3238204852041:2009-01-24 15:44:04:0Z</time></trkpt>
<trkpt lat="-72.24553" lon="48.11453"><ele>0</ele><time>7.34259711177789-326.284080014268-5030.52915684373T69.4715113958431:2009-01-24 15:44:09:0Z</time></trkpt>
<trkpt lat="-72.24549" lon="48.11454"><ele>0</ele><time>7.50983273552664-326.517107589672-5033.70279652267T73.3238143445906:2009-01-24 15:44:13:0Z</time></trkpt>
<trkpt lat="-72.24544" lon="48.11455"><ele>0</ele><time>6.72549771358325-326.808357292529-5037.58104139328T59.0732187440923:2009-01-24 15:44:19:0Z</time></trkpt>
<trkpt lat="-72.24539" lon="48.11457"><ele>0</ele><time>6.72549964044084-327.099630172986-5041.91191611603T59.0732089118564:2009-01-24 15:44:24:0Z</time></trkpt>
<trkpt lat="-72.24534" lon="48.11459"><ele>0</ele><time>6.72550156549799-327.390903053442-5046.24278959797T59.0731990715756:2009-01-24 15:44:29:0Z</time></trkpt>
<trkpt lat="-72.24529" lon="48.11461"><ele>0</ele><time>6.25386718708881-327.682175933898-5050.57366184028T41.6751436145225:2009-01-24 15:44:34:0Z</time></trkpt>
<trkpt lat="-72.24525" lon="48.11464"><ele>0</ele><time>7.84452178030446-327.961720949509-5055.04361630602T53.1702841601112:2009-01-24 15:44:38:0Z</time></trkpt>
<trkpt lat="-72.24519" lon="48.11467"><ele>0</ele><time>7.8396373175158-328.398641858992-5060.61337468926T89.9999664982881:2009-01-24 15:44:44:0Z</time></trkpt>
<trkpt lat="-72.2451" lon="48.11467"><ele>0</ele><time>7.84019187072281-328.922895959655-5067.30059859299T89.9999627758742:2009-01-24 15:44:49:0Z</time></trkpt>
<trkpt lat="-72.245" lon="48.11467"><ele>0</ele><time>7.84102369749761-329.505441720567-5074.73084737411T89.9999776655249:2009-01-24 15:44:54:0Z</time></trkpt>
<trkpt lat="-72.24494" lon="48.11467"><ele>0</ele><time>5.97090975058814-329.855006261272-5079.18899664379T98.518448755389:2009-01-24 15:44:58:0Z</time></trkpt>
<trkpt lat="-72.24484" lon="48.11466"><ele>0</ele><time>4.8620368224347-330.303608680404-5086.70213011709T89.9999664982931:2009-01-24 15:45:03:0Z</time></trkpt>
<trkpt lat="-72.24475" lon="48.11466"><ele>0</ele><time>-2.60323193804451-330.628744032281-5093.38935532231T108.409795610416:2009-01-24 15:45:09:0Z</time></trkpt>
<trkpt lat="-72.24466" lon="48.11464"><ele>0</ele><time>5.7699919724349-330.445270162488-5100.43728167538T113.168237062494:2009-01-24 15:45:14:0Z</time></trkpt>
<trkpt lat="-72.24459" lon="48.11462"><ele>0</ele><time>8.52940210004709-330.771703459881-5106.0947123781T106.676169878444:2009-01-24 15:45:19:0Z</time></trkpt>
<trkpt lat="-72.24454" lon="48.11461"><ele>0</ele><time>14.415550082588-331.102494145794-5109.97295240047T113.168224962541:2009-01-24 15:45:23:0Z</time></trkpt>
<trkpt lat="-72.24447" lon="48.11459"><ele>0</ele><time>14.6848403420607-331.918044304512-5115.63038589448T110.528460416911:2009-01-24 15:45:28:0Z</time></trkpt>
<trkpt lat="-72.24439" lon="48.11457"><ele>0</ele><time>7.62063276438173-332.850131428531-5121.97766037829T126.829617686813:2009-01-24 15:45:34:0Z</time></trkpt>
<trkpt lat="-72.24433" lon="48.11454"><ele>0</ele><time>7.51042902548063-333.274582790017-5127.5474257063T106.676145346032:2009-01-24 15:45:39:0Z</time></trkpt>
<trkpt lat="-72.24428" lon="48.11453"><ele>0</ele><time>6.61459027264341-333.565855670473-5131.42567126948T97.1146049461925:2009-01-24 15:45:44:0Z</time></trkpt>
<trkpt lat="-72.24404" lon="48.11451"><ele>0</ele><time>-5445946.82209726-334.754565163763-5149.39669357461T00:2009-01-24 15:45:48:0Z</time></trkpt>
<trkpt lat="-72.24404" lon="48.11451"><ele>0</ele><time>-1.74314759730361-334.754541987579-5149.39669357504T180:2009-01-24 15:45:48:0Z</time></trkpt>
<trkpt lat="-72.24404" lon="48.1145"><ele>0</ele><time>1.74523021087432-334.735142337627-5150.50960277343T00:2009-01-24 15:45:53:0Z</time></trkpt>
<trkpt lat="-72.24404" lon="48.11451"><ele>0</ele><time>-1.74731282444504-334.754565165177-5151.62251197183T180:2009-01-24 15:45:58:0Z</time></trkpt>
<trkpt lat="-72.24404" lon="48.1145"><ele>0</ele><time>1.74523033801886-334.735119160029-5152.73542117022T00:2009-01-24 15:46:02:0Z</time></trkpt>
<trkpt lat="-72.24404" lon="48.11451"><ele>0</ele><time>-1.74314759730361-334.754541988994-5153.84833036862T180:2009-01-24 15:46:07:0Z</time></trkpt>
<trkpt lat="-72.24404" lon="48.1145"><ele>0</ele><time>4.33206964820899-334.735142339042-5154.96123956701T98.5183449076859:2009-01-24 15:46:13:0Z</time></trkpt>
<trkpt lat="-72.24374" lon="48.11447"><ele>0</ele><time>7.83995336460822-335.711568209007-5177.50071721296T89.9999776655941:2009-01-24 15:46:23:0Z</time></trkpt>
<trkpt lat="-72.24368" lon="48.11447"><ele>0</ele><time>7.0152507875908-336.061086393101-5181.95888383512T116.53145973531:2009-01-24 15:46:28:0Z</time></trkpt>
<trkpt lat="-72.24365" lon="48.11446"><ele>0</ele><time>7.83995187245042-336.235868663453-5184.45034530448T89.999988832797:2009-01-24 15:46:32:0Z</time></trkpt>
<trkpt lat="-72.24362" lon="48.11446"><ele>0</ele><time>7.84015982651931-336.410627756207-5186.67942904884T89.9999813879985:2009-01-24 15:46:37:0Z</time></trkpt>
<trkpt lat="-72.24357" lon="48.11446"><ele>0</ele><time>7.83969192635718-336.701900636663-5190.39456862381T89.9999851103971:2009-01-24 15:46:43:0Z</time></trkpt>
<trkpt lat="-72.24353" lon="48.11446"><ele>0</ele><time>5.54848027893906-336.934905034469-5193.36668028323T134.9579866475:2009-01-24 15:46:48:0Z</time></trkpt>
<trkpt lat="-72.2435" lon="48.11444"><ele>0</ele><time>7.01338700399609-337.109687304821-5196.51677294943T116.531446366082:2009-01-24 15:46:53:0Z</time></trkpt>
<trkpt lat="-72.24347" lon="48.11443"><ele>0</ele><time>7.01431607861305-337.284423221392-5199.00823558326T116.531441895116:2009-01-24 15:46:58:0Z</time></trkpt>
<trkpt lat="-72.24344" lon="48.11442"><ele>0</ele><time>5.21318944630617-337.459182312731-5201.49969860518T41.6752488573852:2009-01-24 15:47:02:0Z</time></trkpt>
<trkpt lat="-72.2434" lon="48.11445"><ele>0</ele><time>7.01431941301983-337.692209888135-5205.96966037818T63.4685223867006:2009-01-24 15:47:07:0Z</time></trkpt>
<trkpt lat="-72.24337" lon="48.11446"><ele>0</ele><time>7.84015982661185-337.866968980889-5208.4611222359T89.9999813879985:2009-01-24 15:47:13:0Z</time></trkpt>
<trkpt lat="-72.24332" lon="48.11446"><ele>0</ele><time>4.35381364409854-338.158241861345-5212.17626181083T146.271136563715:2009-01-24 15:47:18:0Z</time></trkpt>
<trkpt lat="-72.24329" lon="48.11443"><ele>0</ele><time>5.21267003071138-338.333024131698-5216.1907255578T138.324710303748:2009-01-24 15:47:23:0Z</time></trkpt>
<trkpt lat="-72.24325" lon="48.1144"><ele>0</ele><time>6.91597918909636-338.566028529503-5220.66068809969T75.9834989504391:2009-01-24 15:47:27:0Z</time></trkpt>
<trkpt lat="-72.24319" lon="48.11441"><ele>0</ele><time>2.66000611374301-338.883816582653-5225.25567088464T33.7288451053796:2009-01-24 15:47:32:0Z</time></trkpt>
<trkpt lat="-72.24315" lon="48.11445"><ele>0</ele><time>1.23057004662291-339.026196570291-5230.60828969639T12.5466014208926:2009-01-24 15:47:38:0Z</time></trkpt>
<trkpt lat="-72.24314" lon="48.11448"><ele>0</ele><time>1.65444010826961-339.068287089182-5234.02869790529T18.4601478061422:2009-01-24 15:47:43:0Z</time></trkpt>
<trkpt lat="-72.24313" lon="48.1145"><ele>0</ele><time>4.35460796188106-339.107109566684-5236.37526078829T89.9999962776005:2009-01-24 15:47:48:0Z</time></trkpt>
<trkpt lat="-72.24312" lon="48.1145"><ele>0</ele><time>2.66217238095909-339.139465494202-5237.11828812396T33.7288176401201:2009-01-24 15:47:52:0Z</time></trkpt>
<trkpt lat="-72.24311" lon="48.11451"><ele>0</ele><time>-2.6604403236745-339.175089463109-5238.45644222554T-146.271174915076:2009-01-24 15:47:59:0Z</time></trkpt>
<trkpt lat="-72.24312" lon="48.1145"><ele>0</ele><time>-161982849.486491-339.1394886718-5239.79459632703T00:2009-01-24 15:48:03:0Z</time></trkpt>
<trkpt lat="-72.24312" lon="48.1145"><ele>0</ele><time>4.35772730216054-339.139465494202-5239.79459632705T89.9999962776005:2009-01-24 15:48:04:0Z</time></trkpt>
<trkpt lat="-72.24311" lon="48.1145"><ele>0</ele><time>0-339.171844599318-5240.53762366379T00:2009-01-24 15:48:05:0Z</time></trkpt>
</trkseg></trk></gpx>